Darstellungsparameter: Aktuell verwendete Einstellungen:
Skalierung der Graphiken ... ?
xyx+y,   Skalierungsfaktor:      Skalierung: Modus: x, Faktor: 1
Darstellungszeitraum ... ?
Vom - - bis: - -   Zeitraum: 29.06.2009 - 28.09.2009
Min/Max/Avg-Anzeige ... ?
Zeige MMA aktuell
Zeige MMA Monat
Zeige MMA alles
Zeige --A aktuell
Zeige --A Monat
Zeige --A alles
Keine MMA-Anzeige
MMA:
Average (ber die Originaldaten)
MMA-Basis: 29.06.2009 - 28.09.2009
Quicknavigation für Darstellung... ?
Tage:      1T, 2T, 3T, 5T -1T -2T -3T -5T +1T +2T +3T +5T
Wochen: 1W, 2W, 3W -1W -2W -3W +1W +2W +3W
Monate: 1M, 3M, 6M -1M -3M -6M +1M +3M +6M
Jahre:    1J, 3J, 5J, 10J -1J -3J -5J -10J +1J +3J +5J +10J
Nutze für die Darstellung ... ?
Originaldaten oder Mittelwerte auf ...
Stundenbasis Tagesbasis Wochenbasis
Monatsbasis Jahresbasis      Datenbasis: Original-Daten
Darstellen als:
Statistik (Auto) Statistik J:M      Darstellung:
Zur Graphik,    zurück zur Übersicht aller Sensoren.
 
Tabellarische Datenbersicht: ?
 
Sensor: Nr:Datum:Temp:Abs-Feuchte:Windchill:Wind:
Aussen-T/F 1 29-06-2009 00:06:52 22.5 C 11.58 g/m*3 22.5 C 0 km/h
2 29-06-2009 00:18:52 22.1 C 11.52 g/m*3 22.1 C 0 km/h
3 29-06-2009 00:30:52 21.9 C 11.58 g/m*3 21.9 C 0 km/h
4 29-06-2009 00:42:52 21.8 C 11.7 g/m*3 21.8 C 0 km/h
5 29-06-2009 00:54:52 21.6 C 11.57 g/m*3 21.6 C 0 km/h
6 29-06-2009 01:06:52 21.5 C 11.69 g/m*3 21.5 C 0 km/h
7 29-06-2009 01:18:52 21.2 C 11.49 g/m*3 21.2 C 0 km/h
8 29-06-2009 01:30:53 20.9 C 11.66 g/m*3 20.9 C 0 km/h
9 29-06-2009 01:42:53 20.8 C 11.77 g/m*3 20.8 C 0 km/h
10 29-06-2009 01:54:53 20.5 C 11.74 g/m*3 20.5 C 0 km/h
11 29-06-2009 02:06:53 20.4 C 11.85 g/m*3 20.4 C 0 km/h
12 29-06-2009 02:18:53 20.2 C 11.89 g/m*3 20.2 C 0 km/h
13 29-06-2009 02:30:53 20.1 C 11.82 g/m*3 20.1 C 0 km/h
14 29-06-2009 02:42:53 20.2 C 12.06 g/m*3 20.2 C 0 km/h
15 29-06-2009 02:54:53 20.4 C 12.03 g/m*3 20.4 C 0 km/h
16 29-06-2009 03:06:53 20 C 11.92 g/m*3 20 C 0 km/h
17 29-06-2009 03:18:53 19.8 C 11.96 g/m*3 19.8 C 0 km/h
18 29-06-2009 03:30:53 19.6 C 11.99 g/m*3 19.6 C 0 km/h
19 29-06-2009 03:42:53 19.5 C 11.92 g/m*3 19.5 C 0 km/h
20 29-06-2009 03:54:53 19.3 C 11.78 g/m*3 19.3 C 0 km/h
21 29-06-2009 04:06:53 19.3 C 11.94 g/m*3 19.3 C 0 km/h
22 29-06-2009 04:18:53 19.1 C 11.8 g/m*3 19.1 C 0 km/h
23 29-06-2009 04:30:53 19 C 11.73 g/m*3 19 C 0 km/h
24 29-06-2009 04:42:53 18.8 C 11.92 g/m*3 18.8 C 0 km/h
25 29-06-2009 04:54:53 18.7 C 12.01 g/m*3 18.7 C 0 km/h
Sensor: Nr:Datum:Temp:Abs-Feuchte:Windchill:Wind:
Aussen-T/F 26 29-06-2009 05:06:53 18.5 C 12.02 g/m*3 18.5 C 0 km/h
27 29-06-2009 05:18:54 18.4 C 11.95 g/m*3 18.4 C 0 km/h
28 29-06-2009 05:30:54 18.4 C 11.95 g/m*3 18.4 C 0 km/h
29 29-06-2009 05:42:54 18.3 C 12.04 g/m*3 18.3 C 0 km/h
30 29-06-2009 05:54:54 18.3 C 12.04 g/m*3 18.3 C 0 km/h
31 29-06-2009 06:06:54 18.3 C 12.04 g/m*3 18.3 C 0 km/h
32 29-06-2009 06:18:54 18.2 C 12.12 g/m*3 18.2 C 0 km/h
33 29-06-2009 06:30:54 18.1 C 12.21 g/m*3 18.1 C 0 km/h
34 29-06-2009 06:42:54 18 C 12.29 g/m*3 18 C 0 km/h
35 29-06-2009 06:54:54 18 C 12.29 g/m*3 18 C 0 km/h
36 29-06-2009 07:06:51 18.3 C 12.51 g/m*3 18.3 C 0 km/h
37 29-06-2009 07:18:52 18.3 C 12.35 g/m*3 18.3 C 0 km/h
38 29-06-2009 07:30:52 18.5 C 12.5 g/m*3 18.5 C 0 km/h
39 29-06-2009 07:42:52 18.7 C 12.49 g/m*3 18.7 C 0 km/h
40 29-06-2009 07:54:51 18.8 C 12.56 g/m*3 18.8 C 0 km/h
41 29-06-2009 08:06:52 19.2 C 12.53 g/m*3 19.2 C 0 km/h
42 29-06-2009 08:18:51 19.5 C 12.59 g/m*3 19.5 C 0 km/h
43 29-06-2009 08:30:51 19.9 C 12.71 g/m*3 19.9 C 0 km/h
44 29-06-2009 08:42:52 20.2 C 12.41 g/m*3 20.2 C 0 km/h
45 29-06-2009 08:54:51 20.5 C 12.63 g/m*3 20.5 C 0 km/h
46 29-06-2009 09:06:51 21.2 C 12.79 g/m*3 21.2 C 0 km/h
47 29-06-2009 09:18:50 21.9 C 12.74 g/m*3 21.9 C 0 km/h
48 29-06-2009 09:30:50 22.6 C 12.66 g/m*3 22.6 C 0 km/h
49 29-06-2009 09:42:50 23.3 C 12.75 g/m*3 23.3 C 0 km/h
50 29-06-2009 09:54:50 23.9 C 12.55 g/m*3 23.9 C 0 km/h
Sensor: Nr:Datum:Temp:Abs-Feuchte:Windchill:Wind:
Aussen-T/F 51 29-06-2009 10:06:50 24.4 C 12.46 g/m*3 24.4 C 0 km/h
52 29-06-2009 10:18:49 24.8 C 12.06 g/m*3 24.8 C 0 km/h
53 29-06-2009 10:30:50 25.3 C 11.94 g/m*3 25.3 C 0 km/h
54 29-06-2009 10:42:50 25.8 C 11.8 g/m*3 25.8 C 0 km/h
55 29-06-2009 10:54:49 26.4 C 11.2 g/m*3 26.4 C 0 km/h
56 29-06-2009 11:06:49 27 C 11.32 g/m*3 27 C 0 km/h
57 29-06-2009 11:18:50 27.3 C 10.99 g/m*3 27.3 C 0 km/h
58 29-06-2009 11:30:49 27.8 C 11.03 g/m*3 27.8 C 0 km/h
59 29-06-2009 11:42:49 28.8 C 11.08 g/m*3 28.8 C 0 km/h
60 29-06-2009 11:54:49 29.2 C 10.45 g/m*3 29.2 C 0 km/h
61 29-06-2009 12:06:49 29.5 C 10.33 g/m*3 29.5 C 0 km/h
62 29-06-2009 12:18:49 30.4 C 10.23 g/m*3 30.4 C 0 km/h
63 29-06-2009 12:30:49 30.9 C 9.55 g/m*3 30.9 C 0 km/h
64 29-06-2009 12:42:49 31 C 9.6 g/m*3 31 C 0 km/h
65 29-06-2009 12:54:49 31.6 C 8.59 g/m*3 31.6 C 0 km/h
66 29-06-2009 13:06:48 32 C 8.78 g/m*3 32 C 0 km/h
67 29-06-2009 13:18:48 32.3 C 8.23 g/m*3 32.3 C 0 km/h
68 29-06-2009 13:30:48 31.9 C 8.06 g/m*3 31.9 C 0 km/h
69 29-06-2009 13:42:48 31.2 C 9.06 g/m*3 31.2 C 0 km/h
70 29-06-2009 13:54:48 28.7 C 10.17 g/m*3 28.7 C 0 km/h
71 29-06-2009 14:06:48 28.7 C 10.17 g/m*3 28.7 C 0 km/h
72 29-06-2009 14:18:47 28.3 C 10.23 g/m*3 28.3 C 0 km/h
73 29-06-2009 14:30:48 28.5 C 10.06 g/m*3 28.5 C 0 km/h
74 29-06-2009 14:42:49 28.2 C 9.9 g/m*3 28.2 C 0 km/h
75 29-06-2009 14:54:47 28.8 C 10.23 g/m*3 28.8 C 0 km/h
Sensor: Nr:Datum:Temp:Abs-Feuchte:Windchill:Wind:
Aussen-T/F 76 29-06-2009 15:06:47 29.1 C 10.11 g/m*3 29.1 C 0 km/h
77 29-06-2009 15:18:47 30 C 10.01 g/m*3 30 C 0 km/h
78 29-06-2009 15:30:47 30.2 C 10.12 g/m*3 30.2 C 0 km/h
79 29-06-2009 15:42:47 29.9 C 10.25 g/m*3 29.9 C 0 km/h
80 29-06-2009 15:54:46 29.4 C 9.98 g/m*3 29.4 C 0 km/h
81 29-06-2009 16:06:47 29.3 C 10.51 g/m*3 29.3 C 0 km/h
82 29-06-2009 16:18:47 29.2 C 10.45 g/m*3 29.2 C 0 km/h
83 29-06-2009 16:30:46 29.5 C 11.22 g/m*3 29.5 C 0 km/h
84 29-06-2009 16:42:46 29.3 C 10.51 g/m*3 29.3 C 0 km/h
85 29-06-2009 16:54:47 29.5 C 10.92 g/m*3 29.5 C 0 km/h
86 29-06-2009 17:06:46 29.1 C 10.69 g/m*3 29.1 C 0 km/h
87 29-06-2009 17:18:46 28.8 C 11.08 g/m*3 28.8 C 0 km/h
88 29-06-2009 17:30:46 29 C 11.78 g/m*3 29 C 0 km/h
89 29-06-2009 17:42:46 30.1 C 10.98 g/m*3 30.1 C 0 km/h
90 29-06-2009 17:54:46 30.1 C 10.37 g/m*3 30.1 C 0 km/h
91 29-06-2009 18:06:46 30.6 C 10.65 g/m*3 30.6 C 0 km/h
92 29-06-2009 18:18:45 31.5 C 8.88 g/m*3 31.5 C 0 km/h
93 29-06-2009 18:30:45 31.5 C 10.19 g/m*3 31.5 C 0 km/h
94 29-06-2009 18:42:45 31.2 C 10.03 g/m*3 31.2 C 0 km/h
95 29-06-2009 18:54:45 31.3 C 9.76 g/m*3 31.3 C 0 km/h
96 29-06-2009 19:06:45 31.1 C 9.97 g/m*3 31.1 C 0 km/h
97 29-06-2009 19:18:45 30.4 C 10.23 g/m*3 30.4 C 0 km/h
98 29-06-2009 19:30:45 30.2 C 11.34 g/m*3 30.2 C 0 km/h
99 29-06-2009 19:42:45 29.9 C 10.56 g/m*3 29.9 C 0 km/h
100 29-06-2009 19:54:45 28.8 C 10.51 g/m*3 28.8 C 0 km/h
Sensor: Nr:Datum:Temp:Abs-Feuchte:Windchill:Wind:
Aussen-T/F 101 29-06-2009 20:06:44 28.9 C 10.86 g/m*3 28.9 C 0 km/h
102 29-06-2009 20:18:45 29 C 11.2 g/m*3 29 C 0 km/h
103 29-06-2009 20:30:44 28.7 C 11.02 g/m*3 28.7 C 0 km/h
104 29-06-2009 20:42:44 28.4 C 11.4 g/m*3 28.4 C 0 km/h
105 29-06-2009 20:54:44 27.6 C 10.91 g/m*3 27.6 C 0 km/h
106 29-06-2009 21:06:44 27.2 C 11.45 g/m*3 27.2 C 0 km/h
107 29-06-2009 21:18:44 26.2 C 11.32 g/m*3 26.2 C 0 km/h
108 29-06-2009 21:30:44 25.3 C 11.47 g/m*3 25.3 C 0 km/h
109 29-06-2009 21:42:44 24.6 C 11.48 g/m*3 24.6 C 0 km/h
110 29-06-2009 21:54:44 24.3 C 11.73 g/m*3 24.3 C 0 km/h
111 29-06-2009 22:06:43 23.9 C 12.11 g/m*3 23.9 C 0 km/h
112 29-06-2009 22:18:43 23.6 C 11.91 g/m*3 23.6 C 0 km/h
113 29-06-2009 22:30:43 23.5 C 12.05 g/m*3 23.5 C 0 km/h
114 29-06-2009 22:42:43 23.4 C 12.2 g/m*3 23.4 C 0 km/h
115 29-06-2009 22:55:56 23.4 C 12.2 g/m*3 23.4 C 0 km/h
116 29-06-2009 23:07:56 23.2 C 12.27 g/m*3 23.2 C 0 km/h
117 29-06-2009 23:19:56 22.9 C 12.47 g/m*3 22.9 C 0 km/h
118 29-06-2009 23:31:56 22.7 C 12.53 g/m*3 22.7 C 0 km/h
119 29-06-2009 23:43:56 22.5 C 12.38 g/m*3 22.5 C 0 km/h
120 29-06-2009 23:55:56 22.3 C 12.44 g/m*3 22.3 C 0 km/h
121 30-06-2009 00:07:56 22 C 12.42 g/m*3 22 C 0 km/h
122 30-06-2009 00:19:56 21.9 C 12.74 g/m*3 21.9 C 0 km/h
123 30-06-2009 00:31:56 21.8 C 12.85 g/m*3 21.8 C 0 km/h
124 30-06-2009 00:43:56 21.6 C 12.9 g/m*3 21.6 C 0 km/h
125 30-06-2009 00:55:56 21.4 C 12.94 g/m*3 21.4 C 0 km/h
Sensor: Nr:Datum:Temp:Abs-Feuchte:Windchill:Wind:
Aussen-T/F 126 30-06-2009 01:07:56 21.2 C 12.79 g/m*3 21.2 C 0 km/h
127 30-06-2009 01:19:56 21 C 13.01 g/m*3 21 C 0 km/h
128 30-06-2009 01:31:56 20.9 C 12.93 g/m*3 20.9 C 0 km/h
129 30-06-2009 01:43:56 20.7 C 13.14 g/m*3 20.7 C 0 km/h
130 30-06-2009 01:55:57 20.6 C 13.07 g/m*3 20.6 C 0 km/h
131 30-06-2009 02:07:57 20.5 C 13.17 g/m*3 20.5 C 0 km/h
132 30-06-2009 02:19:57 20.4 C 13.09 g/m*3 20.4 C 0 km/h
133 30-06-2009 02:31:57 20.2 C 12.94 g/m*3 20.2 C 0 km/h
134 30-06-2009 02:43:57 20 C 12.96 g/m*3 20 C 0 km/h
135 30-06-2009 02:55:57 19.9 C 13.23 g/m*3 19.9 C 0 km/h
136 30-06-2009 03:07:57 19.7 C 13.08 g/m*3 19.7 C 0 km/h
137 30-06-2009 03:19:57 19.5 C 13.26 g/m*3 19.5 C 0 km/h
138 30-06-2009 03:31:57 19.2 C 13.03 g/m*3 19.2 C 0 km/h
139 30-06-2009 03:43:57 19.2 C 13.03 g/m*3 19.2 C 0 km/h
140 30-06-2009 03:55:57 19.2 C 13.03 g/m*3 19.2 C 0 km/h
141 30-06-2009 04:07:57 19.2 C 13.03 g/m*3 19.2 C 0 km/h
142 30-06-2009 04:19:57 19 C 12.87 g/m*3 19 C 0 km/h
143 30-06-2009 04:31:57 19 C 12.87 g/m*3 19 C 0 km/h
144 30-06-2009 04:43:57 19.1 C 13.11 g/m*3 19.1 C 0 km/h
145 30-06-2009 04:55:57 19.1 C 12.95 g/m*3 19.1 C 0 km/h
146 30-06-2009 05:07:57 18.9 C 13.12 g/m*3 18.9 C 0 km/h
147 30-06-2009 05:19:57 18.8 C 13.21 g/m*3 18.8 C 0 km/h
148 30-06-2009 05:31:57 18.8 C 13.21 g/m*3 18.8 C 0 km/h
149 30-06-2009 05:43:58 18.7 C 13.13 g/m*3 18.7 C 0 km/h
150 30-06-2009 05:55:58 18.8 C 13.21 g/m*3 18.8 C 0 km/h
Sensor: Nr:Datum:Temp:Abs-Feuchte:Windchill:Wind:
Aussen-T/F 151 30-06-2009 06:07:58 18.8 C 13.21 g/m*3 18.8 C 0 km/h
152 30-06-2009 06:19:58 18.8 C 13.21 g/m*3 18.8 C 0 km/h
153 30-06-2009 06:31:58 18.8 C 13.21 g/m*3 18.8 C 0 km/h
154 30-06-2009 06:43:58 19.1 C 13.28 g/m*3 19.1 C 0 km/h
155 30-06-2009 06:55:58 19.3 C 13.27 g/m*3 19.3 C 0 km/h
156 30-06-2009 07:07:44 19.5 C 13.09 g/m*3 19.5 C 0 km/h
157 30-06-2009 07:19:43 19.6 C 13.17 g/m*3 19.6 C 0 km/h
158 30-06-2009 07:31:44 19.8 C 13.15 g/m*3 19.8 C 0 km/h
159 30-06-2009 07:43:44 19.9 C 13.23 g/m*3 19.9 C 0 km/h
160 30-06-2009 07:55:43 20.2 C 13.29 g/m*3 20.2 C 0 km/h
161 30-06-2009 08:07:43 20.4 C 13.27 g/m*3 20.4 C 0 km/h
162 30-06-2009 08:19:44 20.7 C 13.32 g/m*3 20.7 C 0 km/h
163 30-06-2009 08:31:43 21.6 C 13.85 g/m*3 21.6 C 0 km/h
164 30-06-2009 08:43:43 22.1 C 13.66 g/m*3 22.1 C 0 km/h
165 30-06-2009 08:55:43 22.5 C 13.58 g/m*3 22.5 C 0 km/h
166 30-06-2009 09:07:43 23 C 13.36 g/m*3 23 C 0 km/h
167 30-06-2009 09:19:43 23.2 C 13.51 g/m*3 23.2 C 0 km/h
168 30-06-2009 09:31:43 23.7 C 13.48 g/m*3 23.7 C 0 km/h
169 30-06-2009 09:43:43 24.5 C 13.43 g/m*3 24.5 C 0 km/h
170 30-06-2009 09:55:42 24.5 C 13.2 g/m*3 24.5 C 0 km/h
171 30-06-2009 10:07:43 25 C 13.12 g/m*3 25 C 0 km/h
172 30-06-2009 10:19:42 25.6 C 13.09 g/m*3 25.6 C 0 km/h
173 30-06-2009 10:31:42 26 C 12.9 g/m*3 26 C 0 km/h
174 30-06-2009 10:43:42 26.6 C 12.84 g/m*3 26.6 C 0 km/h
175 30-06-2009 10:55:42 27.3 C 12.04 g/m*3 27.3 C 0 km/h
Sensor: Nr:Datum:Temp:Abs-Feuchte:Windchill:Wind:
Aussen-T/F 176 30-06-2009 11:07:42 28.1 C 12.3 g/m*3 28.1 C 0 km/h
177 30-06-2009 11:19:41 28.3 C 12.16 g/m*3 28.3 C 0 km/h
178 30-06-2009 11:31:42 28.4 C 11.95 g/m*3 28.4 C 0 km/h
179 30-06-2009 11:43:42 29.2 C 12.2 g/m*3 29.2 C 0 km/h
180 30-06-2009 11:55:41 29.7 C 11.93 g/m*3 29.7 C 0 km/h
181 30-06-2009 12:07:41 30.2 C 11.65 g/m*3 30.2 C 0 km/h
182 30-06-2009 12:19:41 30.3 C 12.02 g/m*3 30.3 C 0 km/h
183 30-06-2009 12:31:41 30.8 C 11.08 g/m*3 30.8 C 0 km/h
184 30-06-2009 12:43:41 31.4 C 10.14 g/m*3 31.4 C 0 km/h
185 30-06-2009 12:55:41 31.5 C 10.52 g/m*3 31.5 C 0 km/h
186 30-06-2009 13:07:40 31.9 C 9.4 g/m*3 31.9 C 0 km/h
187 30-06-2009 13:19:41 32 C 9.45 g/m*3 32 C 0 km/h
188 30-06-2009 13:31:40 32.7 C 9.11 g/m*3 32.7 C 0 km/h
189 30-06-2009 13:43:40 31.2 C 9.38 g/m*3 31.2 C 0 km/h
190 30-06-2009 13:55:40 31.3 C 9.76 g/m*3 31.3 C 0 km/h
191 30-06-2009 14:07:40 31.7 C 8.64 g/m*3 31.7 C 0 km/h
192 30-06-2009 14:19:40 31.9 C 9.07 g/m*3 31.9 C 0 km/h
193 30-06-2009 14:31:40 31.9 C 8.73 g/m*3 31.9 C 0 km/h
194 30-06-2009 14:43:40 31.6 C 8.92 g/m*3 31.6 C 0 km/h
195 30-06-2009 14:55:40 31 C 9.6 g/m*3 31 C 0 km/h
196 30-06-2009 15:07:40 28.9 C 10.57 g/m*3 28.9 C 0 km/h
197 30-06-2009 15:19:39 23.4 C 15.35 g/m*3 23.4 C 0 km/h
198 30-06-2009 15:31:39 22.3 C 16.39 g/m*3 22.3 C 0 km/h
199 30-06-2009 15:43:39 21 C 15.39 g/m*3 21 C 0 km/h
200 30-06-2009 15:55:39 20.2 C 15.04 g/m*3 20.2 C 0 km/h
Sensor: Nr:Datum:Temp:Abs-Feuchte:Windchill:Wind:
Aussen-T/F 201 30-06-2009 16:07:39 19.7 C 14.77 g/m*3 19.7 C 0 km/h
202 30-06-2009 16:19:38 20 C 15.04 g/m*3 20 C 0 km/h
203 30-06-2009 16:31:39 20.5 C 15.84 g/m*3 20.5 C 0 km/h
204 30-06-2009 16:43:39 19.3 C 14.6 g/m*3 19.3 C 0 km/h
205 30-06-2009 16:55:38 19.3 C 14.6 g/m*3 19.3 C 0 km/h
206 30-06-2009 17:07:38 19.7 C 15.11 g/m*3 19.7 C 0 km/h
207 30-06-2009 17:19:39 20 C 15.38 g/m*3 20 C 0 km/h
208 30-06-2009 17:31:38 20.1 C 15.47 g/m*3 20.1 C 0 km/h
209 30-06-2009 17:43:38 20.3 C 15.65 g/m*3 20.3 C 0 km/h
210 30-06-2009 17:55:38 20.6 C 16.11 g/m*3 20.6 C 0 km/h
211 30-06-2009 18:07:38 20.8 C 16.3 g/m*3 20.8 C 0 km/h
212 30-06-2009 18:19:38 21.1 C 16.4 g/m*3 21.1 C 0 km/h
213 30-06-2009 18:31:37 21.3 C 16.4 g/m*3 21.3 C 0 km/h
214 30-06-2009 18:43:37 21.7 C 16.41 g/m*3 21.7 C 0 km/h
215 30-06-2009 18:55:38 22 C 16.3 g/m*3 22 C 0 km/h
216 30-06-2009 19:07:37 22 C 15.72 g/m*3 22 C 0 km/h
217 30-06-2009 19:19:37 22.3 C 15.99 g/m*3 22.3 C 0 km/h
218 30-06-2009 19:31:37 22.6 C 16.27 g/m*3 22.6 C 0 km/h
219 30-06-2009 19:43:37 22.8 C 16.05 g/m*3 22.8 C 0 km/h
220 30-06-2009 19:55:37 23.1 C 15.92 g/m*3 23.1 C 0 km/h
221 30-06-2009 20:07:37 23.3 C 16.31 g/m*3 23.3 C 0 km/h
222 30-06-2009 20:19:36 23.2 C 16.22 g/m*3 23.2 C 0 km/h
223 30-06-2009 20:31:37 22.8 C 15.85 g/m*3 22.8 C 0 km/h
224 30-06-2009 20:43:37 22.2 C 15.31 g/m*3 22.2 C 0 km/h
225 30-06-2009 20:55:36 21.6 C 14.79 g/m*3 21.6 C 0 km/h
Sensor: Nr:Datum:Temp:Abs-Feuchte:Windchill:Wind:
Aussen-T/F 226 30-06-2009 21:07:37 21 C 14.47 g/m*3 21 C 0 km/h
227 30-06-2009 21:19:36 20.5 C 14.06 g/m*3 20.5 C 0 km/h
228 30-06-2009 21:31:36 20 C 13.65 g/m*3 20 C 0 km/h
229 30-06-2009 21:43:37 19.7 C 13.75 g/m*3 19.7 C 0 km/h
230 30-06-2009 21:55:36 19.5 C 13.76 g/m*3 19.5 C 0 km/h
231 30-06-2009 22:07:36 19.4 C 13.85 g/m*3 19.4 C 0 km/h
232 30-06-2009 22:19:35 19.3 C 13.77 g/m*3 19.3 C 0 km/h
233 30-06-2009 22:31:35 19.2 C 13.85 g/m*3 19.2 C 0 km/h
234 30-06-2009 22:43:35 19.2 C 13.85 g/m*3 19.2 C 0 km/h
235 30-06-2009 22:56:36 19.3 C 13.93 g/m*3 19.3 C 0 km/h
236 30-06-2009 23:08:36 19.2 C 13.85 g/m*3 19.2 C 0 km/h
237 30-06-2009 23:20:36 19.1 C 13.77 g/m*3 19.1 C 0 km/h
238 30-06-2009 23:32:36 19 C 13.85 g/m*3 19 C 0 km/h
239 30-06-2009 23:44:36 18.9 C 13.93 g/m*3 18.9 C 0 km/h
240 30-06-2009 23:56:36 18.8 C 13.85 g/m*3 18.8 C 0 km/h
241 01-07-2009 00:08:36 18.8 C 13.85 g/m*3 18.8 C 0 km/h
242 01-07-2009 00:20:36 18.7 C 13.77 g/m*3 18.7 C 0 km/h
243 01-07-2009 00:32:37 18.5 C 13.61 g/m*3 18.5 C 0 km/h
244 01-07-2009 00:44:37 18.5 C 13.77 g/m*3 18.5 C 0 km/h
245 01-07-2009 00:56:37 18.4 C 13.68 g/m*3 18.4 C 0 km/h
246 01-07-2009 01:08:37 18.3 C 13.76 g/m*3 18.3 C 0 km/h
247 01-07-2009 01:20:37 18.2 C 13.68 g/m*3 18.2 C 0 km/h
248 01-07-2009 01:32:37 18.2 C 13.68 g/m*3 18.2 C 0 km/h
249 01-07-2009 01:44:37 18.1 C 13.6 g/m*3 18.1 C 0 km/h
250 01-07-2009 01:56:37 18.1 C 13.6 g/m*3 18.1 C 0 km/h
Sensor: Nr:Datum:Temp:Abs-Feuchte:Windchill:Wind:
Aussen-T/F 251 01-07-2009 02:08:37 18.3 C 13.76 g/m*3 18.3 C 0 km/h
252 01-07-2009 02:20:37 18.4 C 14 g/m*3 18.4 C 0 km/h
253 01-07-2009 02:32:37 18.3 C 13.76 g/m*3 18.3 C 0 km/h
254 01-07-2009 02:44:37 18.2 C 13.68 g/m*3 18.2 C 0 km/h
255 01-07-2009 02:56:37 18.1 C 13.75 g/m*3 18.1 C 0 km/h
256 01-07-2009 03:08:37 18.1 C 13.6 g/m*3 18.1 C 0 km/h
257 01-07-2009 03:20:37 18 C 13.67 g/m*3 18 C 0 km/h
258 01-07-2009 03:32:37 18 C 13.67 g/m*3 18 C 0 km/h
259 01-07-2009 03:44:37 18.1 C 13.75 g/m*3 18.1 C 0 km/h
260 01-07-2009 03:56:37 18.1 C 13.75 g/m*3 18.1 C 0 km/h
261 01-07-2009 04:08:37 18.1 C 13.75 g/m*3 18.1 C 0 km/h
262 01-07-2009 04:20:38 18 C 13.52 g/m*3 18 C 0 km/h
263 01-07-2009 04:32:38 17.9 C 13.59 g/m*3 17.9 C 0 km/h
264 01-07-2009 04:44:38 17.7 C 13.43 g/m*3 17.7 C 0 km/h
265 01-07-2009 04:56:38 17.6 C 13.35 g/m*3 17.6 C 0 km/h
266 01-07-2009 05:08:38 17.5 C 13.27 g/m*3 17.5 C 0 km/h
267 01-07-2009 05:20:38 17.6 C 13.35 g/m*3 17.6 C 0 km/h
268 01-07-2009 05:32:38 17.9 C 13.74 g/m*3 17.9 C 0 km/h
269 01-07-2009 05:44:38 18 C 13.67 g/m*3 18 C 0 km/h
270 01-07-2009 05:56:38 18 C 13.67 g/m*3 18 C 0 km/h
271 01-07-2009 06:08:38 17.9 C 13.74 g/m*3 17.9 C 0 km/h
272 01-07-2009 06:20:38 17.9 C 13.74 g/m*3 17.9 C 0 km/h
273 01-07-2009 06:32:38 18.1 C 13.75 g/m*3 18.1 C 0 km/h
274 01-07-2009 06:44:38 18.2 C 13.83 g/m*3 18.2 C 0 km/h
275 01-07-2009 06:56:38 18.3 C 13.92 g/m*3 18.3 C 0 km/h
Sensor: Nr:Datum:Temp:Abs-Feuchte:Windchill:Wind:
Aussen-T/F 276 01-07-2009 07:08:36 18.7 C 14.25 g/m*3 18.7 C 0 km/h
277 01-07-2009 07:20:35 18.7 C 13.93 g/m*3 18.7 C 0 km/h
278 01-07-2009 07:32:35 18.8 C 13.85 g/m*3 18.8 C 0 km/h
279 01-07-2009 07:44:35 18.9 C 13.93 g/m*3 18.9 C 0 km/h
280 01-07-2009 07:56:35 19 C 13.69 g/m*3 19 C 0 km/h
281 01-07-2009 08:08:35 19.3 C 13.77 g/m*3 19.3 C 0 km/h
282 01-07-2009 08:20:34 19.9 C 13.92 g/m*3 19.9 C 0 km/h
283 01-07-2009 08:32:35 20.5 C 13.88 g/m*3 20.5 C 0 km/h
284 01-07-2009 08:44:34 20.7 C 13.5 g/m*3 20.7 C 0 km/h
285 01-07-2009 08:56:34 21.1 C 13.82 g/m*3 21.1 C 0 km/h
286 01-07-2009 09:08:34 21.2 C 13.71 g/m*3 21.2 C 0 km/h
287 01-07-2009 09:20:35 21.7 C 14.31 g/m*3 21.7 C 0 km/h
288 01-07-2009 09:32:34 22.1 C 14.25 g/m*3 22.1 C 0 km/h
289 01-07-2009 09:44:34 22.5 C 14.58 g/m*3 22.5 C 0 km/h
290 01-07-2009 09:56:34 22.9 C 14.51 g/m*3 22.9 C 0 km/h
291 01-07-2009 10:08:34 23.5 C 14.59 g/m*3 23.5 C 0 km/h
292 01-07-2009 10:20:34 23.9 C 14.49 g/m*3 23.9 C 0 km/h
293 01-07-2009 10:32:33 24.5 C 14.1 g/m*3 24.5 C 0 km/h
294 01-07-2009 10:44:34 24.7 C 13.58 g/m*3 24.7 C 0 km/h
295 01-07-2009 10:56:34 25.6 C 13.81 g/m*3 25.6 C 0 km/h
296 01-07-2009 11:08:33 26 C 12.9 g/m*3 26 C 0 km/h
297 01-07-2009 11:20:33 26.8 C 13.24 g/m*3 26.8 C 0 km/h
298 01-07-2009 11:32:33 27.4 C 12.89 g/m*3 27.4 C 0 km/h
299 01-07-2009 11:44:33 28.3 C 12.16 g/m*3 28.3 C 0 km/h
300 01-07-2009 11:56:33 28.8 C 12.79 g/m*3 28.8 C 0 km/h
Sensor: Nr:Datum:Temp:Abs-Feuchte:Windchill:Wind:
Aussen-T/F 301 01-07-2009 12:08:33 29.7 C 11.64 g/m*3 29.7 C 0 km/h
302 01-07-2009 12:20:32 30.3 C 11.71 g/m*3 30.3 C 0 km/h
303 01-07-2009 12:32:33 30.9 C 11.14 g/m*3 30.9 C 0 km/h
304 01-07-2009 12:44:32 31 C 10.88 g/m*3 31 C 0 km/h
305 01-07-2009 12:56:32 31.2 C 10.03 g/m*3 31.2 C 0 km/h
306 01-07-2009 13:08:32 31.7 C 9.3 g/m*3 31.7 C 0 km/h
307 01-07-2009 13:20:32 32.1 C 10.18 g/m*3 32.1 C 0 km/h
308 01-07-2009 13:32:32 32.7 C 8.76 g/m*3 32.7 C 0 km/h
309 01-07-2009 13:44:32 32.9 C 8.14 g/m*3 32.9 C 0 km/h
310 01-07-2009 13:56:32 31.7 C 8.97 g/m*3 31.7 C 0 km/h
311 01-07-2009 14:08:32 27.9 C 10.82 g/m*3 27.9 C 0 km/h
312 01-07-2009 14:20:32 23.8 C 14.63 g/m*3 23.8 C 0 km/h
313 01-07-2009 14:32:31 23.8 C 15.27 g/m*3 23.8 C 0 km/h
314 01-07-2009 14:44:31 24.2 C 14.52 g/m*3 24.2 C 0 km/h
315 01-07-2009 14:56:31 25 C 14.73 g/m*3 25 C 0 km/h
316 01-07-2009 15:08:31 25.8 C 14.45 g/m*3 25.8 C 0 km/h
317 01-07-2009 15:20:31 26.7 C 14.17 g/m*3 26.7 C 0 km/h
318 01-07-2009 15:32:31 27.4 C 13.68 g/m*3 27.4 C 0 km/h
319 01-07-2009 15:44:31 28.2 C 14.02 g/m*3 28.2 C 0 km/h
320 01-07-2009 15:56:31 29.2 C 14.23 g/m*3 29.2 C 0 km/h
321 01-07-2009 16:08:31 29.5 C 13.58 g/m*3 29.5 C 0 km/h
322 01-07-2009 16:20:30 29.7 C 13.13 g/m*3 29.7 C 0 km/h
323 01-07-2009 16:32:31 30.9 C 11.14 g/m*3 30.9 C 0 km/h
324 01-07-2009 16:44:30 32.2 C 10.92 g/m*3 32.2 C 0 km/h
325 01-07-2009 16:56:30 32.7 C 9.11 g/m*3 32.7 C 0 km/h
Sensor: Nr:Datum:Temp:Abs-Feuchte:Windchill:Wind:
Aussen-T/F 326 01-07-2009 17:08:31 32.9 C 8.5 g/m*3 32.9 C 0 km/h
327 01-07-2009 17:20:30 31.7 C 8.97 g/m*3 31.7 C 0 km/h
328 01-07-2009 17:32:29 31.7 C 8.64 g/m*3 31.7 C 0 km/h
329 01-07-2009 17:44:30 31.1 C 9.65 g/m*3 31.1 C 0 km/h
330 01-07-2009 17:56:30 29.7 C 11.64 g/m*3 29.7 C 0 km/h
331 01-07-2009 18:08:29 28.3 C 11.89 g/m*3 28.3 C 0 km/h
332 01-07-2009 18:20:29 27.5 C 11.64 g/m*3 27.5 C 0 km/h
333 01-07-2009 18:32:29 27 C 11.84 g/m*3 27 C 0 km/h
334 01-07-2009 18:44:29 26.6 C 12.08 g/m*3 26.6 C 0 km/h
335 01-07-2009 18:56:30 26.2 C 11.82 g/m*3 26.2 C 0 km/h
336 01-07-2009 19:08:28 25.9 C 12.35 g/m*3 25.9 C 0 km/h
337 01-07-2009 19:20:29 25.9 C 12.35 g/m*3 25.9 C 0 km/h
338 01-07-2009 19:32:29 26 C 11.93 g/m*3 26 C 0 km/h
339 01-07-2009 19:44:28 26.1 C 12.24 g/m*3 26.1 C 0 km/h
340 01-07-2009 19:56:28 26.5 C 12.52 g/m*3 26.5 C 0 km/h
341 01-07-2009 20:08:29 27 C 12.35 g/m*3 27 C 0 km/h
342 01-07-2009 20:20:28 27.1 C 12.42 g/m*3 27.1 C 0 km/h
343 01-07-2009 20:32:28 26.7 C 12.15 g/m*3 26.7 C 0 km/h
344 01-07-2009 20:44:28 26.4 C 12.45 g/m*3 26.4 C 0 km/h
345 01-07-2009 20:56:28 25.9 C 12.59 g/m*3 25.9 C 0 km/h
346 01-07-2009 21:08:28 25.3 C 12.41 g/m*3 25.3 C 0 km/h
347 01-07-2009 21:20:27 24.6 C 12.83 g/m*3 24.6 C 0 km/h
348 01-07-2009 21:32:27 24.4 C 12.91 g/m*3 24.4 C 0 km/h
349 01-07-2009 21:44:27 24.1 C 12.47 g/m*3 24.1 C 0 km/h
350 01-07-2009 21:56:27 23.7 C 12.62 g/m*3 23.7 C 0 km/h
Sensor: Nr:Datum:Temp:Abs-Feuchte:Windchill:Wind:
Aussen-T/F 351 01-07-2009 22:08:27 23.3 C 12.75 g/m*3 23.3 C 0 km/h
352 01-07-2009 22:20:27 23.1 C 13.02 g/m*3 23.1 C 0 km/h
353 01-07-2009 22:32:21 22.9 C 13.28 g/m*3 22.9 C 0 km/h
354 01-07-2009 22:44:21 22.8 C 13.21 g/m*3 22.8 C 0 km/h
355 01-07-2009 22:56:21 22.6 C 13.26 g/m*3 22.6 C 0 km/h
356 01-07-2009 23:08:21 22.4 C 13.11 g/m*3 22.4 C 0 km/h
357 01-07-2009 23:20:21 22.1 C 13.27 g/m*3 22.1 C 0 km/h
358 01-07-2009 23:32:21 21.9 C 13.51 g/m*3 21.9 C 0 km/h
359 01-07-2009 23:44:21 21.9 C 13.7 g/m*3 21.9 C 0 km/h
360 01-07-2009 23:56:22 22 C 13.78 g/m*3 22 C 0 km/h
361 02-07-2009 00:08:22 21.7 C 13.73 g/m*3 21.7 C 0 km/h
362 02-07-2009 00:20:22 21.6 C 13.66 g/m*3 21.6 C 0 km/h
363 02-07-2009 00:32:22 21.5 C 13.77 g/m*3 21.5 C 0 km/h
364 02-07-2009 00:44:22 21.2 C 13.53 g/m*3 21.2 C 0 km/h
365 02-07-2009 00:56:28 21.1 C 13.63 g/m*3 21.1 C 0 km/h
366 02-07-2009 01:09:28 20.9 C 13.48 g/m*3 20.9 C 0 km/h
367 02-07-2009 01:21:28 20.8 C 13.58 g/m*3 20.8 C 0 km/h
368 02-07-2009 01:33:28 20.6 C 13.42 g/m*3 20.6 C 0 km/h
369 02-07-2009 01:45:28 20.4 C 13.44 g/m*3 20.4 C 0 km/h
370 02-07-2009 01:57:28 20.3 C 13.37 g/m*3 20.3 C 0 km/h
371 02-07-2009 02:09:28 20.1 C 13.21 g/m*3 20.1 C 0 km/h
372 02-07-2009 02:21:28 20 C 13.31 g/m*3 20 C 0 km/h
373 02-07-2009 02:33:28 19.9 C 13.57 g/m*3 19.9 C 0 km/h
374 02-07-2009 02:45:28 19.7 C 13.41 g/m*3 19.7 C 0 km/h
375 02-07-2009 02:57:29 19.7 C 13.41 g/m*3 19.7 C 0 km/h
Sensor: Nr:Datum:Temp:Abs-Feuchte:Windchill:Wind:
Aussen-T/F 376 02-07-2009 03:09:29 19.7 C 13.58 g/m*3 19.7 C 0 km/h
377 02-07-2009 03:21:29 19.4 C 13.35 g/m*3 19.4 C 0 km/h
378 02-07-2009 03:33:29 19.4 C 13.35 g/m*3 19.4 C 0 km/h
379 02-07-2009 03:45:29 19.2 C 13.36 g/m*3 19.2 C 0 km/h
380 02-07-2009 03:57:29 19 C 13.36 g/m*3 19 C 0 km/h
381 02-07-2009 04:09:29 18.9 C 13.45 g/m*3 18.9 C 0 km/h
382 02-07-2009 04:21:29 18.9 C 13.45 g/m*3 18.9 C 0 km/h
383 02-07-2009 04:33:29 18.9 C 13.45 g/m*3 18.9 C 0 km/h
384 02-07-2009 04:45:29 18.7 C 13.29 g/m*3 18.7 C 0 km/h
385 02-07-2009 04:57:29 18.6 C 13.21 g/m*3 18.6 C 0 km/h
386 02-07-2009 05:09:29 18.5 C 13.13 g/m*3 18.5 C 0 km/h
387 02-07-2009 05:21:29 18.5 C 13.13 g/m*3 18.5 C 0 km/h
388 02-07-2009 05:33:29 18.3 C 12.98 g/m*3 18.3 C 0 km/h
389 02-07-2009 05:45:29 18.4 C 13.21 g/m*3 18.4 C 0 km/h
390 02-07-2009 05:57:29 18.3 C 13.13 g/m*3 18.3 C 0 km/h
391 02-07-2009 06:09:29 18.3 C 13.13 g/m*3 18.3 C 0 km/h
392 02-07-2009 06:21:29 18.4 C 13.21 g/m*3 18.4 C 0 km/h
393 02-07-2009 06:33:29 18.4 C 13.21 g/m*3 18.4 C 0 km/h
394 02-07-2009 06:45:29 18.5 C 13.29 g/m*3 18.5 C 0 km/h
395 02-07-2009 06:57:29 18.5 C 13.29 g/m*3 18.5 C 0 km/h
396 02-07-2009 07:09:28 18.6 C 13.37 g/m*3 18.6 C 0 km/h
397 02-07-2009 07:21:28 18.7 C 13.45 g/m*3 18.7 C 0 km/h
398 02-07-2009 07:33:29 18.9 C 13.61 g/m*3 18.9 C 0 km/h
399 02-07-2009 07:45:28 19.1 C 13.44 g/m*3 19.1 C 0 km/h
400 02-07-2009 07:57:28 19.2 C 13.52 g/m*3 19.2 C 0 km/h
Sensor: Nr:Datum:Temp:Abs-Feuchte:Windchill:Wind:
Aussen-T/F 401 02-07-2009 08:09:28 19.6 C 13.84 g/m*3 19.6 C 0 km/h
402 02-07-2009 08:21:28 20 C 13.83 g/m*3 20 C 0 km/h
403 02-07-2009 08:33:28 20.3 C 13.72 g/m*3 20.3 C 0 km/h
404 02-07-2009 08:45:27 20.6 C 13.96 g/m*3 20.6 C 0 km/h
405 02-07-2009 08:57:27 20.7 C 14.04 g/m*3 20.7 C 0 km/h
406 02-07-2009 09:09:28 20.9 C 14.21 g/m*3 20.9 C 0 km/h
407 02-07-2009 09:21:27 21 C 14.11 g/m*3 21 C 0 km/h
408 02-07-2009 09:33:27 21.3 C 14.17 g/m*3 21.3 C 0 km/h
409 02-07-2009 09:45:27 22 C 14.17 g/m*3 22 C 0 km/h
410 02-07-2009 09:57:27 23.1 C 14.26 g/m*3 23.1 C 0 km/h
411 02-07-2009 10:09:27 23.8 C 13.77 g/m*3 23.8 C 0 km/h
412 02-07-2009 10:21:27 24.5 C 13.88 g/m*3 24.5 C 0 km/h
413 02-07-2009 10:33:26 25.2 C 13.74 g/m*3 25.2 C 0 km/h
414 02-07-2009 10:45:27 25.8 C 13.72 g/m*3 25.8 C 0 km/h
415 02-07-2009 10:57:27 26.3 C 13.12 g/m*3 26.3 C 0 km/h
416 02-07-2009 11:09:26 27 C 13.13 g/m*3 27 C 0 km/h
417 02-07-2009 11:21:26 27.5 C 13.23 g/m*3 27.5 C 0 km/h
418 02-07-2009 11:33:26 28.2 C 12.92 g/m*3 28.2 C 0 km/h
419 02-07-2009 11:45:26 29 C 12.35 g/m*3 29 C 0 km/h
420 02-07-2009 11:57:26 29.1 C 12.13 g/m*3 29.1 C 0 km/h
421 02-07-2009 12:09:25 29.6 C 12.17 g/m*3 29.6 C 0 km/h
422 02-07-2009 12:21:26 30 C 10.92 g/m*3 30 C 0 km/h
423 02-07-2009 12:33:26 30.7 C 10.71 g/m*3 30.7 C 0 km/h
424 02-07-2009 12:45:25 31.2 C 10.35 g/m*3 31.2 C 0 km/h
425 02-07-2009 12:57:25 31.6 C 9.58 g/m*3 31.6 C 0 km/h
Sensor: Nr:Datum:Temp:Abs-Feuchte:Windchill:Wind:
Aussen-T/F 426 02-07-2009 13:09:26 32 C 8.78 g/m*3 32 C 0 km/h
427 02-07-2009 13:21:25 32.6 C 8.71 g/m*3 32.6 C 0 km/h
428 02-07-2009 13:33:25 33.1 C 8.59 g/m*3 33.1 C 0 km/h
429 02-07-2009 13:45:25 33.1 C 8.23 g/m*3 33.1 C 0 km/h
430 02-07-2009 13:57:25 32.3 C 8.58 g/m*3 32.3 C 0 km/h
431 02-07-2009 14:09:25 32.4 C 8.62 g/m*3 32.4 C 0 km/h
432 02-07-2009 14:21:24 32.3 C 8.92 g/m*3 32.3 C 0 km/h
433 02-07-2009 14:33:24 32 C 9.45 g/m*3 32 C 0 km/h
434 02-07-2009 14:45:25 32.1 C 8.48 g/m*3 32.1 C 0 km/h
435 02-07-2009 14:57:25 31.8 C 9.02 g/m*3 31.8 C 0 km/h
436 02-07-2009 15:09:24 32.4 C 7.93 g/m*3 32.4 C 0 km/h
437 02-07-2009 15:21:24 32.7 C 7.36 g/m*3 32.7 C 0 km/h
438 02-07-2009 15:33:24 33.1 C 7.52 g/m*3 33.1 C 0 km/h
439 02-07-2009 15:45:24 33.6 C 7.35 g/m*3 33.6 C 0 km/h
440 02-07-2009 15:57:24 33.8 C 7.43 g/m*3 33.8 C 0 km/h
441 02-07-2009 16:09:23 32.6 C 9.06 g/m*3 32.6 C 0 km/h
442 02-07-2009 16:21:24 31.3 C 10.41 g/m*3 31.3 C 0 km/h
443 02-07-2009 16:33:24 32.5 C 8.32 g/m*3 32.5 C 0 km/h
444 02-07-2009 16:45:23 33.7 C 7.39 g/m*3 33.7 C 0 km/h
445 02-07-2009 16:57:23 33.6 C 7.35 g/m*3 33.6 C 0 km/h
446 02-07-2009 17:09:23 33.1 C 7.16 g/m*3 33.1 C 0 km/h
447 02-07-2009 17:21:23 33.3 C 7.23 g/m*3 33.3 C 0 km/h
448 02-07-2009 17:33:24 33.6 C 7.35 g/m*3 33.6 C 0 km/h
449 02-07-2009 17:45:22 34 C 7.5 g/m*3 34 C 0 km/h
450 02-07-2009 17:57:22 34.4 C 7.66 g/m*3 34.4 C 0 km/h
Sensor: Nr:Datum:Temp:Abs-Feuchte:Windchill:Wind:
Aussen-T/F 451 02-07-2009 18:09:23 34.8 C 7.82 g/m*3 34.8 C 0 km/h
452 02-07-2009 18:21:22 34.4 C 7.66 g/m*3 34.4 C 0 km/h
453 02-07-2009 18:33:22 34.4 C 7.66 g/m*3 34.4 C 0 km/h
454 02-07-2009 18:45:22 34.5 C 7.7 g/m*3 34.5 C 0 km/h
455 02-07-2009 18:57:22 34.2 C 7.58 g/m*3 34.2 C 0 km/h
456 02-07-2009 19:09:22 34.2 C 7.96 g/m*3 34.2 C 0 km/h
457 02-07-2009 19:21:22 34 C 7.88 g/m*3 34 C 0 km/h
458 02-07-2009 19:33:21 33.7 C 8.13 g/m*3 33.7 C 0 km/h
459 02-07-2009 19:45:22 33.6 C 8.45 g/m*3 33.6 C 0 km/h
460 02-07-2009 19:57:22 32.6 C 8.36 g/m*3 32.6 C 0 km/h
461 02-07-2009 20:09:21 31.7 C 8.64 g/m*3 31.7 C 0 km/h
462 02-07-2009 20:21:21 31.1 C 9.33 g/m*3 31.1 C 0 km/h
463 02-07-2009 20:33:21 30.4 C 10.85 g/m*3 30.4 C 0 km/h
464 02-07-2009 20:45:21 30 C 10.92 g/m*3 30 C 0 km/h
465 02-07-2009 20:57:21 29 C 11.2 g/m*3 29 C 0 km/h
466 02-07-2009 21:09:20 28.3 C 11.33 g/m*3 28.3 C 0 km/h
467 02-07-2009 21:21:21 28 C 11.42 g/m*3 28 C 0 km/h
468 02-07-2009 21:33:20 27.6 C 11.97 g/m*3 27.6 C 0 km/h
469 02-07-2009 21:45:20 27.2 C 11.97 g/m*3 27.2 C 0 km/h
470 02-07-2009 21:57:20 26.9 C 12.29 g/m*3 26.9 C 0 km/h
471 02-07-2009 22:09:20 26.3 C 12.13 g/m*3 26.3 C 0 km/h
472 02-07-2009 22:21:20 26.2 C 11.82 g/m*3 26.2 C 0 km/h
473 02-07-2009 22:33:20 26 C 11.69 g/m*3 26 C 0 km/h
474 02-07-2009 22:46:21 25.8 C 12.04 g/m*3 25.8 C 0 km/h
475 02-07-2009 22:58:21 25.7 C 12.21 g/m*3 25.7 C 0 km/h
Sensor: Nr:Datum:Temp:Abs-Feuchte:Windchill:Wind:
Aussen-T/F 476 02-07-2009 23:10:21 25.6 C 12.14 g/m*3 25.6 C 0 km/h
477 02-07-2009 23:22:21 25.3 C 12.17 g/m*3 25.3 C 0 km/h
478 02-07-2009 23:34:21 25 C 11.97 g/m*3 25 C 0 km/h
479 02-07-2009 23:46:21 24.7 C 12 g/m*3 24.7 C 0 km/h
480 02-07-2009 23:58:21 24.7 C 12.22 g/m*3 24.7 C 0 km/h
481 03-07-2009 00:10:21 24.5 C 12.09 g/m*3 24.5 C 0 km/h
482 03-07-2009 00:22:21 24 C 12.18 g/m*3 24 C 0 km/h
483 03-07-2009 00:34:21 23.9 C 12.55 g/m*3 23.9 C 0 km/h
484 03-07-2009 00:46:21 23.6 C 12.34 g/m*3 23.6 C 0 km/h
485 03-07-2009 00:58:21 23.5 C 12.27 g/m*3 23.5 C 0 km/h
486 03-07-2009 01:10:21 23.3 C 12.34 g/m*3 23.3 C 0 km/h
487 03-07-2009 01:22:21 23.1 C 12.2 g/m*3 23.1 C 0 km/h
488 03-07-2009 01:34:21 23 C 12.54 g/m*3 23 C 0 km/h
489 03-07-2009 01:46:21 22.8 C 12.6 g/m*3 22.8 C 0 km/h
490 03-07-2009 01:58:21 22.5 C 12.58 g/m*3 22.5 C 0 km/h
491 03-07-2009 02:10:21 22.5 C 12.58 g/m*3 22.5 C 0 km/h
492 03-07-2009 02:22:21 22.1 C 12.69 g/m*3 22.1 C 0 km/h
493 03-07-2009 02:34:22 22 C 12.62 g/m*3 22 C 0 km/h
494 03-07-2009 02:46:22 21.7 C 12.59 g/m*3 21.7 C 0 km/h
495 03-07-2009 02:58:22 21.6 C 12.71 g/m*3 21.6 C 0 km/h
496 03-07-2009 03:10:22 21.5 C 12.82 g/m*3 21.5 C 0 km/h
497 03-07-2009 03:22:22 21.5 C 12.82 g/m*3 21.5 C 0 km/h
498 03-07-2009 03:34:22 21.5 C 12.63 g/m*3 21.5 C 0 km/h
499 03-07-2009 03:46:22 21.3 C 12.68 g/m*3 21.3 C 0 km/h
500 03-07-2009 03:58:22 21 C 12.64 g/m*3 21 C 0 km/h
Sensor: Nr:Datum:Temp:Abs-Feuchte:Windchill:Wind:
Aussen-T/F 501 03-07-2009 04:10:22 20.8 C 12.86 g/m*3 20.8 C 0 km/h
502 03-07-2009 04:22:22 20.6 C 12.89 g/m*3 20.6 C 0 km/h
503 03-07-2009 04:34:22 20.5 C 12.81 g/m*3 20.5 C 0 km/h
504 03-07-2009 04:46:22 20.3 C 12.84 g/m*3 20.3 C 0 km/h
505 03-07-2009 04:58:22 20.4 C 12.91 g/m*3 20.4 C 0 km/h
506 03-07-2009 05:10:22 20.2 C 12.94 g/m*3 20.2 C 0 km/h
507 03-07-2009 05:22:22 20.1 C 12.86 g/m*3 20.1 C 0 km/h
508 03-07-2009 05:34:22 20 C 12.79 g/m*3 20 C 0 km/h
509 03-07-2009 05:46:22 20 C 12.79 g/m*3 20 C 0 km/h
510 03-07-2009 05:58:22 19.9 C 12.89 g/m*3 19.9 C 0 km/h
511 03-07-2009 06:10:22 20 C 12.96 g/m*3 20 C 0 km/h
512 03-07-2009 06:22:23 20.2 C 13.11 g/m*3 20.2 C 0 km/h
513 03-07-2009 06:34:23 20 C 12.96 g/m*3 20 C 0 km/h
514 03-07-2009 06:46:23 20 C 12.96 g/m*3 20 C 0 km/h
515 03-07-2009 06:58:23 20.1 C 13.21 g/m*3 20.1 C 0 km/h
516 03-07-2009 07:10:21 20.1 C 13.21 g/m*3 20.1 C 0 km/h
517 03-07-2009 07:22:20 20.1 C 13.21 g/m*3 20.1 C 0 km/h
518 03-07-2009 07:34:21 20.4 C 13.44 g/m*3 20.4 C 0 km/h
519 03-07-2009 07:46:20 20.6 C 13.42 g/m*3 20.6 C 0 km/h
520 03-07-2009 07:58:20 20.7 C 13.5 g/m*3 20.7 C 0 km/h
521 03-07-2009 08:10:20 21.1 C 13.45 g/m*3 21.1 C 0 km/h
522 03-07-2009 08:22:20 21.4 C 13.31 g/m*3 21.4 C 0 km/h
523 03-07-2009 08:34:20 21.9 C 13.51 g/m*3 21.9 C 0 km/h
524 03-07-2009 08:46:19 22.4 C 13.5 g/m*3 22.4 C 0 km/h
525 03-07-2009 08:58:19 22.9 C 13.49 g/m*3 22.9 C 0 km/h
Sensor: Nr:Datum:Temp:Abs-Feuchte:Windchill:Wind:
Aussen-T/F 526 03-07-2009 09:10:20 23.5 C 13.53 g/m*3 23.5 C 0 km/h
527 03-07-2009 09:22:20 24.1 C 13.57 g/m*3 24.1 C 0 km/h
528 03-07-2009 09:34:19 24.7 C 13.13 g/m*3 24.7 C 0 km/h
529 03-07-2009 09:46:20 25.3 C 13.34 g/m*3 25.3 C 0 km/h
530 03-07-2009 09:58:20 25.9 C 13.32 g/m*3 25.9 C 0 km/h
531 03-07-2009 10:10:19 26.4 C 13.19 g/m*3 26.4 C 0 km/h
532 03-07-2009 10:22:19 27.1 C 12.94 g/m*3 27.1 C 0 km/h
533 03-07-2009 10:34:19 27.6 C 12.5 g/m*3 27.6 C 0 km/h
534 03-07-2009 10:46:19 28.2 C 12.37 g/m*3 28.2 C 0 km/h
535 03-07-2009 10:58:19 28.4 C 12.23 g/m*3 28.4 C 0 km/h
536 03-07-2009 11:10:18 28.9 C 12 g/m*3 28.9 C 0 km/h
537 03-07-2009 11:22:19 29.4 C 12.04 g/m*3 29.4 C 0 km/h
538 03-07-2009 11:34:19 30 C 11.52 g/m*3 30 C 0 km/h
539 03-07-2009 11:46:18 30.2 C 11.65 g/m*3 30.2 C 0 km/h
540 03-07-2009 11:58:18 30.6 C 10.96 g/m*3 30.6 C 0 km/h
541 03-07-2009 12:10:18 31.3 C 11.06 g/m*3 31.3 C 0 km/h
542 03-07-2009 12:22:18 31.5 C 9.86 g/m*3 31.5 C 0 km/h
543 03-07-2009 12:34:18 32 C 9.45 g/m*3 32 C 0 km/h
544 03-07-2009 12:46:18 32.4 C 8.62 g/m*3 32.4 C 0 km/h
545 03-07-2009 12:58:18 32.9 C 8.14 g/m*3 32.9 C 0 km/h
546 03-07-2009 13:10:18 31.8 C 9.35 g/m*3 31.8 C 0 km/h
547 03-07-2009 13:22:17 31.2 C 11.32 g/m*3 31.2 C 0 km/h
548 03-07-2009 13:34:17 30.1 C 11.89 g/m*3 30.1 C 0 km/h
549 03-07-2009 13:46:17 27.5 C 12.7 g/m*3 27.5 C 0 km/h
550 03-07-2009 13:58:17 23.7 C 14.76 g/m*3 23.7 C 0 km/h
Sensor: Nr:Datum:Temp:Abs-Feuchte:Windchill:Wind:
Aussen-T/F 551 03-07-2009 14:10:17 23 C 14.59 g/m*3 23 C 0 km/h
552 03-07-2009 14:22:16 22.5 C 13.58 g/m*3 22.5 C 0 km/h
553 03-07-2009 14:34:17 21.9 C 12.74 g/m*3 21.9 C 0 km/h
554 03-07-2009 14:46:13 21.8 C 12.85 g/m*3 21.8 C 0 km/h
555 03-07-2009 14:58:13 20.7 C 13.86 g/m*3 20.7 C 0 km/h
556 03-07-2009 15:10:13 20.1 C 14.25 g/m*3 20.1 C 0 km/h
557 03-07-2009 15:22:02 20.1 C 14.6 g/m*3 20.1 C 0 km/h
558 03-07-2009 15:34:02 20.1 C 14.78 g/m*3 20.1 C 0 km/h
559 03-07-2009 15:46:02 20.5 C 15.3 g/m*3 20.5 C 0 km/h
560 03-07-2009 15:58:03 20.7 C 15.66 g/m*3 20.7 C 0 km/h
561 03-07-2009 16:10:01 20.9 C 15.84 g/m*3 20.9 C 0 km/h
562 03-07-2009 16:22:02 20.9 C 15.84 g/m*3 20.9 C 0 km/h
563 03-07-2009 16:34:02 20.8 C 15.21 g/m*3 20.8 C 0 km/h
564 03-07-2009 16:46:01 20.7 C 14.58 g/m*3 20.7 C 0 km/h
565 03-07-2009 16:58:01 20.8 C 14.67 g/m*3 20.8 C 0 km/h
566 03-07-2009 17:10:01 21 C 14.84 g/m*3 21 C 0 km/h
567 03-07-2009 17:22:01 21.7 C 14.88 g/m*3 21.7 C 0 km/h
568 03-07-2009 17:34:01 21.9 C 14.86 g/m*3 21.9 C 0 km/h
569 03-07-2009 17:46:00 22.4 C 14.89 g/m*3 22.4 C 0 km/h
570 03-07-2009 17:58:00 22.7 C 14.75 g/m*3 22.7 C 0 km/h
571 03-07-2009 18:10:01 23.8 C 14.63 g/m*3 23.8 C 0 km/h
572 03-07-2009 18:22:00 23.9 C 14.28 g/m*3 23.9 C 0 km/h
573 03-07-2009 18:34:00 25.6 C 14.28 g/m*3 25.6 C 0 km/h
574 03-07-2009 18:46:00 26.6 C 13.59 g/m*3 26.6 C 0 km/h
575 03-07-2009 18:58:00 26.4 C 13.94 g/m*3 26.4 C 0 km/h
Sensor: Nr:Datum:Temp:Abs-Feuchte:Windchill:Wind:
Aussen-T/F 576 03-07-2009 19:10:00 26.5 C 13.77 g/m*3 26.5 C 0 km/h
577 03-07-2009 19:22:00 26.3 C 13.62 g/m*3 26.3 C 0 km/h
578 03-07-2009 19:34:59 26.4 C 13.69 g/m*3 26.4 C 0 km/h
579 03-07-2009 19:46:00 26.3 C 13.62 g/m*3 26.3 C 0 km/h
580 03-07-2009 19:58:00 25.4 C 14.13 g/m*3 25.4 C 0 km/h
581 03-07-2009 20:10:59 24.5 C 14.1 g/m*3 24.5 C 0 km/h
582 03-07-2009 20:22:59 23.9 C 14.49 g/m*3 23.9 C 0 km/h
583 03-07-2009 20:34:59 23.6 C 14.68 g/m*3 23.6 C 0 km/h
584 03-07-2009 20:46:59 23.4 C 14.72 g/m*3 23.4 C 0 km/h
585 03-07-2009 20:59:00 23.1 C 14.47 g/m*3 23.1 C 0 km/h
586 03-07-2009 21:10:59 23.1 C 14.68 g/m*3 23.1 C 0 km/h
587 03-07-2009 21:22:58 22.5 C 14.78 g/m*3 22.5 C 0 km/h
588 03-07-2009 21:34:58 22.2 C 14.92 g/m*3 22.2 C 0 km/h
589 03-07-2009 21:46:58 22.1 C 14.84 g/m*3 22.1 C 0 km/h
590 03-07-2009 21:58:58 22.1 C 14.84 g/m*3 22.1 C 0 km/h
591 03-07-2009 22:10:58 21.7 C 14.88 g/m*3 21.7 C 0 km/h
592 03-07-2009 22:22:58 21.5 C 14.9 g/m*3 21.5 C 0 km/h
593 03-07-2009 22:34:58 21.2 C 14.83 g/m*3 21.2 C 0 km/h
594 03-07-2009 22:46:58 21 C 14.84 g/m*3 21 C 0 km/h
595 03-07-2009 22:58:58 21 C 14.47 g/m*3 21 C 0 km/h
596 03-07-2009 23:10:57 21 C 14.47 g/m*3 21 C 0 km/h
597 03-07-2009 23:22:58 20.8 C 14.3 g/m*3 20.8 C 0 km/h
598 03-07-2009 23:35:57 20.8 C 14.49 g/m*3 20.8 C 0 km/h
599 03-07-2009 23:47:57 20.6 C 14.32 g/m*3 20.6 C 0 km/h
600 03-07-2009 23:59:57 20.5 C 14.41 g/m*3 20.5 C 0 km/h
Sensor: Nr:Datum:Temp:Abs-Feuchte:Windchill:Wind:
Aussen-T/F 601 04-07-2009 00:11:57 20.4 C 14.51 g/m*3 20.4 C 0 km/h
602 04-07-2009 00:23:57 20.3 C 14.42 g/m*3 20.3 C 0 km/h
603 04-07-2009 00:35:57 20.2 C 14.34 g/m*3 20.2 C 0 km/h
604 04-07-2009 00:47:57 20.1 C 14.25 g/m*3 20.1 C 0 km/h
605 04-07-2009 00:59:57 19.8 C 14.35 g/m*3 19.8 C 0 km/h
606 04-07-2009 01:11:57 19.5 C 14.43 g/m*3 19.5 C 0 km/h
607 04-07-2009 01:23:58 19.5 C 14.43 g/m*3 19.5 C 0 km/h
608 04-07-2009 01:35:58 19.4 C 14.68 g/m*3 19.4 C 0 km/h
609 04-07-2009 01:47:58 19.3 C 14.6 g/m*3 19.3 C 0 km/h
610 04-07-2009 01:59:58 19.3 C 14.6 g/m*3 19.3 C 0 km/h
611 04-07-2009 02:11:58 19.2 C 14.51 g/m*3 19.2 C 0 km/h
612 04-07-2009 02:23:58 19.1 C 14.43 g/m*3 19.1 C 0 km/h
613 04-07-2009 02:35:58 19.1 C 14.43 g/m*3 19.1 C 0 km/h
614 04-07-2009 02:47:58 19.2 C 14.51 g/m*3 19.2 C 0 km/h
615 04-07-2009 02:59:58 19.1 C 14.43 g/m*3 19.1 C 0 km/h
616 04-07-2009 03:11:58 18.9 C 14.42 g/m*3 18.9 C 0 km/h
617 04-07-2009 03:23:58 18.8 C 14.33 g/m*3 18.8 C 0 km/h
618 04-07-2009 03:35:58 18.7 C 14.25 g/m*3 18.7 C 0 km/h
619 04-07-2009 03:47:58 18.9 C 14.42 g/m*3 18.9 C 0 km/h
620 04-07-2009 03:59:58 18.9 C 14.42 g/m*3 18.9 C 0 km/h
621 04-07-2009 04:11:58 18.7 C 14.09 g/m*3 18.7 C 0 km/h
622 04-07-2009 04:23:58 18.8 C 14.17 g/m*3 18.8 C 0 km/h
623 04-07-2009 04:35:58 18.9 C 14.26 g/m*3 18.9 C 0 km/h
624 04-07-2009 04:47:58 18.9 C 14.26 g/m*3 18.9 C 0 km/h
625 04-07-2009 04:59:58 18.8 C 14.01 g/m*3 18.8 C 0 km/h
Sensor: Nr:Datum:Temp:Abs-Feuchte:Windchill:Wind:
Aussen-T/F 626 04-07-2009 05:11:59 18.6 C 13.69 g/m*3 18.6 C 0 km/h
627 04-07-2009 05:23:59 18.4 C 13.37 g/m*3 18.4 C 0 km/h
628 04-07-2009 05:35:59 18.3 C 13.13 g/m*3 18.3 C 0 km/h
629 04-07-2009 05:47:59 18.1 C 12.98 g/m*3 18.1 C 0 km/h
630 04-07-2009 05:59:59 17.7 C 12.98 g/m*3 17.7 C 0 km/h
631 04-07-2009 06:11:59 17.6 C 12.9 g/m*3 17.6 C 0 km/h
632 04-07-2009 06:23:59 17.6 C 12.9 g/m*3 17.6 C 0 km/h
633 04-07-2009 06:35:59 17.5 C 12.82 g/m*3 17.5 C 0 km/h
634 04-07-2009 06:47:59 17.5 C 12.97 g/m*3 17.5 C 0 km/h
635 04-07-2009 06:59:59 17.4 C 13.04 g/m*3 17.4 C 0 km/h
636 04-07-2009 07:11:59 17.7 C 13.28 g/m*3 17.7 C 0 km/h
637 04-07-2009 07:23:59 17.9 C 13.28 g/m*3 17.9 C 0 km/h
638 04-07-2009 07:35:59 18 C 13.06 g/m*3 18 C 0 km/h
639 04-07-2009 07:47:59 18 C 12.9 g/m*3 18 C 0 km/h
640 04-07-2009 07:59:59 18.2 C 12.75 g/m*3 18.2 C 0 km/h
641 04-07-2009 08:11:57 18.5 C 12.66 g/m*3 18.5 C 0 km/h
642 04-07-2009 08:23:57 18.8 C 12.24 g/m*3 18.8 C 0 km/h
643 04-07-2009 08:35:57 19.1 C 11.8 g/m*3 19.1 C 0 km/h
644 04-07-2009 08:47:56 19.5 C 11.24 g/m*3 19.5 C 0 km/h
645 04-07-2009 08:59:56 19.7 C 10.87 g/m*3 19.7 C 0 km/h
646 04-07-2009 09:11:56 20 C 10.89 g/m*3 20 C 0 km/h
647 04-07-2009 09:23:56 20.4 C 10.61 g/m*3 20.4 C 0 km/h
648 04-07-2009 09:35:56 21.3 C 10.25 g/m*3 21.3 C 0 km/h
649 04-07-2009 09:47:55 22.2 C 10.41 g/m*3 22.2 C 0 km/h
650 04-07-2009 09:59:55 22.1 C 10.54 g/m*3 22.1 C 0 km/h
Sensor: Nr:Datum:Temp:Abs-Feuchte:Windchill:Wind:
Aussen-T/F 651 04-07-2009 10:11:56 22.3 C 10.47 g/m*3 22.3 C 0 km/h
652 04-07-2009 10:23:56 22.7 C 10.51 g/m*3 22.7 C 0 km/h
653 04-07-2009 10:35:55 23.5 C 10.79 g/m*3 23.5 C 0 km/h
654 04-07-2009 10:47:56 24.3 C 10.62 g/m*3 24.3 C 0 km/h
655 04-07-2009 10:59:56 24.7 C 10.19 g/m*3 24.7 C 0 km/h
656 04-07-2009 11:11:55 25.3 C 9.83 g/m*3 25.3 C 0 km/h
657 04-07-2009 11:23:55 25.6 C 9.76 g/m*3 25.6 C 0 km/h
658 04-07-2009 11:35:54 26.2 C 9.6 g/m*3 26.2 C 0 km/h
659 04-07-2009 11:47:55 26.7 C 9.87 g/m*3 26.7 C 0 km/h
660 04-07-2009 11:59:55 27.8 C 9.95 g/m*3 27.8 C 0 km/h
661 04-07-2009 12:11:54 28.3 C 9.95 g/m*3 28.3 C 0 km/h
662 04-07-2009 12:23:54 27.8 C 9.41 g/m*3 27.8 C 0 km/h
663 04-07-2009 12:35:55 27.1 C 9.58 g/m*3 27.1 C 0 km/h
664 04-07-2009 12:47:54 26.7 C 9.62 g/m*3 26.7 C 0 km/h
665 04-07-2009 12:59:54 25.8 C 10.11 g/m*3 25.8 C 0 km/h
666 04-07-2009 13:11:54 27.3 C 9.68 g/m*3 27.3 C 0 km/h
667 04-07-2009 13:23:53 27.7 C 9.9 g/m*3 27.7 C 0 km/h
668 04-07-2009 13:35:54 30.6 C 9.08 g/m*3 30.6 C 0 km/h
669 04-07-2009 13:47:53 31.3 C 8.13 g/m*3 31.3 C 0 km/h
670 04-07-2009 13:59:53 30.6 C 8.77 g/m*3 30.6 C 0 km/h
671 04-07-2009 14:11:53 30 C 9.4 g/m*3 30 C 0 km/h
672 04-07-2009 14:23:54 29.6 C 8.9 g/m*3 29.6 C 0 km/h
673 04-07-2009 14:35:53 27.9 C 8.65 g/m*3 27.9 C 0 km/h
674 04-07-2009 14:47:53 28.9 C 8.86 g/m*3 28.9 C 0 km/h
675 04-07-2009 14:59:53 30.3 C 8.63 g/m*3 30.3 C 0 km/h
Sensor: Nr:Datum:Temp:Abs-Feuchte:Windchill:Wind:
Aussen-T/F 676 04-07-2009 15:11:53 29.9 C 9.05 g/m*3 29.9 C 0 km/h
677 04-07-2009 15:23:53 30.2 C 9.2 g/m*3 30.2 C 0 km/h
678 04-07-2009 15:35:52 29.6 C 8.31 g/m*3 29.6 C 0 km/h
679 04-07-2009 15:47:53 30.4 C 8.06 g/m*3 30.4 C 0 km/h
680 04-07-2009 15:59:53 30 C 8.49 g/m*3 30 C 0 km/h
681 04-07-2009 16:11:52 31.2 C 7.12 g/m*3 31.2 C 0 km/h
682 04-07-2009 16:23:52 31 C 7.04 g/m*3 31 C 0 km/h
683 04-07-2009 16:35:52 30.8 C 7.28 g/m*3 30.8 C 0 km/h
684 04-07-2009 16:47:52 31.1 C 6.76 g/m*3 31.1 C 0 km/h
685 04-07-2009 16:59:52 30.9 C 6.68 g/m*3 30.9 C 0 km/h
686 04-07-2009 17:11:52 30.4 C 6.82 g/m*3 30.4 C 0 km/h
687 04-07-2009 17:23:51 31.2 C 6.79 g/m*3 31.2 C 0 km/h
688 04-07-2009 17:35:52 30.6 C 6.58 g/m*3 30.6 C 0 km/h
689 04-07-2009 17:47:51 30.4 C 7.13 g/m*3 30.4 C 0 km/h
690 04-07-2009 17:59:51 31.5 C 6.57 g/m*3 31.5 C 0 km/h
691 04-07-2009 18:11:51 31.2 C 6.47 g/m*3 31.2 C 0 km/h
692 04-07-2009 18:23:50 30.6 C 6.26 g/m*3 30.6 C 0 km/h
693 04-07-2009 18:35:51 31 C 6.4 g/m*3 31 C 0 km/h
694 04-07-2009 18:47:50 30.3 C 6.78 g/m*3 30.3 C 0 km/h
695 04-07-2009 18:59:50 30.6 C 6.58 g/m*3 30.6 C 0 km/h
696 04-07-2009 19:11:50 30.5 C 7.48 g/m*3 30.5 C 0 km/h
697 04-07-2009 19:23:51 30.6 C 7.2 g/m*3 30.6 C 0 km/h
698 04-07-2009 19:35:50 30.7 C 7.24 g/m*3 30.7 C 0 km/h
699 04-07-2009 19:47:50 31 C 7.36 g/m*3 31 C 0 km/h
700 04-07-2009 19:59:50 31.2 C 7.12 g/m*3 31.2 C 0 km/h
Sensor: Nr:Datum:Temp:Abs-Feuchte:Windchill:Wind:
Aussen-T/F 701 04-07-2009 20:11:50 30.9 C 7.32 g/m*3 30.9 C 0 km/h
702 04-07-2009 20:23:50 30.3 C 8.01 g/m*3 30.3 C 0 km/h
703 04-07-2009 20:35:49 30.1 C 8.84 g/m*3 30.1 C 0 km/h
704 04-07-2009 20:47:49 29.2 C 8.71 g/m*3 29.2 C 0 km/h
705 04-07-2009 20:59:49 28.6 C 9.27 g/m*3 28.6 C 0 km/h
706 04-07-2009 21:11:49 27.3 C 9.42 g/m*3 27.3 C 0 km/h
707 04-07-2009 21:23:49 25.9 C 9.68 g/m*3 25.9 C 0 km/h
708 04-07-2009 21:35:49 25.1 C 9.49 g/m*3 25.1 C 0 km/h
709 04-07-2009 21:47:49 24.4 C 9.35 g/m*3 24.4 C 0 km/h
710 04-07-2009 21:59:49 24.1 C 9.41 g/m*3 24.1 C 0 km/h
711 04-07-2009 22:11:48 24.1 C 9.41 g/m*3 24.1 C 0 km/h
712 04-07-2009 22:23:49 23.6 C 9.57 g/m*3 23.6 C 0 km/h
713 04-07-2009 22:35:49 23.2 C 9.77 g/m*3 23.2 C 0 km/h
714 04-07-2009 22:47:48 23 C 9.66 g/m*3 23 C 0 km/h
715 04-07-2009 22:59:48 22.5 C 9.79 g/m*3 22.5 C 0 km/h
716 04-07-2009 23:12:49 22.2 C 9.62 g/m*3 22.2 C 0 km/h
717 04-07-2009 23:24:49 21.7 C 10.3 g/m*3 21.7 C 0 km/h
718 04-07-2009 23:36:49 21.5 C 10.18 g/m*3 21.5 C 0 km/h
719 04-07-2009 23:48:49 21.3 C 10.25 g/m*3 21.3 C 0 km/h
720 05-07-2009 00:00:49 20.9 C 10.38 g/m*3 20.9 C 0 km/h
721 05-07-2009 00:12:49 20.8 C 10.5 g/m*3 20.8 C 0 km/h
722 05-07-2009 00:24:49 20.7 C 10.44 g/m*3 20.7 C 0 km/h
723 05-07-2009 00:36:49 20.5 C 10.32 g/m*3 20.5 C 0 km/h
724 05-07-2009 00:48:49 20.3 C 10.38 g/m*3 20.3 C 0 km/h
725 05-07-2009 01:00:49 19.9 C 10.48 g/m*3 19.9 C 0 km/h
Sensor: Nr:Datum:Temp:Abs-Feuchte:Windchill:Wind:
Aussen-T/F 726 05-07-2009 01:12:49 19.7 C 10.7 g/m*3 19.7 C 0 km/h
727 05-07-2009 01:24:49 19.3 C 10.78 g/m*3 19.3 C 0 km/h
728 05-07-2009 01:36:49 19.3 C 10.78 g/m*3 19.3 C 0 km/h
729 05-07-2009 01:48:49 19 C 10.92 g/m*3 19 C 0 km/h
730 05-07-2009 02:00:49 18.8 C 11.11 g/m*3 18.8 C 0 km/h
731 05-07-2009 02:12:49 18.6 C 11.14 g/m*3 18.6 C 0 km/h
732 05-07-2009 02:24:49 18.5 C 11.08 g/m*3 18.5 C 0 km/h
733 05-07-2009 02:36:49 18.5 C 11.08 g/m*3 18.5 C 0 km/h
734 05-07-2009 02:48:49 18.4 C 11.17 g/m*3 18.4 C 0 km/h
735 05-07-2009 03:00:50 18.4 C 11.17 g/m*3 18.4 C 0 km/h
736 05-07-2009 03:12:50 18.1 C 10.97 g/m*3 18.1 C 0 km/h
737 05-07-2009 03:24:50 18 C 10.91 g/m*3 18 C 0 km/h
738 05-07-2009 03:36:50 17.9 C 11.15 g/m*3 17.9 C 0 km/h
739 05-07-2009 03:48:50 17.7 C 11.16 g/m*3 17.7 C 0 km/h
740 05-07-2009 04:00:50 17.6 C 11.25 g/m*3 17.6 C 0 km/h
741 05-07-2009 04:12:50 17.5 C 11.18 g/m*3 17.5 C 0 km/h
742 05-07-2009 04:24:50 17.4 C 11.12 g/m*3 17.4 C 0 km/h
743 05-07-2009 04:36:50 17.2 C 10.98 g/m*3 17.2 C 0 km/h
744 05-07-2009 04:48:50 17.2 C 10.98 g/m*3 17.2 C 0 km/h
745 05-07-2009 05:00:50 17.2 C 11.13 g/m*3 17.2 C 0 km/h
746 05-07-2009 05:12:50 16.9 C 11.08 g/m*3 16.9 C 0 km/h
747 05-07-2009 05:24:50 16.8 C 11.01 g/m*3 16.8 C 0 km/h
748 05-07-2009 05:36:50 16.8 C 11.15 g/m*3 16.8 C 0 km/h
749 05-07-2009 05:48:49 16.9 C 11.22 g/m*3 16.9 C 0 km/h
750 05-07-2009 06:00:49 17.3 C 11.34 g/m*3 17.3 C 0 km/h
Sensor: Nr:Datum:Temp:Abs-Feuchte:Windchill:Wind:
Aussen-T/F 751 05-07-2009 06:12:49 17.3 C 11.2 g/m*3 17.3 C 0 km/h
752 05-07-2009 06:24:48 17.4 C 11.26 g/m*3 17.4 C 0 km/h
753 05-07-2009 06:36:48 17.4 C 11.26 g/m*3 17.4 C 0 km/h
754 05-07-2009 06:48:49 17.4 C 11.26 g/m*3 17.4 C 0 km/h
755 05-07-2009 07:00:02 17.5 C 11.33 g/m*3 17.5 C 0 km/h
756 05-07-2009 07:12:02 17.8 C 11.54 g/m*3 17.8 C 0 km/h
757 05-07-2009 07:24:02 17.7 C 11.47 g/m*3 17.7 C 0 km/h
758 05-07-2009 07:36:02 17.9 C 11.45 g/m*3 17.9 C 0 km/h
759 05-07-2009 07:48:02 18 C 11.21 g/m*3 18 C 0 km/h
760 05-07-2009 08:00:02 18.5 C 11.55 g/m*3 18.5 C 0 km/h
761 05-07-2009 08:12:01 19.2 C 11.54 g/m*3 19.2 C 0 km/h
762 05-07-2009 08:24:02 19.7 C 11.38 g/m*3 19.7 C 0 km/h
763 05-07-2009 08:36:02 20.4 C 11.32 g/m*3 20.4 C 0 km/h
764 05-07-2009 08:48:01 21.1 C 11.24 g/m*3 21.1 C 0 km/h
765 05-07-2009 09:00:01 21.9 C 11.39 g/m*3 21.9 C 0 km/h
766 05-07-2009 09:12:01 22.2 C 11.19 g/m*3 22.2 C 0 km/h
767 05-07-2009 09:24:02 22.7 C 11.31 g/m*3 22.7 C 0 km/h
768 05-07-2009 09:36:01 22.8 C 11.18 g/m*3 22.8 C 0 km/h
769 05-07-2009 09:48:01 22.9 C 11.24 g/m*3 22.9 C 0 km/h
770 05-07-2009 10:00:01 23 C 11.3 g/m*3 23 C 0 km/h
771 05-07-2009 10:12:00 23.2 C 11.64 g/m*3 23.2 C 0 km/h
772 05-07-2009 10:24:01 23.1 C 11.58 g/m*3 23.1 C 0 km/h
773 05-07-2009 10:36:00 22.9 C 11.65 g/m*3 22.9 C 0 km/h
774 05-07-2009 10:48:00 23.2 C 11.43 g/m*3 23.2 C 0 km/h
775 05-07-2009 11:00:00 23.9 C 11.25 g/m*3 23.9 C 0 km/h
Sensor: Nr:Datum:Temp:Abs-Feuchte:Windchill:Wind:
Aussen-T/F 776 05-07-2009 11:12:00 24.1 C 10.94 g/m*3 24.1 C 0 km/h
777 05-07-2009 11:24:00 24.3 C 11.06 g/m*3 24.3 C 0 km/h
778 05-07-2009 11:36:00 24.8 C 11.15 g/m*3 24.8 C 0 km/h
779 05-07-2009 11:48:00 24.8 C 10.93 g/m*3 24.8 C 0 km/h
780 05-07-2009 12:00:00 25.7 C 11.25 g/m*3 25.7 C 0 km/h
781 05-07-2009 12:12:59 26.8 C 11.2 g/m*3 26.8 C 0 km/h
782 05-07-2009 12:24:59 26.5 C 10.76 g/m*3 26.5 C 0 km/h
783 05-07-2009 12:36:59 27.4 C 10.52 g/m*3 27.4 C 0 km/h
784 05-07-2009 12:48:01 28.1 C 9.84 g/m*3 28.1 C 0 km/h
785 05-07-2009 13:00:01 28.5 C 9.22 g/m*3 28.5 C 0 km/h
786 05-07-2009 13:12:59 29.6 C 8.9 g/m*3 29.6 C 0 km/h
787 05-07-2009 13:24:58 29.2 C 9.29 g/m*3 29.2 C 0 km/h
788 05-07-2009 13:36:00 29 C 8.62 g/m*3 29 C 0 km/h
789 05-07-2009 13:48:59 30.5 C 8.72 g/m*3 30.5 C 0 km/h
790 05-07-2009 13:59:59 30 C 8.49 g/m*3 30 C 0 km/h
791 05-07-2009 14:11:59 30.7 C 7.87 g/m*3 30.7 C 0 km/h
792 05-07-2009 14:24:58 30.9 C 8.59 g/m*3 30.9 C 0 km/h
793 05-07-2009 14:36:58 31 C 8.32 g/m*3 31 C 0 km/h
794 05-07-2009 14:48:57 31.7 C 7.97 g/m*3 31.7 C 0 km/h
795 05-07-2009 15:00:58 30.8 C 7.28 g/m*3 30.8 C 0 km/h
796 05-07-2009 15:12:58 31.5 C 7.56 g/m*3 31.5 C 0 km/h
797 05-07-2009 15:24:57 31.9 C 7.05 g/m*3 31.9 C 0 km/h
798 05-07-2009 15:36:57 32.1 C 7.13 g/m*3 32.1 C 0 km/h
799 05-07-2009 15:48:57 32.7 C 7.01 g/m*3 32.7 C 0 km/h
800 05-07-2009 16:00:57 33 C 7.12 g/m*3 33 C 0 km/h
Sensor: Nr:Datum:Temp:Abs-Feuchte:Windchill:Wind:
Aussen-T/F 801 05-07-2009 16:12:57 32.1 C 6.79 g/m*3 32.1 C 0 km/h
802 05-07-2009 16:24:02 31.5 C 6.57 g/m*3 31.5 C 0 km/h
803 05-07-2009 16:36:02 31.5 C 6.57 g/m*3 31.5 C 0 km/h
804 05-07-2009 16:48:01 31.2 C 8.09 g/m*3 31.2 C 0 km/h
805 05-07-2009 17:00:01 30.9 C 8.91 g/m*3 30.9 C 0 km/h
806 05-07-2009 17:12:02 30.6 C 7.83 g/m*3 30.6 C 0 km/h
807 05-07-2009 17:24:01 30.4 C 9.3 g/m*3 30.4 C 0 km/h
808 05-07-2009 17:36:01 29.8 C 9.9 g/m*3 29.8 C 0 km/h
809 05-07-2009 17:48:01 27.9 C 8.92 g/m*3 27.9 C 0 km/h
810 05-07-2009 18:00:01 26.6 C 9.31 g/m*3 26.6 C 0 km/h
811 05-07-2009 18:12:01 26.9 C 9.73 g/m*3 26.9 C 0 km/h
812 05-07-2009 18:24:01 26.9 C 9.47 g/m*3 26.9 C 0 km/h
813 05-07-2009 18:36:00 28 C 9.52 g/m*3 28 C 0 km/h
814 05-07-2009 18:48:01 29 C 8.9 g/m*3 29 C 0 km/h
815 05-07-2009 19:00:01 29.2 C 9 g/m*3 29.2 C 0 km/h
816 05-07-2009 19:12:00 30.4 C 9.3 g/m*3 30.4 C 0 km/h
817 05-07-2009 19:24:00 30.6 C 8.46 g/m*3 30.6 C 0 km/h
818 05-07-2009 19:36:00 29.8 C 8.4 g/m*3 29.8 C 0 km/h
819 05-07-2009 19:48:00 30 C 8.79 g/m*3 30 C 0 km/h
820 05-07-2009 20:00:00 30 C 9.1 g/m*3 30 C 0 km/h
821 05-07-2009 20:12:00 29.4 C 9.1 g/m*3 29.4 C 0 km/h
822 05-07-2009 20:24:59 28.9 C 9.71 g/m*3 28.9 C 0 km/h
823 05-07-2009 20:36:00 27.5 C 10.05 g/m*3 27.5 C 0 km/h
824 05-07-2009 20:48:59 26.9 C 10.24 g/m*3 26.9 C 0 km/h
825 05-07-2009 20:59:59 26.5 C 10.51 g/m*3 26.5 C 0 km/h
Sensor: Nr:Datum:Temp:Abs-Feuchte:Windchill:Wind:
Aussen-T/F 826 05-07-2009 21:11:59 26 C 10.23 g/m*3 26 C 0 km/h
827 05-07-2009 21:24:59 25.4 C 10.36 g/m*3 25.4 C 0 km/h
828 05-07-2009 21:36:59 25 C 10.36 g/m*3 25 C 0 km/h
829 05-07-2009 21:48:58 24.6 C 10.35 g/m*3 24.6 C 0 km/h
830 05-07-2009 22:00:59 24.3 C 10.62 g/m*3 24.3 C 0 km/h
831 05-07-2009 22:13:00 24 C 10.66 g/m*3 24 C 0 km/h
832 05-07-2009 22:25:59 23.8 C 10.97 g/m*3 23.8 C 0 km/h
833 05-07-2009 22:37:59 23.7 C 10.91 g/m*3 23.7 C 0 km/h
834 05-07-2009 22:49:59 23.4 C 10.93 g/m*3 23.4 C 0 km/h
835 05-07-2009 23:01:59 23.4 C 11.14 g/m*3 23.4 C 0 km/h
836 05-07-2009 23:13:59 23 C 11.3 g/m*3 23 C 0 km/h
837 05-07-2009 23:25:59 22.2 C 12.96 g/m*3 22.2 C 0 km/h
838 05-07-2009 23:37:59 20 C 13.48 g/m*3 20 C 0 km/h
839 05-07-2009 23:49:59 19.8 C 14.18 g/m*3 19.8 C 0 km/h
840 06-07-2009 00:02:00 19.3 C 14.43 g/m*3 19.3 C 0 km/h
841 06-07-2009 00:14:00 18.8 C 14.33 g/m*3 18.8 C 0 km/h
842 06-07-2009 00:26:00 18.5 C 14.24 g/m*3 18.5 C 0 km/h
843 06-07-2009 00:38:00 18.4 C 14.16 g/m*3 18.4 C 0 km/h
844 06-07-2009 00:49:00 18.7 C 14.57 g/m*3 18.7 C 0 km/h
845 06-07-2009 01:01:00 18.5 C 14.4 g/m*3 18.5 C 0 km/h
846 06-07-2009 01:13:00 18.6 C 14.64 g/m*3 18.6 C 0 km/h
847 06-07-2009 01:25:00 18.8 C 14.82 g/m*3 18.8 C 0 km/h
848 06-07-2009 01:37:00 18.8 C 14.82 g/m*3 18.8 C 0 km/h
849 06-07-2009 01:49:00 18.8 C 14.82 g/m*3 18.8 C 0 km/h
850 06-07-2009 02:01:00 18.6 C 14.64 g/m*3 18.6 C 0 km/h
Sensor: Nr:Datum:Temp:Abs-Feuchte:Windchill:Wind:
Aussen-T/F 851 06-07-2009 02:13:00 18.3 C 14.23 g/m*3 18.3 C 0 km/h
852 06-07-2009 02:25:00 18.3 C 14.23 g/m*3 18.3 C 0 km/h
853 06-07-2009 02:37:00 18.4 C 14.16 g/m*3 18.4 C 0 km/h
854 06-07-2009 02:49:00 18.5 C 14.24 g/m*3 18.5 C 0 km/h
855 06-07-2009 03:01:00 18.6 C 14.17 g/m*3 18.6 C 0 km/h
856 06-07-2009 03:13:00 18.5 C 13.77 g/m*3 18.5 C 0 km/h
857 06-07-2009 03:25:00 18.3 C 13.6 g/m*3 18.3 C 0 km/h
858 06-07-2009 03:37:00 18 C 13.52 g/m*3 18 C 0 km/h
859 06-07-2009 03:49:00 17.8 C 13.66 g/m*3 17.8 C 0 km/h
860 06-07-2009 04:01:01 17.7 C 13.58 g/m*3 17.7 C 0 km/h
861 06-07-2009 04:13:01 17.6 C 13.5 g/m*3 17.6 C 0 km/h
862 06-07-2009 04:25:01 17.7 C 13.58 g/m*3 17.7 C 0 km/h
863 06-07-2009 04:37:01 17.6 C 13.5 g/m*3 17.6 C 0 km/h
864 06-07-2009 04:49:01 17.6 C 13.5 g/m*3 17.6 C 0 km/h
865 06-07-2009 05:01:01 17.5 C 13.42 g/m*3 17.5 C 0 km/h
866 06-07-2009 05:13:01 17.5 C 13.42 g/m*3 17.5 C 0 km/h
867 06-07-2009 05:25:01 17.5 C 13.27 g/m*3 17.5 C 0 km/h
868 06-07-2009 05:37:01 17.5 C 13.12 g/m*3 17.5 C 0 km/h
869 06-07-2009 05:49:01 17.4 C 13.04 g/m*3 17.4 C 0 km/h
870 06-07-2009 06:01:01 17.3 C 12.96 g/m*3 17.3 C 0 km/h
871 06-07-2009 06:13:01 17.4 C 13.04 g/m*3 17.4 C 0 km/h
872 06-07-2009 06:25:01 17.4 C 13.04 g/m*3 17.4 C 0 km/h
873 06-07-2009 06:37:01 17.3 C 12.96 g/m*3 17.3 C 0 km/h
874 06-07-2009 06:49:01 17.4 C 13.04 g/m*3 17.4 C 0 km/h
875 06-07-2009 07:01:59 17.7 C 13.28 g/m*3 17.7 C 0 km/h
Sensor: Nr:Datum:Temp:Abs-Feuchte:Windchill:Wind:
Aussen-T/F 876 06-07-2009 07:13:59 18 C 13.36 g/m*3 18 C 0 km/h
877 06-07-2009 07:25:59 18.7 C 13.77 g/m*3 18.7 C 0 km/h
878 06-07-2009 07:37:59 18.6 C 13.37 g/m*3 18.6 C 0 km/h
879 06-07-2009 07:49:58 19 C 13.53 g/m*3 19 C 0 km/h
880 06-07-2009 08:01:59 18.6 C 12.73 g/m*3 18.6 C 0 km/h
881 06-07-2009 08:13:59 18.7 C 12.97 g/m*3 18.7 C 0 km/h
882 06-07-2009 08:25:58 18.7 C 12.81 g/m*3 18.7 C 0 km/h
883 06-07-2009 08:37:58 19 C 12.71 g/m*3 19 C 0 km/h
884 06-07-2009 08:49:58 19.7 C 13.08 g/m*3 19.7 C 0 km/h
885 06-07-2009 09:01:58 20.5 C 12.46 g/m*3 20.5 C 0 km/h
886 06-07-2009 09:13:58 20.8 C 11.77 g/m*3 20.8 C 0 km/h
887 06-07-2009 09:25:58 21.1 C 11.98 g/m*3 21.1 C 0 km/h
888 06-07-2009 09:37:57 21.2 C 11.12 g/m*3 21.2 C 0 km/h
889 06-07-2009 09:49:58 21.9 C 11.19 g/m*3 21.9 C 0 km/h
890 06-07-2009 10:01:57 22.6 C 10.04 g/m*3 22.6 C 0 km/h
891 06-07-2009 10:13:57 22.8 C 10.16 g/m*3 22.8 C 0 km/h
892 06-07-2009 10:25:57 23 C 9.45 g/m*3 23 C 0 km/h
893 06-07-2009 10:37:57 24.1 C 10.06 g/m*3 24.1 C 0 km/h
894 06-07-2009 10:49:57 25.2 C 9.78 g/m*3 25.2 C 0 km/h
895 06-07-2009 11:01:56 25.3 C 8.66 g/m*3 25.3 C 0 km/h
896 06-07-2009 11:13:56 26 C 9.74 g/m*3 26 C 0 km/h
897 06-07-2009 11:25:57 25.4 C 8.95 g/m*3 25.4 C 0 km/h
898 06-07-2009 11:37:57 26.4 C 9.21 g/m*3 26.4 C 0 km/h
899 06-07-2009 11:49:56 26.8 C 9.16 g/m*3 26.8 C 0 km/h
900 06-07-2009 12:01:56 28.6 C 8.71 g/m*3 28.6 C 0 km/h
Sensor: Nr:Datum:Temp:Abs-Feuchte:Windchill:Wind:
Aussen-T/F 901 06-07-2009 12:13:56 27.6 C 7.45 g/m*3 27.6 C 0 km/h
902 06-07-2009 12:25:02 26.3 C 8.66 g/m*3 26.3 C 0 km/h
903 06-07-2009 12:37:02 24.3 C 9.52 g/m*3 24.3 C 0 km/h
904 06-07-2009 12:49:01 21.2 C 11.12 g/m*3 21.2 C 0 km/h
905 06-07-2009 13:01:01 21 C 11.91 g/m*3 21 C 0 km/h
906 06-07-2009 13:13:01 22.3 C 11.26 g/m*3 22.3 C 0 km/h
907 06-07-2009 13:25:01 24.7 C 10.41 g/m*3 24.7 C 0 km/h
908 06-07-2009 13:37:01 25.2 C 9.78 g/m*3 25.2 C 0 km/h
909 06-07-2009 13:49:01 25.1 C 8.57 g/m*3 25.1 C 0 km/h
910 06-07-2009 14:01:01 26.7 C 8.86 g/m*3 26.7 C 0 km/h
911 06-07-2009 14:13:01 26.6 C 8.05 g/m*3 26.6 C 0 km/h
912 06-07-2009 14:25:01 26.3 C 8.66 g/m*3 26.3 C 0 km/h
913 06-07-2009 14:37:00 26.6 C 8.81 g/m*3 26.6 C 0 km/h
914 06-07-2009 14:49:01 27.9 C 9.2 g/m*3 27.9 C 0 km/h
915 06-07-2009 15:01:00 28.5 C 8.94 g/m*3 28.5 C 0 km/h
916 06-07-2009 15:13:00 28.2 C 7.97 g/m*3 28.2 C 0 km/h
917 06-07-2009 15:25:00 28.4 C 8.34 g/m*3 28.4 C 0 km/h
918 06-07-2009 15:37:00 29 C 7.47 g/m*3 29 C 0 km/h
919 06-07-2009 15:49:00 29 C 6.61 g/m*3 29 C 0 km/h
920 06-07-2009 16:01:00 29.1 C 6.64 g/m*3 29.1 C 0 km/h
921 06-07-2009 16:13:00 28.8 C 6.82 g/m*3 28.8 C 0 km/h
922 06-07-2009 16:25:59 26.5 C 7.76 g/m*3 26.5 C 0 km/h
923 06-07-2009 16:37:00 23.6 C 8.51 g/m*3 23.6 C 0 km/h
924 06-07-2009 16:49:59 23.9 C 8.65 g/m*3 23.9 C 0 km/h
925 06-07-2009 17:01:59 24.8 C 8.65 g/m*3 24.8 C 0 km/h
Sensor: Nr:Datum:Temp:Abs-Feuchte:Windchill:Wind:
Aussen-T/F 926 06-07-2009 17:13:59 25.5 C 8.29 g/m*3 25.5 C 0 km/h
927 06-07-2009 17:25:59 26.5 C 8.26 g/m*3 26.5 C 0 km/h
928 06-07-2009 17:37:59 26.8 C 8.14 g/m*3 26.8 C 0 km/h
929 06-07-2009 17:49:58 27.5 C 7.94 g/m*3 27.5 C 0 km/h
930 06-07-2009 18:01:58 27.4 C 8.95 g/m*3 27.4 C 0 km/h
931 06-07-2009 18:13:58 26.7 C 8.86 g/m*3 26.7 C 0 km/h
932 06-07-2009 18:25:59 27.6 C 9.04 g/m*3 27.6 C 0 km/h
933 06-07-2009 18:37:58 28.1 C 8.75 g/m*3 28.1 C 0 km/h
934 06-07-2009 18:49:58 28 C 8.43 g/m*3 28 C 0 km/h
935 06-07-2009 19:01:58 29.3 C 8.76 g/m*3 29.3 C 0 km/h
936 06-07-2009 19:13:58 28.6 C 8.71 g/m*3 28.6 C 0 km/h
937 06-07-2009 19:25:58 27.9 C 9.2 g/m*3 27.9 C 0 km/h
938 06-07-2009 19:37:58 26.8 C 9.67 g/m*3 26.8 C 0 km/h
939 06-07-2009 19:49:57 25.2 C 8.15 g/m*3 25.2 C 0 km/h
940 06-07-2009 20:01:58 24.4 C 8.23 g/m*3 24.4 C 0 km/h
941 06-07-2009 20:13:58 23.7 C 8.13 g/m*3 23.7 C 0 km/h
942 06-07-2009 20:25:57 23.3 C 8.78 g/m*3 23.3 C 0 km/h
943 06-07-2009 20:37:57 21.3 C 9.69 g/m*3 21.3 C 0 km/h
944 06-07-2009 20:49:57 19.9 C 11.51 g/m*3 19.9 C 0 km/h
945 06-07-2009 21:01:56 18.6 C 11.62 g/m*3 18.6 C 0 km/h
946 06-07-2009 21:13:56 18.5 C 12.34 g/m*3 18.5 C 0 km/h
947 06-07-2009 21:25:57 18.4 C 12.27 g/m*3 18.4 C 0 km/h
948 06-07-2009 21:37:57 18.5 C 12.18 g/m*3 18.5 C 0 km/h
949 06-07-2009 21:49:56 18.8 C 11.76 g/m*3 18.8 C 0 km/h
950 06-07-2009 22:01:57 18.4 C 11.8 g/m*3 18.4 C 0 km/h
Sensor: Nr:Datum:Temp:Abs-Feuchte:Windchill:Wind:
Aussen-T/F 951 06-07-2009 22:13:57 18.2 C 11.35 g/m*3 18.2 C 0 km/h
952 06-07-2009 22:25:56 18 C 11.21 g/m*3 18 C 0 km/h
953 06-07-2009 22:37:56 17.9 C 11.45 g/m*3 17.9 C 0 km/h
954 06-07-2009 22:49:56 17.5 C 11.48 g/m*3 17.5 C 0 km/h
955 06-07-2009 23:01:56 17.4 C 11.41 g/m*3 17.4 C 0 km/h
956 06-07-2009 23:13:56 17.5 C 11.48 g/m*3 17.5 C 0 km/h
957 06-07-2009 23:26:56 17.9 C 11.3 g/m*3 17.9 C 0 km/h
958 06-07-2009 23:38:56 18 C 11.21 g/m*3 18 C 0 km/h
959 06-07-2009 23:50:56 17.8 C 11.69 g/m*3 17.8 C 0 km/h
960 07-07-2009 00:02:56 17.5 C 11.93 g/m*3 17.5 C 0 km/h
961 07-07-2009 00:14:56 17.5 C 11.93 g/m*3 17.5 C 0 km/h
962 07-07-2009 00:26:56 17.5 C 11.93 g/m*3 17.5 C 0 km/h
963 07-07-2009 00:38:56 17.5 C 11.78 g/m*3 17.5 C 0 km/h
964 07-07-2009 00:50:56 17.5 C 11.78 g/m*3 17.5 C 0 km/h
965 07-07-2009 01:02:56 17.6 C 11.85 g/m*3 17.6 C 0 km/h
966 07-07-2009 01:14:56 17.6 C 11.7 g/m*3 17.6 C 0 km/h
967 07-07-2009 01:26:56 17.6 C 11.7 g/m*3 17.6 C 0 km/h
968 07-07-2009 01:38:57 17.7 C 11.62 g/m*3 17.7 C 0 km/h
969 07-07-2009 01:50:57 17.5 C 11.48 g/m*3 17.5 C 0 km/h
970 07-07-2009 02:02:57 17.3 C 11.34 g/m*3 17.3 C 0 km/h
971 07-07-2009 02:14:57 17.2 C 11.42 g/m*3 17.2 C 0 km/h
972 07-07-2009 02:26:57 16.8 C 11.29 g/m*3 16.8 C 0 km/h
973 07-07-2009 02:38:57 16.8 C 11.58 g/m*3 16.8 C 0 km/h
974 07-07-2009 02:50:57 16.8 C 11.72 g/m*3 16.8 C 0 km/h
975 07-07-2009 03:02:57 16.8 C 11.58 g/m*3 16.8 C 0 km/h
Sensor: Nr:Datum:Temp:Abs-Feuchte:Windchill:Wind:
Aussen-T/F 976 07-07-2009 03:14:57 16.8 C 11.58 g/m*3 16.8 C 0 km/h
977 07-07-2009 03:26:57 16.8 C 11.58 g/m*3 16.8 C 0 km/h
978 07-07-2009 03:38:57 16.8 C 11.72 g/m*3 16.8 C 0 km/h
979 07-07-2009 03:50:57 16.7 C 11.65 g/m*3 16.7 C 0 km/h
980 07-07-2009 04:02:57 16.8 C 11.72 g/m*3 16.8 C 0 km/h
981 07-07-2009 04:14:57 16.8 C 11.72 g/m*3 16.8 C 0 km/h
982 07-07-2009 04:26:57 16.7 C 11.65 g/m*3 16.7 C 0 km/h
983 07-07-2009 04:38:57 16.6 C 11.44 g/m*3 16.6 C 0 km/h
984 07-07-2009 04:50:57 16.2 C 11.31 g/m*3 16.2 C 0 km/h
985 07-07-2009 05:02:57 16 C 11.17 g/m*3 16 C 0 km/h
986 07-07-2009 05:14:57 16 C 11.31 g/m*3 16 C 0 km/h
987 07-07-2009 05:26:58 16.1 C 11.65 g/m*3 16.1 C 0 km/h
988 07-07-2009 05:38:58 16.1 C 11.51 g/m*3 16.1 C 0 km/h
989 07-07-2009 05:50:58 16 C 11.44 g/m*3 16 C 0 km/h
990 07-07-2009 06:02:58 16 C 11.44 g/m*3 16 C 0 km/h
991 07-07-2009 06:14:58 15.9 C 11.38 g/m*3 15.9 C 0 km/h
992 07-07-2009 06:26:58 16 C 11.31 g/m*3 16 C 0 km/h
993 07-07-2009 06:38:58 16.2 C 11.31 g/m*3 16.2 C 0 km/h
994 07-07-2009 06:50:56 16.4 C 11.31 g/m*3 16.4 C 0 km/h
995 07-07-2009 07:02:57 16.4 C 11.31 g/m*3 16.4 C 0 km/h
996 07-07-2009 07:14:56 16.6 C 11.44 g/m*3 16.6 C 0 km/h
997 07-07-2009 07:26:56 16.2 C 11.31 g/m*3 16.2 C 0 km/h
998 07-07-2009 07:38:56 16 C 11.44 g/m*3 16 C 0 km/h
999 07-07-2009 07:50:56 16 C 11.44 g/m*3 16 C 0 km/h
1000 07-07-2009 08:02:56 16.4 C 11.72 g/m*3 16.4 C 0 km/h
Sensor: Nr:Datum:Temp:Abs-Feuchte:Windchill:Wind:
Aussen-T/F 1001 07-07-2009 08:14:56 17 C 11.72 g/m*3 17 C 0 km/h
1002 07-07-2009 08:26:56 17.5 C 11.48 g/m*3 17.5 C 0 km/h
1003 07-07-2009 08:38:55 17.7 C 11.62 g/m*3 17.7 C 0 km/h
1004 07-07-2009 08:50:55 17.7 C 11.01 g/m*3 17.7 C 0 km/h
1005 07-07-2009 09:02:55 17.9 C 10.99 g/m*3 17.9 C 0 km/h
1006 07-07-2009 09:14:55 17.3 C 10.75 g/m*3 17.3 C 0 km/h
1007 07-07-2009 09:26:55 17.4 C 10.97 g/m*3 17.4 C 0 km/h
1008 07-07-2009 09:38:55 18 C 10.75 g/m*3 18 C 0 km/h
1009 07-07-2009 09:50:55 18.4 C 10.54 g/m*3 18.4 C 0 km/h
1010 07-07-2009 10:02:55 18.2 C 10.1 g/m*3 18.2 C 0 km/h
1011 07-07-2009 10:14:54 17.9 C 10.38 g/m*3 17.9 C 0 km/h
1012 07-07-2009 10:26:54 18.2 C 10.1 g/m*3 18.2 C 0 km/h
1013 07-07-2009 10:38:54 18 C 9.68 g/m*3 18 C 0 km/h
1014 07-07-2009 10:50:54 18.6 C 9.87 g/m*3 18.6 C 0 km/h
1015 07-07-2009 11:02:54 19.1 C 9.84 g/m*3 19.1 C 0 km/h
1016 07-07-2009 11:14:53 19.7 C 9.68 g/m*3 19.7 C 0 km/h
1017 07-07-2009 11:26:53 20.1 C 9.39 g/m*3 20.1 C 0 km/h
1018 07-07-2009 11:38:54 20.7 C 9 g/m*3 20.7 C 0 km/h
1019 07-07-2009 11:50:53 20.2 C 9.09 g/m*3 20.2 C 0 km/h
1020 07-07-2009 12:02:53 20.5 C 8.54 g/m*3 20.5 C 0 km/h
1021 07-07-2009 12:14:54 20 C 8.64 g/m*3 20 C 0 km/h
1022 07-07-2009 12:26:54 18.8 C 9.99 g/m*3 18.8 C 0 km/h
1023 07-07-2009 12:38:53 19.1 C 10.33 g/m*3 19.1 C 0 km/h
1024 07-07-2009 12:50:53 19.9 C 9.62 g/m*3 19.9 C 0 km/h
1025 07-07-2009 13:02:52 20.5 C 9.07 g/m*3 20.5 C 0 km/h
Sensor: Nr:Datum:Temp:Abs-Feuchte:Windchill:Wind:
Aussen-T/F 1026 07-07-2009 13:14:53 22.4 C 8.34 g/m*3 22.4 C 0 km/h
1027 07-07-2009 13:26:53 23 C 7.6 g/m*3 23 C 0 km/h
1028 07-07-2009 13:38:53 22.8 C 8.13 g/m*3 22.8 C 0 km/h
1029 07-07-2009 13:50:52 23.5 C 7.4 g/m*3 23.5 C 0 km/h
1030 07-07-2009 14:02:53 22.5 C 7.39 g/m*3 22.5 C 0 km/h
1031 07-07-2009 14:14:52 23.2 C 6.65 g/m*3 23.2 C 0 km/h
1032 07-07-2009 14:26:52 23.3 C 7.11 g/m*3 23.3 C 0 km/h
1033 07-07-2009 14:38:52 23.3 C 7.32 g/m*3 23.3 C 0 km/h
1034 07-07-2009 14:50:52 23.5 C 7.19 g/m*3 23.5 C 0 km/h
1035 07-07-2009 15:02:52 24 C 6.96 g/m*3 24 C 0 km/h
1036 07-07-2009 15:14:51 23.9 C 6.92 g/m*3 23.9 C 0 km/h
1037 07-07-2009 15:26:51 23.3 C 6.27 g/m*3 23.3 C 0 km/h
1038 07-07-2009 15:38:51 23.1 C 6.82 g/m*3 23.1 C 0 km/h
1039 07-07-2009 15:50:51 23.5 C 6.77 g/m*3 23.5 C 0 km/h
1040 07-07-2009 16:02:51 23.3 C 6.48 g/m*3 23.3 C 0 km/h
1041 07-07-2009 16:14:51 21.7 C 6.29 g/m*3 21.7 C 0 km/h
1042 07-07-2009 16:26:51 21.5 C 6.6 g/m*3 21.5 C 0 km/h
1043 07-07-2009 16:38:51 22 C 6.79 g/m*3 22 C 0 km/h
1044 07-07-2009 16:50:51 23.5 C 6.56 g/m*3 23.5 C 0 km/h
1045 07-07-2009 17:02:50 24.3 C 6.2 g/m*3 24.3 C 0 km/h
1046 07-07-2009 17:14:50 24.4 C 6.68 g/m*3 24.4 C 0 km/h
1047 07-07-2009 17:26:50 24.3 C 6.64 g/m*3 24.3 C 0 km/h
1048 07-07-2009 17:38:51 24.9 C 6.87 g/m*3 24.9 C 0 km/h
1049 07-07-2009 17:50:50 25.2 C 6.98 g/m*3 25.2 C 0 km/h
1050 07-07-2009 18:02:50 23 C 6.99 g/m*3 23 C 0 km/h
Sensor: Nr:Datum:Temp:Abs-Feuchte:Windchill:Wind:
Aussen-T/F 1051 07-07-2009 18:14:50 22.2 C 6.87 g/m*3 22.2 C 0 km/h
1052 07-07-2009 18:26:50 23.8 C 7.31 g/m*3 23.8 C 0 km/h
1053 07-07-2009 18:38:50 23.8 C 6.88 g/m*3 23.8 C 0 km/h
1054 07-07-2009 18:50:49 23.2 C 7.07 g/m*3 23.2 C 0 km/h
1055 07-07-2009 19:02:50 24.4 C 6.9 g/m*3 24.4 C 0 km/h
1056 07-07-2009 19:14:49 24.1 C 6.78 g/m*3 24.1 C 0 km/h
1057 07-07-2009 19:26:49 23.7 C 6.84 g/m*3 23.7 C 0 km/h
1058 07-07-2009 19:38:49 22.7 C 7.07 g/m*3 22.7 C 0 km/h
1059 07-07-2009 19:50:48 21.6 C 7.4 g/m*3 21.6 C 0 km/h
1060 07-07-2009 20:02:49 18.1 C 7.26 g/m*3 18.1 C 0 km/h
1061 07-07-2009 20:14:49 15.6 C 10.37 g/m*3 15.6 C 0 km/h
1062 07-07-2009 20:26:49 15.4 C 10.64 g/m*3 15.4 C 0 km/h
1063 07-07-2009 20:38:48 15.6 C 10.64 g/m*3 15.6 C 0 km/h
1064 07-07-2009 20:50:49 16.2 C 10.62 g/m*3 16.2 C 0 km/h
1065 07-07-2009 21:02:48 16.5 C 10.81 g/m*3 16.5 C 0 km/h
1066 07-07-2009 21:14:48 16.4 C 10.33 g/m*3 16.4 C 0 km/h
1067 07-07-2009 21:26:48 16.1 C 10.14 g/m*3 16.1 C 0 km/h
1068 07-07-2009 21:38:48 15.8 C 9.83 g/m*3 15.8 C 0 km/h
1069 07-07-2009 21:50:48 15.5 C 9.78 g/m*3 15.5 C 0 km/h
1070 07-07-2009 22:02:47 15 C 9.49 g/m*3 15 C 0 km/h
1071 07-07-2009 22:14:47 14.8 C 9.5 g/m*3 14.8 C 0 km/h
1072 07-07-2009 22:26:47 14.7 C 9.44 g/m*3 14.7 C 0 km/h
1073 07-07-2009 22:38:48 14.4 C 9.39 g/m*3 14.4 C 0 km/h
1074 07-07-2009 22:50:47 14.1 C 9.22 g/m*3 14.1 C 0 km/h
1075 07-07-2009 23:03:49 14 C 9.29 g/m*3 14 C 0 km/h
Sensor: Nr:Datum:Temp:Abs-Feuchte:Windchill:Wind:
Aussen-T/F 1076 07-07-2009 23:15:49 14 C 9.41 g/m*3 14 C 0 km/h
1077 07-07-2009 23:27:49 14.1 C 9.47 g/m*3 14.1 C 0 km/h
1078 07-07-2009 23:39:49 14.1 C 9.47 g/m*3 14.1 C 0 km/h
1079 07-07-2009 23:51:49 14.1 C 9.47 g/m*3 14.1 C 0 km/h
1080 08-07-2009 00:03:49 14.3 C 9.46 g/m*3 14.3 C 0 km/h
1081 08-07-2009 00:15:49 14.4 C 9.39 g/m*3 14.4 C 0 km/h
1082 08-07-2009 00:27:49 14.4 C 9.27 g/m*3 14.4 C 0 km/h
1083 08-07-2009 00:39:49 14.5 C 9.33 g/m*3 14.5 C 0 km/h
1084 08-07-2009 00:51:49 14.7 C 9.32 g/m*3 14.7 C 0 km/h
1085 08-07-2009 01:03:50 14.7 C 9.57 g/m*3 14.7 C 0 km/h
1086 08-07-2009 01:15:50 14.5 C 9.58 g/m*3 14.5 C 0 km/h
1087 08-07-2009 01:27:50 14.8 C 9.63 g/m*3 14.8 C 0 km/h
1088 08-07-2009 01:39:50 14.8 C 9.5 g/m*3 14.8 C 0 km/h
1089 08-07-2009 01:51:50 14.9 C 9.43 g/m*3 14.9 C 0 km/h
1090 08-07-2009 02:03:50 15 C 9.23 g/m*3 15 C 0 km/h
1091 08-07-2009 02:15:50 15 C 9.1 g/m*3 15 C 0 km/h
1092 08-07-2009 02:27:50 15.1 C 9.16 g/m*3 15.1 C 0 km/h
1093 08-07-2009 02:39:50 15.2 C 9.22 g/m*3 15.2 C 0 km/h
1094 08-07-2009 02:51:50 15.2 C 9.22 g/m*3 15.2 C 0 km/h
1095 08-07-2009 03:03:50 15.1 C 9.29 g/m*3 15.1 C 0 km/h
1096 08-07-2009 03:15:50 14.4 C 9.77 g/m*3 14.4 C 0 km/h
1097 08-07-2009 03:27:50 14.5 C 10.07 g/m*3 14.5 C 0 km/h
1098 08-07-2009 03:39:50 14.5 C 10.07 g/m*3 14.5 C 0 km/h
1099 08-07-2009 03:51:50 14.5 C 10.07 g/m*3 14.5 C 0 km/h
1100 08-07-2009 04:03:50 14.2 C 10.01 g/m*3 14.2 C 0 km/h
Sensor: Nr:Datum:Temp:Abs-Feuchte:Windchill:Wind:
Aussen-T/F 1101 08-07-2009 04:15:50 14 C 10.13 g/m*3 14 C 0 km/h
1102 08-07-2009 04:27:50 13.9 C 10.19 g/m*3 13.9 C 0 km/h
1103 08-07-2009 04:39:50 14 C 10.25 g/m*3 14 C 0 km/h
1104 08-07-2009 04:51:51 13.7 C 10.3 g/m*3 13.7 C 0 km/h
1105 08-07-2009 05:03:51 13.6 C 10.36 g/m*3 13.6 C 0 km/h
1106 08-07-2009 05:15:51 13.7 C 10.42 g/m*3 13.7 C 0 km/h
1107 08-07-2009 05:27:51 13.9 C 10.43 g/m*3 13.9 C 0 km/h
1108 08-07-2009 05:39:51 14 C 10.13 g/m*3 14 C 0 km/h
1109 08-07-2009 05:51:51 14 C 10.13 g/m*3 14 C 0 km/h
1110 08-07-2009 06:03:51 13.8 C 10.13 g/m*3 13.8 C 0 km/h
1111 08-07-2009 06:15:51 13.7 C 10.3 g/m*3 13.7 C 0 km/h
1112 08-07-2009 06:27:51 13.6 C 10.36 g/m*3 13.6 C 0 km/h
1113 08-07-2009 06:39:51 13.7 C 10.3 g/m*3 13.7 C 0 km/h
1114 08-07-2009 06:51:51 14 C 10.49 g/m*3 14 C 0 km/h
1115 08-07-2009 07:03:49 14.2 C 10.5 g/m*3 14.2 C 0 km/h
1116 08-07-2009 07:15:48 14.4 C 10.38 g/m*3 14.4 C 0 km/h
1117 08-07-2009 07:27:48 14.6 C 10.26 g/m*3 14.6 C 0 km/h
1118 08-07-2009 07:39:49 14.7 C 10.2 g/m*3 14.7 C 0 km/h
1119 08-07-2009 07:51:49 14.9 C 10.2 g/m*3 14.9 C 0 km/h
1120 08-07-2009 08:03:49 15.2 C 10.38 g/m*3 15.2 C 0 km/h
1121 08-07-2009 08:15:48 15.2 C 10.25 g/m*3 15.2 C 0 km/h
1122 08-07-2009 08:27:48 15.2 C 10.25 g/m*3 15.2 C 0 km/h
1123 08-07-2009 08:39:48 14.9 C 10.45 g/m*3 14.9 C 0 km/h
1124 08-07-2009 08:51:48 15 C 10.39 g/m*3 15 C 0 km/h
1125 08-07-2009 09:03:48 15 C 10.51 g/m*3 15 C 0 km/h
Sensor: Nr:Datum:Temp:Abs-Feuchte:Windchill:Wind:
Aussen-T/F 1126 08-07-2009 09:15:47 16 C 10.63 g/m*3 16 C 0 km/h
1127 08-07-2009 09:27:47 16.6 C 10.59 g/m*3 16.6 C 0 km/h
1128 08-07-2009 09:39:48 17 C 10.56 g/m*3 17 C 0 km/h
1129 08-07-2009 09:51:47 17 C 10.13 g/m*3 17 C 0 km/h
1130 08-07-2009 10:03:47 16.7 C 10.09 g/m*3 16.7 C 0 km/h
1131 08-07-2009 10:15:47 17.2 C 9.81 g/m*3 17.2 C 0 km/h
1132 08-07-2009 10:27:47 16.8 C 9.87 g/m*3 16.8 C 0 km/h
1133 08-07-2009 10:39:47 16.4 C 10.05 g/m*3 16.4 C 0 km/h
1134 08-07-2009 10:51:47 16.6 C 10.31 g/m*3 16.6 C 0 km/h
1135 08-07-2009 11:03:46 17 C 10.56 g/m*3 17 C 0 km/h
1136 08-07-2009 11:15:47 18.1 C 10.2 g/m*3 18.1 C 0 km/h
1137 08-07-2009 11:27:47 18.5 C 9.97 g/m*3 18.5 C 0 km/h
1138 08-07-2009 11:39:47 18.1 C 10.51 g/m*3 18.1 C 0 km/h
1139 08-07-2009 11:51:46 19.2 C 10.06 g/m*3 19.2 C 0 km/h
1140 08-07-2009 12:03:46 18.7 C 9.77 g/m*3 18.7 C 0 km/h
1141 08-07-2009 12:15:46 20 C 9.85 g/m*3 20 C 0 km/h
1142 08-07-2009 12:27:46 22 C 9.12 g/m*3 22 C 0 km/h
1143 08-07-2009 12:39:46 21.4 C 8.81 g/m*3 21.4 C 0 km/h
1144 08-07-2009 12:51:45 21.5 C 8.49 g/m*3 21.5 C 0 km/h
1145 08-07-2009 13:03:46 22 C 8.15 g/m*3 22 C 0 km/h
1146 08-07-2009 13:15:45 22.7 C 7.88 g/m*3 22.7 C 0 km/h
1147 08-07-2009 13:27:45 17 C 6.8 g/m*3 17 C 0 km/h
1148 08-07-2009 13:39:45 14.7 C 10.07 g/m*3 14.7 C 0 km/h
1149 08-07-2009 13:51:45 15.4 C 10.77 g/m*3 15.4 C 0 km/h
1150 08-07-2009 14:03:45 15.9 C 10.56 g/m*3 15.9 C 0 km/h
Sensor: Nr:Datum:Temp:Abs-Feuchte:Windchill:Wind:
Aussen-T/F 1151 08-07-2009 14:15:45 16.5 C 10.53 g/m*3 16.5 C 0 km/h
1152 08-07-2009 14:27:45 16.8 C 10.44 g/m*3 16.8 C 0 km/h
1153 08-07-2009 14:39:44 16.7 C 11.08 g/m*3 16.7 C 0 km/h
1154 08-07-2009 14:51:45 17.7 C 11.32 g/m*3 17.7 C 0 km/h
1155 08-07-2009 15:03:44 17.7 C 10.71 g/m*3 17.7 C 0 km/h
1156 08-07-2009 15:15:44 16.8 C 10.29 g/m*3 16.8 C 0 km/h
1157 08-07-2009 15:27:44 16.2 C 10.2 g/m*3 16.2 C 0 km/h
1158 08-07-2009 15:39:45 17.9 C 10.38 g/m*3 17.9 C 0 km/h
1159 08-07-2009 15:51:44 19 C 9.29 g/m*3 19 C 0 km/h
1160 08-07-2009 16:03:44 20 C 9.51 g/m*3 20 C 0 km/h
1161 08-07-2009 16:15:43 20.4 C 9.2 g/m*3 20.4 C 0 km/h
1162 08-07-2009 16:27:43 19.6 C 8.44 g/m*3 19.6 C 0 km/h
1163 08-07-2009 16:39:44 19.5 C 7.55 g/m*3 19.5 C 0 km/h
1164 08-07-2009 16:51:43 19.7 C 7.81 g/m*3 19.7 C 0 km/h
1165 08-07-2009 17:03:43 19.5 C 8.22 g/m*3 19.5 C 0 km/h
1166 08-07-2009 17:15:43 19 C 8.96 g/m*3 19 C 0 km/h
1167 08-07-2009 17:27:43 18.7 C 9.45 g/m*3 18.7 C 0 km/h
1168 08-07-2009 17:39:43 18.4 C 7.55 g/m*3 18.4 C 0 km/h
1169 08-07-2009 17:51:43 18.3 C 7.82 g/m*3 18.3 C 0 km/h
1170 08-07-2009 18:03:42 18.1 C 7.88 g/m*3 18.1 C 0 km/h
1171 08-07-2009 18:15:43 17.7 C 8.3 g/m*3 17.7 C 0 km/h
1172 08-07-2009 18:27:43 17.7 C 8.15 g/m*3 17.7 C 0 km/h
1173 08-07-2009 18:39:42 17.7 C 8.3 g/m*3 17.7 C 0 km/h
1174 08-07-2009 18:51:42 17.5 C 8.05 g/m*3 17.5 C 0 km/h
1175 08-07-2009 19:03:42 17.3 C 8.1 g/m*3 17.3 C 0 km/h
Sensor: Nr:Datum:Temp:Abs-Feuchte:Windchill:Wind:
Aussen-T/F 1176 08-07-2009 19:15:42 17.2 C 8.35 g/m*3 17.2 C 0 km/h
1177 08-07-2009 19:27:42 17 C 8.39 g/m*3 17 C 0 km/h
1178 08-07-2009 19:39:42 17.2 C 8.2 g/m*3 17.2 C 0 km/h
1179 08-07-2009 19:51:42 17.1 C 8.3 g/m*3 17.1 C 0 km/h
1180 08-07-2009 20:03:42 17 C 8.25 g/m*3 17 C 0 km/h
1181 08-07-2009 20:15:41 16.8 C 8.58 g/m*3 16.8 C 0 km/h
1182 08-07-2009 20:27:41 16.8 C 8.72 g/m*3 16.8 C 0 km/h
1183 08-07-2009 20:39:41 16.7 C 8.67 g/m*3 16.7 C 0 km/h
1184 08-07-2009 20:51:41 16.6 C 8.76 g/m*3 16.6 C 0 km/h
1185 08-07-2009 21:03:41 16.5 C 8.85 g/m*3 16.5 C 0 km/h
1186 08-07-2009 21:15:40 16.5 C 8.71 g/m*3 16.5 C 0 km/h
1187 08-07-2009 21:27:40 16.5 C 8.71 g/m*3 16.5 C 0 km/h
1188 08-07-2009 21:39:41 16.4 C 8.51 g/m*3 16.4 C 0 km/h
1189 08-07-2009 21:51:40 16.4 C 8.65 g/m*3 16.4 C 0 km/h
1190 08-07-2009 22:03:40 16.3 C 8.74 g/m*3 16.3 C 0 km/h
1191 08-07-2009 22:15:40 16.2 C 8.83 g/m*3 16.2 C 0 km/h
1192 08-07-2009 22:27:40 16.1 C 8.91 g/m*3 16.1 C 0 km/h
1193 08-07-2009 22:39:40 16 C 8.99 g/m*3 16 C 0 km/h
1194 08-07-2009 22:52:41 15.9 C 9.07 g/m*3 15.9 C 0 km/h
1195 08-07-2009 23:04:41 15.9 C 9.21 g/m*3 15.9 C 0 km/h
1196 08-07-2009 23:16:41 15.9 C 9.21 g/m*3 15.9 C 0 km/h
1197 08-07-2009 23:28:41 15.8 C 9.15 g/m*3 15.8 C 0 km/h
1198 08-07-2009 23:40:41 15.8 C 8.88 g/m*3 15.8 C 0 km/h
1199 08-07-2009 23:52:41 15.7 C 8.83 g/m*3 15.7 C 0 km/h
1200 09-07-2009 00:04:41 15.6 C 8.78 g/m*3 15.6 C 0 km/h
Sensor: Nr:Datum:Temp:Abs-Feuchte:Windchill:Wind:
Aussen-T/F 1201 09-07-2009 00:16:41 15.6 C 8.78 g/m*3 15.6 C 0 km/h
1202 09-07-2009 00:28:41 15.6 C 8.78 g/m*3 15.6 C 0 km/h
1203 09-07-2009 00:40:41 15.5 C 8.99 g/m*3 15.5 C 0 km/h
1204 09-07-2009 00:52:41 15.2 C 9.22 g/m*3 15.2 C 0 km/h
1205 09-07-2009 01:04:41 14.8 C 9.5 g/m*3 14.8 C 0 km/h
1206 09-07-2009 01:16:41 14.8 C 9.88 g/m*3 14.8 C 0 km/h
1207 09-07-2009 01:28:42 14.5 C 9.83 g/m*3 14.5 C 0 km/h
1208 09-07-2009 01:40:42 14.3 C 9.58 g/m*3 14.3 C 0 km/h
1209 09-07-2009 01:52:42 13.8 C 9.53 g/m*3 13.8 C 0 km/h
1210 09-07-2009 02:04:42 13.5 C 9.59 g/m*3 13.5 C 0 km/h
1211 09-07-2009 02:16:42 13.2 C 9.53 g/m*3 13.2 C 0 km/h
1212 09-07-2009 02:28:42 13.3 C 9.47 g/m*3 13.3 C 0 km/h
1213 09-07-2009 02:40:42 13.5 C 9.36 g/m*3 13.5 C 0 km/h
1214 09-07-2009 02:52:42 13.4 C 9.3 g/m*3 13.4 C 0 km/h
1215 09-07-2009 03:04:42 13.4 C 9.42 g/m*3 13.4 C 0 km/h
1216 09-07-2009 03:16:42 13.4 C 9.53 g/m*3 13.4 C 0 km/h
1217 09-07-2009 03:28:42 13.4 C 9.53 g/m*3 13.4 C 0 km/h
1218 09-07-2009 03:40:42 13.5 C 9.59 g/m*3 13.5 C 0 km/h
1219 09-07-2009 03:52:42 13.5 C 9.71 g/m*3 13.5 C 0 km/h
1220 09-07-2009 04:04:42 13.4 C 9.53 g/m*3 13.4 C 0 km/h
1221 09-07-2009 04:16:42 13.4 C 9.53 g/m*3 13.4 C 0 km/h
1222 09-07-2009 04:28:42 13.4 C 9.53 g/m*3 13.4 C 0 km/h
1223 09-07-2009 04:40:42 13.3 C 9.47 g/m*3 13.3 C 0 km/h
1224 09-07-2009 04:52:42 13.2 C 9.42 g/m*3 13.2 C 0 km/h
1225 09-07-2009 05:04:42 13.2 C 9.3 g/m*3 13.2 C 0 km/h
Sensor: Nr:Datum:Temp:Abs-Feuchte:Windchill:Wind:
Aussen-T/F 1226 09-07-2009 05:16:42 13.2 C 9.07 g/m*3 13.2 C 0 km/h
1227 09-07-2009 05:28:42 13.1 C 8.9 g/m*3 13.1 C 0 km/h
1228 09-07-2009 05:40:43 13.1 C 8.9 g/m*3 13.1 C 0 km/h
1229 09-07-2009 05:52:43 13.1 C 8.67 g/m*3 13.1 C 0 km/h
1230 09-07-2009 06:04:43 13.1 C 8.44 g/m*3 13.1 C 0 km/h
1231 09-07-2009 06:16:43 13.2 C 8.38 g/m*3 13.2 C 0 km/h
1232 09-07-2009 06:28:43 13.2 C 8.38 g/m*3 13.2 C 0 km/h
1233 09-07-2009 06:40:43 13.3 C 8.43 g/m*3 13.3 C 0 km/h
1234 09-07-2009 06:52:43 13.4 C 8.37 g/m*3 13.4 C 0 km/h
1235 09-07-2009 07:04:40 13.5 C 8.54 g/m*3 13.5 C 0 km/h
1236 09-07-2009 07:16:41 13.7 C 8.76 g/m*3 13.7 C 0 km/h
1237 09-07-2009 07:28:41 13.6 C 8.71 g/m*3 13.6 C 0 km/h
1238 09-07-2009 07:40:40 13.5 C 8.66 g/m*3 13.5 C 0 km/h
1239 09-07-2009 07:52:40 13.6 C 8.83 g/m*3 13.6 C 0 km/h
1240 09-07-2009 08:04:40 13.9 C 8.99 g/m*3 13.9 C 0 km/h
1241 09-07-2009 08:16:40 14.3 C 9.09 g/m*3 14.3 C 0 km/h
1242 09-07-2009 08:28:40 14.7 C 9.07 g/m*3 14.7 C 0 km/h
1243 09-07-2009 08:40:39 15.1 C 8.9 g/m*3 15.1 C 0 km/h
1244 09-07-2009 08:52:40 15.2 C 8.83 g/m*3 15.2 C 0 km/h
1245 09-07-2009 09:04:39 15.1 C 8.64 g/m*3 15.1 C 0 km/h
1246 09-07-2009 09:16:39 14.4 C 8.78 g/m*3 14.4 C 0 km/h
1247 09-07-2009 09:28:39 14.1 C 8.74 g/m*3 14.1 C 0 km/h
1248 09-07-2009 09:40:39 14.2 C 8.67 g/m*3 14.2 C 0 km/h
1249 09-07-2009 09:52:39 14.8 C 8.74 g/m*3 14.8 C 0 km/h
1250 09-07-2009 10:04:39 15 C 8.59 g/m*3 15 C 0 km/h
Sensor: Nr:Datum:Temp:Abs-Feuchte:Windchill:Wind:
Aussen-T/F 1251 09-07-2009 10:16:38 15.5 C 8.59 g/m*3 15.5 C 0 km/h
1252 09-07-2009 10:28:38 16.1 C 8.36 g/m*3 16.1 C 0 km/h
1253 09-07-2009 10:40:39 16.8 C 7.72 g/m*3 16.8 C 0 km/h
1254 09-07-2009 10:52:38 16.8 C 7.43 g/m*3 16.8 C 0 km/h
1255 09-07-2009 11:04:38 16.7 C 6.82 g/m*3 16.7 C 0 km/h
1256 09-07-2009 11:16:38 17.1 C 6.99 g/m*3 17.1 C 0 km/h
1257 09-07-2009 11:28:38 17.1 C 6.7 g/m*3 17.1 C 0 km/h
1258 09-07-2009 11:40:38 17.6 C 6.75 g/m*3 17.6 C 0 km/h
1259 09-07-2009 11:52:38 18.7 C 6.24 g/m*3 18.7 C 0 km/h
1260 09-07-2009 12:04:37 19.6 C 6.25 g/m*3 19.6 C 0 km/h
1261 09-07-2009 12:16:38 20.5 C 6.05 g/m*3 20.5 C 0 km/h
1262 09-07-2009 12:28:38 20.3 C 6.16 g/m*3 20.3 C 0 km/h
1263 09-07-2009 12:40:37 19.9 C 5.84 g/m*3 19.9 C 0 km/h
1264 09-07-2009 12:52:37 19.1 C 6.07 g/m*3 19.1 C 0 km/h
1265 09-07-2009 13:04:37 18.7 C 5.92 g/m*3 18.7 C 0 km/h
1266 09-07-2009 13:16:37 20.3 C 7.21 g/m*3 20.3 C 0 km/h
1267 09-07-2009 13:28:37 22.5 C 5.79 g/m*3 22.5 C 0 km/h
1268 09-07-2009 13:40:37 20.9 C 5.65 g/m*3 20.9 C 0 km/h
1269 09-07-2009 13:52:37 20.8 C 6.34 g/m*3 20.8 C 0 km/h
1270 09-07-2009 14:04:37 21.7 C 5.53 g/m*3 21.7 C 0 km/h
1271 09-07-2009 14:16:36 21.3 C 5.59 g/m*3 21.3 C 0 km/h
1272 09-07-2009 14:28:36 21.5 C 5.66 g/m*3 21.5 C 0 km/h
1273 09-07-2009 14:40:36 21.9 C 6.18 g/m*3 21.9 C 0 km/h
1274 09-07-2009 14:52:36 21.4 C 5.81 g/m*3 21.4 C 0 km/h
1275 09-07-2009 15:04:36 21.2 C 5.74 g/m*3 21.2 C 0 km/h
Sensor: Nr:Datum:Temp:Abs-Feuchte:Windchill:Wind:
Aussen-T/F 1276 09-07-2009 15:16:35 21.5 C 6.22 g/m*3 21.5 C 0 km/h
1277 09-07-2009 15:28:35 22.7 C 5.86 g/m*3 22.7 C 0 km/h
1278 09-07-2009 15:40:36 23.3 C 5.44 g/m*3 23.3 C 0 km/h
1279 09-07-2009 15:52:35 23.2 C 5.82 g/m*3 23.2 C 0 km/h
1280 09-07-2009 16:04:35 23.4 C 5.68 g/m*3 23.4 C 0 km/h
1281 09-07-2009 16:16:36 22.9 C 5.72 g/m*3 22.9 C 0 km/h
1282 09-07-2009 16:28:36 23 C 5.96 g/m*3 23 C 0 km/h
1283 09-07-2009 16:40:35 23.6 C 5.96 g/m*3 23.6 C 0 km/h
1284 09-07-2009 16:52:35 22.8 C 5.89 g/m*3 22.8 C 0 km/h
1285 09-07-2009 17:04:35 22.1 C 6.05 g/m*3 22.1 C 0 km/h
1286 09-07-2009 17:16:35 22 C 5.82 g/m*3 22 C 0 km/h
1287 09-07-2009 17:28:35 22 C 6.02 g/m*3 22 C 0 km/h
1288 09-07-2009 17:40:34 22.4 C 6.36 g/m*3 22.4 C 0 km/h
1289 09-07-2009 17:52:34 21.5 C 6.6 g/m*3 21.5 C 0 km/h
1290 09-07-2009 18:04:35 21 C 6.96 g/m*3 21 C 0 km/h
1291 09-07-2009 18:16:34 19.2 C 7.09 g/m*3 19.2 C 0 km/h
1292 09-07-2009 18:28:34 18.8 C 7.57 g/m*3 18.8 C 0 km/h
1293 09-07-2009 18:40:34 18.1 C 7.88 g/m*3 18.1 C 0 km/h
1294 09-07-2009 18:52:34 17.2 C 8.05 g/m*3 17.2 C 0 km/h
1295 09-07-2009 19:04:34 16.1 C 8.91 g/m*3 16.1 C 0 km/h
1296 09-07-2009 19:16:33 15.2 C 9.48 g/m*3 15.2 C 0 km/h
1297 09-07-2009 19:28:33 14.6 C 9.64 g/m*3 14.6 C 0 km/h
1298 09-07-2009 19:40:33 14.4 C 9.64 g/m*3 14.4 C 0 km/h
1299 09-07-2009 19:52:33 14.5 C 9.83 g/m*3 14.5 C 0 km/h
1300 09-07-2009 20:04:33 14.4 C 9.39 g/m*3 14.4 C 0 km/h
Sensor: Nr:Datum:Temp:Abs-Feuchte:Windchill:Wind:
Aussen-T/F 1301 09-07-2009 20:16:33 14.5 C 9.83 g/m*3 14.5 C 0 km/h
1302 09-07-2009 20:28:33 14.5 C 9.83 g/m*3 14.5 C 0 km/h
1303 09-07-2009 20:40:33 14.6 C 10.01 g/m*3 14.6 C 0 km/h
1304 09-07-2009 20:52:33 14.3 C 9.95 g/m*3 14.3 C 0 km/h
1305 09-07-2009 21:04:33 14.1 C 9.95 g/m*3 14.1 C 0 km/h
1306 09-07-2009 21:16:32 14.1 C 9.95 g/m*3 14.1 C 0 km/h
1307 09-07-2009 21:28:32 14.1 C 9.59 g/m*3 14.1 C 0 km/h
1308 09-07-2009 21:40:32 14.2 C 9.28 g/m*3 14.2 C 0 km/h
1309 09-07-2009 21:52:32 14.2 C 9.04 g/m*3 14.2 C 0 km/h
1310 09-07-2009 22:04:32 14.4 C 9.02 g/m*3 14.4 C 0 km/h
1311 09-07-2009 22:16:32 14.3 C 8.97 g/m*3 14.3 C 0 km/h
1312 09-07-2009 22:28:32 14.4 C 8.9 g/m*3 14.4 C 0 km/h
1313 09-07-2009 22:40:31 14.1 C 8.86 g/m*3 14.1 C 0 km/h
1314 09-07-2009 22:53:33 14.1 C 8.74 g/m*3 14.1 C 0 km/h
1315 09-07-2009 23:05:33 14.3 C 8.72 g/m*3 14.3 C 0 km/h
1316 09-07-2009 23:17:33 14.7 C 9.07 g/m*3 14.7 C 0 km/h
1317 09-07-2009 23:29:33 14.5 C 8.95 g/m*3 14.5 C 0 km/h
1318 09-07-2009 23:41:33 14.1 C 8.86 g/m*3 14.1 C 0 km/h
1319 09-07-2009 23:53:33 13.8 C 9.06 g/m*3 13.8 C 0 km/h
1320 10-07-2009 00:05:33 13.7 C 8.76 g/m*3 13.7 C 0 km/h
1321 10-07-2009 00:17:33 13.6 C 8.59 g/m*3 13.6 C 0 km/h
1322 10-07-2009 00:29:33 13.5 C 8.66 g/m*3 13.5 C 0 km/h
1323 10-07-2009 00:41:33 13.2 C 8.61 g/m*3 13.2 C 0 km/h
1324 10-07-2009 00:53:33 13.2 C 8.61 g/m*3 13.2 C 0 km/h
1325 10-07-2009 01:05:33 13.4 C 8.6 g/m*3 13.4 C 0 km/h
Sensor: Nr:Datum:Temp:Abs-Feuchte:Windchill:Wind:
Aussen-T/F 1326 10-07-2009 01:17:34 13.4 C 8.6 g/m*3 13.4 C 0 km/h
1327 10-07-2009 01:29:34 13.4 C 8.6 g/m*3 13.4 C 0 km/h
1328 10-07-2009 01:41:34 13.2 C 8.38 g/m*3 13.2 C 0 km/h
1329 10-07-2009 01:53:34 13 C 8.39 g/m*3 13 C 0 km/h
1330 10-07-2009 02:05:34 13.2 C 8.61 g/m*3 13.2 C 0 km/h
1331 10-07-2009 02:17:34 13.3 C 8.55 g/m*3 13.3 C 0 km/h
1332 10-07-2009 02:29:34 13.3 C 8.55 g/m*3 13.3 C 0 km/h
1333 10-07-2009 02:41:34 13.4 C 8.6 g/m*3 13.4 C 0 km/h
1334 10-07-2009 02:53:34 13.2 C 8.61 g/m*3 13.2 C 0 km/h
1335 10-07-2009 03:05:34 13.2 C 8.73 g/m*3 13.2 C 0 km/h
1336 10-07-2009 03:17:34 13.3 C 8.66 g/m*3 13.3 C 0 km/h
1337 10-07-2009 03:29:34 13.4 C 8.6 g/m*3 13.4 C 0 km/h
1338 10-07-2009 03:41:34 13.4 C 8.49 g/m*3 13.4 C 0 km/h
1339 10-07-2009 03:53:34 13.5 C 8.54 g/m*3 13.5 C 0 km/h
1340 10-07-2009 04:05:34 13.5 C 8.54 g/m*3 13.5 C 0 km/h
1341 10-07-2009 04:17:34 13.5 C 8.54 g/m*3 13.5 C 0 km/h
1342 10-07-2009 04:29:34 13.5 C 8.66 g/m*3 13.5 C 0 km/h
1343 10-07-2009 04:41:34 13.5 C 8.66 g/m*3 13.5 C 0 km/h
1344 10-07-2009 04:53:34 13.4 C 8.72 g/m*3 13.4 C 0 km/h
1345 10-07-2009 05:05:34 13.4 C 8.6 g/m*3 13.4 C 0 km/h
1346 10-07-2009 05:17:34 13.3 C 8.66 g/m*3 13.3 C 0 km/h
1347 10-07-2009 05:29:35 13.2 C 8.73 g/m*3 13.2 C 0 km/h
1348 10-07-2009 05:41:35 13.1 C 8.56 g/m*3 13.1 C 0 km/h
1349 10-07-2009 05:53:35 12.9 C 8.68 g/m*3 12.9 C 0 km/h
1350 10-07-2009 06:05:35 13 C 8.62 g/m*3 13 C 0 km/h
Sensor: Nr:Datum:Temp:Abs-Feuchte:Windchill:Wind:
Aussen-T/F 1351 10-07-2009 06:17:35 13.1 C 8.44 g/m*3 13.1 C 0 km/h
1352 10-07-2009 06:29:35 13.2 C 8.38 g/m*3 13.2 C 0 km/h
1353 10-07-2009 06:41:35 13.2 C 8.38 g/m*3 13.2 C 0 km/h
1354 10-07-2009 06:53:35 13.2 C 8.38 g/m*3 13.2 C 0 km/h
1355 10-07-2009 07:05:32 13.2 C 8.27 g/m*3 13.2 C 0 km/h
1356 10-07-2009 07:17:32 13.2 C 8.38 g/m*3 13.2 C 0 km/h
1357 10-07-2009 07:29:32 13.4 C 8.49 g/m*3 13.4 C 0 km/h
1358 10-07-2009 07:41:31 13.3 C 8.2 g/m*3 13.3 C 0 km/h
1359 10-07-2009 07:53:32 13.4 C 8.02 g/m*3 13.4 C 0 km/h
1360 10-07-2009 08:05:31 13.4 C 8.02 g/m*3 13.4 C 0 km/h
1361 10-07-2009 08:17:31 13.5 C 8.07 g/m*3 13.5 C 0 km/h
1362 10-07-2009 08:29:32 13.5 C 8.07 g/m*3 13.5 C 0 km/h
1363 10-07-2009 08:41:31 14.2 C 8.18 g/m*3 14.2 C 0 km/h
1364 10-07-2009 08:53:31 14.2 C 8.06 g/m*3 14.2 C 0 km/h
1365 10-07-2009 09:05:31 14.7 C 8.18 g/m*3 14.7 C 0 km/h
1366 10-07-2009 09:17:31 14.8 C 7.85 g/m*3 14.8 C 0 km/h
1367 10-07-2009 09:29:31 15.1 C 7.87 g/m*3 15.1 C 0 km/h
1368 10-07-2009 09:41:31 15.7 C 8.3 g/m*3 15.7 C 0 km/h
1369 10-07-2009 09:53:30 16.2 C 7.45 g/m*3 16.2 C 0 km/h
1370 10-07-2009 10:05:30 15.8 C 7.81 g/m*3 15.8 C 0 km/h
1371 10-07-2009 10:17:30 16.3 C 7.77 g/m*3 16.3 C 0 km/h
1372 10-07-2009 10:29:30 16 C 7.77 g/m*3 16 C 0 km/h
1373 10-07-2009 10:41:30 15.8 C 8.21 g/m*3 15.8 C 0 km/h
1374 10-07-2009 10:53:29 15.6 C 7.45 g/m*3 15.6 C 0 km/h
1375 10-07-2009 11:05:30 15.6 C 7.05 g/m*3 15.6 C 0 km/h
Sensor: Nr:Datum:Temp:Abs-Feuchte:Windchill:Wind:
Aussen-T/F 1376 10-07-2009 11:17:30 15.9 C 7.18 g/m*3 15.9 C 0 km/h
1377 10-07-2009 11:29:30 14.3 C 7.74 g/m*3 14.3 C 0 km/h
1378 10-07-2009 11:41:29 15.2 C 8.44 g/m*3 15.2 C 0 km/h
1379 10-07-2009 11:53:29 17.4 C 8.6 g/m*3 17.4 C 0 km/h
1380 10-07-2009 12:05:29 18 C 7.22 g/m*3 18 C 0 km/h
1381 10-07-2009 12:17:29 18.3 C 7.19 g/m*3 18.3 C 0 km/h
1382 10-07-2009 12:29:29 17.5 C 6.26 g/m*3 17.5 C 0 km/h
1383 10-07-2009 12:41:28 17.5 C 6.26 g/m*3 17.5 C 0 km/h
1384 10-07-2009 12:53:29 17.5 C 6.11 g/m*3 17.5 C 0 km/h
1385 10-07-2009 13:05:29 17.3 C 6.04 g/m*3 17.3 C 0 km/h
1386 10-07-2009 13:17:28 16.8 C 6.43 g/m*3 16.8 C 0 km/h
1387 10-07-2009 13:29:28 16.8 C 6.43 g/m*3 16.8 C 0 km/h
1388 10-07-2009 13:41:28 17.6 C 6.3 g/m*3 17.6 C 0 km/h
1389 10-07-2009 13:53:28 17.9 C 6.11 g/m*3 17.9 C 0 km/h
1390 10-07-2009 14:05:28 17.9 C 6.11 g/m*3 17.9 C 0 km/h
1391 10-07-2009 14:17:27 17.8 C 6.22 g/m*3 17.8 C 0 km/h
1392 10-07-2009 14:29:27 17.8 C 6.07 g/m*3 17.8 C 0 km/h
1393 10-07-2009 14:41:28 17.7 C 6.19 g/m*3 17.7 C 0 km/h
1394 10-07-2009 14:53:27 17.3 C 5.89 g/m*3 17.3 C 0 km/h
1395 10-07-2009 15:05:27 17.2 C 5.86 g/m*3 17.2 C 0 km/h
1396 10-07-2009 15:17:27 17.2 C 6 g/m*3 17.2 C 0 km/h
1397 10-07-2009 15:29:27 17.2 C 6 g/m*3 17.2 C 0 km/h
1398 10-07-2009 15:41:27 17.1 C 5.97 g/m*3 17.1 C 0 km/h
1399 10-07-2009 15:53:27 17.4 C 6.37 g/m*3 17.4 C 0 km/h
1400 10-07-2009 16:05:26 17 C 6.08 g/m*3 17 C 0 km/h
Sensor: Nr:Datum:Temp:Abs-Feuchte:Windchill:Wind:
Aussen-T/F 1401 10-07-2009 16:17:27 17 C 5.93 g/m*3 17 C 0 km/h
1402 10-07-2009 16:29:27 17.1 C 6.26 g/m*3 17.1 C 0 km/h
1403 10-07-2009 16:41:27 15.8 C 7 g/m*3 15.8 C 0 km/h
1404 10-07-2009 16:53:26 15.8 C 6.87 g/m*3 15.8 C 0 km/h
1405 10-07-2009 17:05:27 16.3 C 6.66 g/m*3 16.3 C 0 km/h
1406 10-07-2009 17:17:26 16.5 C 6.32 g/m*3 16.5 C 0 km/h
1407 10-07-2009 17:29:26 16.6 C 6.36 g/m*3 16.6 C 0 km/h
1408 10-07-2009 17:41:26 16.6 C 6.36 g/m*3 16.6 C 0 km/h
1409 10-07-2009 17:53:26 16.6 C 6.5 g/m*3 16.6 C 0 km/h
1410 10-07-2009 18:05:26 16.5 C 6.46 g/m*3 16.5 C 0 km/h
1411 10-07-2009 18:17:25 16.5 C 6.46 g/m*3 16.5 C 0 km/h
1412 10-07-2009 18:29:25 16.5 C 6.6 g/m*3 16.5 C 0 km/h
1413 10-07-2009 18:41:25 16.5 C 6.6 g/m*3 16.5 C 0 km/h
1414 10-07-2009 18:53:25 16.6 C 6.64 g/m*3 16.6 C 0 km/h
1415 10-07-2009 19:05:25 16.5 C 6.74 g/m*3 16.5 C 0 km/h
1416 10-07-2009 19:17:25 16.6 C 6.78 g/m*3 16.6 C 0 km/h
1417 10-07-2009 19:29:25 16.7 C 6.96 g/m*3 16.7 C 0 km/h
1418 10-07-2009 19:41:24 16.6 C 6.78 g/m*3 16.6 C 0 km/h
1419 10-07-2009 19:53:25 16.6 C 6.92 g/m*3 16.6 C 0 km/h
1420 10-07-2009 20:05:24 16.6 C 6.78 g/m*3 16.6 C 0 km/h
1421 10-07-2009 20:17:24 16.6 C 6.78 g/m*3 16.6 C 0 km/h
1422 10-07-2009 20:29:24 16.6 C 6.78 g/m*3 16.6 C 0 km/h
1423 10-07-2009 20:41:25 16.4 C 6.98 g/m*3 16.4 C 0 km/h
1424 10-07-2009 20:53:24 16.1 C 7.26 g/m*3 16.1 C 0 km/h
1425 10-07-2009 21:05:24 15.7 C 7.89 g/m*3 15.7 C 0 km/h
Sensor: Nr:Datum:Temp:Abs-Feuchte:Windchill:Wind:
Aussen-T/F 1426 10-07-2009 21:17:23 15.4 C 8.15 g/m*3 15.4 C 0 km/h
1427 10-07-2009 21:29:23 15.2 C 8.18 g/m*3 15.2 C 0 km/h
1428 10-07-2009 21:41:24 15.1 C 8.26 g/m*3 15.1 C 0 km/h
1429 10-07-2009 21:53:23 15 C 8.46 g/m*3 15 C 0 km/h
1430 10-07-2009 22:05:23 14.8 C 8.49 g/m*3 14.8 C 0 km/h
1431 10-07-2009 22:18:24 14.8 C 8.61 g/m*3 14.8 C 0 km/h
1432 10-07-2009 22:30:24 14.8 C 8.61 g/m*3 14.8 C 0 km/h
1433 10-07-2009 22:42:24 14.6 C 8.63 g/m*3 14.6 C 0 km/h
1434 10-07-2009 22:54:24 14.7 C 8.69 g/m*3 14.7 C 0 km/h
1435 10-07-2009 23:06:24 14.8 C 8.74 g/m*3 14.8 C 0 km/h
1436 10-07-2009 23:18:24 14.3 C 8.48 g/m*3 14.3 C 0 km/h
1437 10-07-2009 23:30:24 14.2 C 8.55 g/m*3 14.2 C 0 km/h
1438 10-07-2009 23:42:24 14.3 C 8.6 g/m*3 14.3 C 0 km/h
1439 10-07-2009 23:54:25 14.3 C 8.48 g/m*3 14.3 C 0 km/h
1440 11-07-2009 00:06:25 14.2 C 8.43 g/m*3 14.2 C 0 km/h
1441 11-07-2009 00:18:25 14.1 C 8.25 g/m*3 14.1 C 0 km/h
1442 11-07-2009 00:30:25 14.2 C 8.3 g/m*3 14.2 C 0 km/h
1443 11-07-2009 00:42:25 14.2 C 8.3 g/m*3 14.2 C 0 km/h
1444 11-07-2009 00:54:25 14.1 C 8.25 g/m*3 14.1 C 0 km/h
1445 11-07-2009 01:06:25 14.1 C 8.25 g/m*3 14.1 C 0 km/h
1446 11-07-2009 01:18:25 14.1 C 8.25 g/m*3 14.1 C 0 km/h
1447 11-07-2009 01:30:25 14.2 C 8.43 g/m*3 14.2 C 0 km/h
1448 11-07-2009 01:42:25 14.1 C 8.13 g/m*3 14.1 C 0 km/h
1449 11-07-2009 01:54:25 14.1 C 8.25 g/m*3 14.1 C 0 km/h
1450 11-07-2009 02:06:25 14.1 C 8.5 g/m*3 14.1 C 0 km/h
Sensor: Nr:Datum:Temp:Abs-Feuchte:Windchill:Wind:
Aussen-T/F 1451 11-07-2009 02:18:25 14.1 C 8.62 g/m*3 14.1 C 0 km/h
1452 11-07-2009 02:30:25 14.1 C 8.5 g/m*3 14.1 C 0 km/h
1453 11-07-2009 02:42:25 14.1 C 8.37 g/m*3 14.1 C 0 km/h
1454 11-07-2009 02:54:25 14 C 8.32 g/m*3 14 C 0 km/h
1455 11-07-2009 03:06:25 14 C 8.32 g/m*3 14 C 0 km/h
1456 11-07-2009 03:18:25 14 C 8.32 g/m*3 14 C 0 km/h
1457 11-07-2009 03:30:25 13.9 C 8.51 g/m*3 13.9 C 0 km/h
1458 11-07-2009 03:42:25 13.8 C 8.58 g/m*3 13.8 C 0 km/h
1459 11-07-2009 03:54:25 13.7 C 8.64 g/m*3 13.7 C 0 km/h
1460 11-07-2009 04:06:26 13.8 C 8.7 g/m*3 13.8 C 0 km/h
1461 11-07-2009 04:18:26 13.9 C 8.51 g/m*3 13.9 C 0 km/h
1462 11-07-2009 04:30:26 13.9 C 8.39 g/m*3 13.9 C 0 km/h
1463 11-07-2009 04:42:26 13.9 C 8.63 g/m*3 13.9 C 0 km/h
1464 11-07-2009 04:54:26 13.8 C 8.34 g/m*3 13.8 C 0 km/h
1465 11-07-2009 05:06:26 13.8 C 8.22 g/m*3 13.8 C 0 km/h
1466 11-07-2009 05:18:26 13.7 C 8.29 g/m*3 13.7 C 0 km/h
1467 11-07-2009 05:30:26 13.6 C 8.47 g/m*3 13.6 C 0 km/h
1468 11-07-2009 05:42:26 13.5 C 8.42 g/m*3 13.5 C 0 km/h
1469 11-07-2009 05:54:26 13.6 C 8.12 g/m*3 13.6 C 0 km/h
1470 11-07-2009 06:06:26 13.8 C 8.22 g/m*3 13.8 C 0 km/h
1471 11-07-2009 06:18:26 13.8 C 8.34 g/m*3 13.8 C 0 km/h
1472 11-07-2009 06:30:26 13.7 C 8.29 g/m*3 13.7 C 0 km/h
1473 11-07-2009 06:42:26 13.7 C 8.41 g/m*3 13.7 C 0 km/h
1474 11-07-2009 06:54:26 13.8 C 8.46 g/m*3 13.8 C 0 km/h
1475 11-07-2009 07:06:26 14 C 8.44 g/m*3 14 C 0 km/h
Sensor: Nr:Datum:Temp:Abs-Feuchte:Windchill:Wind:
Aussen-T/F 1476 11-07-2009 07:18:26 14 C 8.44 g/m*3 14 C 0 km/h
1477 11-07-2009 07:30:26 14.1 C 8.5 g/m*3 14.1 C 0 km/h
1478 11-07-2009 07:42:26 14.2 C 8.43 g/m*3 14.2 C 0 km/h
1479 11-07-2009 07:54:26 14.5 C 8.58 g/m*3 14.5 C 0 km/h
1480 11-07-2009 08:06:27 14.8 C 8.49 g/m*3 14.8 C 0 km/h
1481 11-07-2009 08:18:27 15.2 C 8.31 g/m*3 15.2 C 0 km/h
1482 11-07-2009 08:30:23 15.5 C 8.2 g/m*3 15.5 C 0 km/h
1483 11-07-2009 08:42:23 15.7 C 8.03 g/m*3 15.7 C 0 km/h
1484 11-07-2009 08:54:23 16 C 7.77 g/m*3 16 C 0 km/h
1485 11-07-2009 09:06:23 16 C 7.63 g/m*3 16 C 0 km/h
1486 11-07-2009 09:18:23 16.1 C 7.81 g/m*3 16.1 C 0 km/h
1487 11-07-2009 09:30:22 16.4 C 7.82 g/m*3 16.4 C 0 km/h
1488 11-07-2009 09:42:22 16.5 C 7.72 g/m*3 16.5 C 0 km/h
1489 11-07-2009 09:54:23 16.9 C 7.77 g/m*3 16.9 C 0 km/h
1490 11-07-2009 10:06:22 17.4 C 7.85 g/m*3 17.4 C 0 km/h
1491 11-07-2009 10:18:22 17.6 C 7.8 g/m*3 17.6 C 0 km/h
1492 11-07-2009 10:30:22 18.2 C 7.77 g/m*3 18.2 C 0 km/h
1493 11-07-2009 10:42:22 17.9 C 7.94 g/m*3 17.9 C 0 km/h
1494 11-07-2009 10:54:22 18.7 C 7.84 g/m*3 18.7 C 0 km/h
1495 11-07-2009 11:06:22 19.1 C 7.7 g/m*3 19.1 C 0 km/h
1496 11-07-2009 11:18:21 19.8 C 8.03 g/m*3 19.8 C 0 km/h
1497 11-07-2009 11:30:22 18.9 C 7.61 g/m*3 18.9 C 0 km/h
1498 11-07-2009 11:42:22 18.6 C 7.96 g/m*3 18.6 C 0 km/h
1499 11-07-2009 11:54:21 19.6 C 7.77 g/m*3 19.6 C 0 km/h
1500 11-07-2009 12:06:21 19.4 C 7.51 g/m*3 19.4 C 0 km/h
Sensor: Nr:Datum:Temp:Abs-Feuchte:Windchill:Wind:
Aussen-T/F 1501 11-07-2009 12:18:22 19.8 C 8.2 g/m*3 19.8 C 0 km/h
1502 11-07-2009 12:30:21 20.7 C 7.56 g/m*3 20.7 C 0 km/h
1503 11-07-2009 12:42:21 20.8 C 7.42 g/m*3 20.8 C 0 km/h
1504 11-07-2009 12:54:21 20.1 C 7.47 g/m*3 20.1 C 0 km/h
1505 11-07-2009 13:06:02 21.8 C 7.87 g/m*3 21.8 C 0 km/h
1506 11-07-2009 13:18:02 20.4 C 7.25 g/m*3 20.4 C 0 km/h
1507 11-07-2009 13:30:02 21.6 C 7.59 g/m*3 21.6 C 0 km/h
1508 11-07-2009 13:42:02 20.3 C 7.56 g/m*3 20.3 C 0 km/h
1509 11-07-2009 13:54:01 20.3 C 7.91 g/m*3 20.3 C 0 km/h
1510 11-07-2009 14:06:01 20.7 C 7.38 g/m*3 20.7 C 0 km/h
1511 11-07-2009 14:18:01 20.3 C 7.39 g/m*3 20.3 C 0 km/h
1512 11-07-2009 14:30:01 20.4 C 7.43 g/m*3 20.4 C 0 km/h
1513 11-07-2009 14:42:01 20.4 C 7.25 g/m*3 20.4 C 0 km/h
1514 11-07-2009 14:54:00 20.4 C 7.43 g/m*3 20.4 C 0 km/h
1515 11-07-2009 15:06:01 20.2 C 7.52 g/m*3 20.2 C 0 km/h
1516 11-07-2009 15:18:01 19.7 C 7.47 g/m*3 19.7 C 0 km/h
1517 11-07-2009 15:30:01 20.3 C 7.56 g/m*3 20.3 C 0 km/h
1518 11-07-2009 15:42:00 20.8 C 7.42 g/m*3 20.8 C 0 km/h
1519 11-07-2009 15:54:01 21 C 7.14 g/m*3 21 C 0 km/h
1520 11-07-2009 16:06:00 20.6 C 7.52 g/m*3 20.6 C 0 km/h
1521 11-07-2009 16:18:00 21 C 7.51 g/m*3 21 C 0 km/h
1522 11-07-2009 16:30:00 21.3 C 7.27 g/m*3 21.3 C 0 km/h
1523 11-07-2009 16:42:59 20.8 C 7.42 g/m*3 20.8 C 0 km/h
1524 11-07-2009 16:54:00 21.4 C 7.5 g/m*3 21.4 C 0 km/h
1525 11-07-2009 17:06:59 21 C 7.33 g/m*3 21 C 0 km/h
Sensor: Nr:Datum:Temp:Abs-Feuchte:Windchill:Wind:
Aussen-T/F 1526 11-07-2009 17:18:59 20.8 C 7.6 g/m*3 20.8 C 0 km/h
1527 11-07-2009 17:30:59 20.4 C 7.43 g/m*3 20.4 C 0 km/h
1528 11-07-2009 17:41:59 20.1 C 7.3 g/m*3 20.1 C 0 km/h
1529 11-07-2009 17:54:59 20.4 C 7.43 g/m*3 20.4 C 0 km/h
1530 11-07-2009 18:06:59 20.3 C 7.56 g/m*3 20.3 C 0 km/h
1531 11-07-2009 18:18:58 21 C 7.51 g/m*3 21 C 0 km/h
1532 11-07-2009 18:30:59 21.4 C 7.5 g/m*3 21.4 C 0 km/h
1533 11-07-2009 18:42:59 21.1 C 7.37 g/m*3 21.1 C 0 km/h
1534 11-07-2009 18:54:58 22.7 C 7.48 g/m*3 22.7 C 0 km/h
1535 11-07-2009 19:06:58 22.1 C 7.22 g/m*3 22.1 C 0 km/h
1536 11-07-2009 19:18:59 21.3 C 7.64 g/m*3 21.3 C 0 km/h
1537 11-07-2009 19:30:58 21 C 7.51 g/m*3 21 C 0 km/h
1538 11-07-2009 19:42:58 21.1 C 7.74 g/m*3 21.1 C 0 km/h
1539 11-07-2009 19:54:58 20.4 C 7.78 g/m*3 20.4 C 0 km/h
1540 11-07-2009 20:06:57 20.2 C 7.69 g/m*3 20.2 C 0 km/h
1541 11-07-2009 20:18:58 20.3 C 7.91 g/m*3 20.3 C 0 km/h
1542 11-07-2009 20:30:57 20 C 7.95 g/m*3 20 C 0 km/h
1543 11-07-2009 20:42:57 20 C 7.95 g/m*3 20 C 0 km/h
1544 11-07-2009 20:54:57 19.6 C 8.1 g/m*3 19.6 C 0 km/h
1545 11-07-2009 21:06:57 19.3 C 8.13 g/m*3 19.3 C 0 km/h
1546 11-07-2009 21:18:57 19.1 C 8.2 g/m*3 19.1 C 0 km/h
1547 11-07-2009 21:30:57 18.8 C 8.21 g/m*3 18.8 C 0 km/h
1548 11-07-2009 21:42:57 18.7 C 8.33 g/m*3 18.7 C 0 km/h
1549 11-07-2009 21:54:56 18.6 C 8.44 g/m*3 18.6 C 0 km/h
1550 11-07-2009 22:07:21 18.3 C 8.29 g/m*3 18.3 C 0 km/h
Sensor: Nr:Datum:Temp:Abs-Feuchte:Windchill:Wind:
Aussen-T/F 1551 11-07-2009 22:19:21 18.1 C 8.34 g/m*3 18.1 C 0 km/h
1552 11-07-2009 22:31:21 18.3 C 8.44 g/m*3 18.3 C 0 km/h
1553 11-07-2009 22:43:21 18.3 C 8.29 g/m*3 18.3 C 0 km/h
1554 11-07-2009 22:55:21 18.1 C 8.65 g/m*3 18.1 C 0 km/h
1555 11-07-2009 23:07:22 17.8 C 8.8 g/m*3 17.8 C 0 km/h
1556 11-07-2009 23:19:22 17.7 C 8.6 g/m*3 17.7 C 0 km/h
1557 11-07-2009 23:31:22 17.7 C 8.6 g/m*3 17.7 C 0 km/h
1558 11-07-2009 23:43:22 17.6 C 8.7 g/m*3 17.6 C 0 km/h
1559 11-07-2009 23:55:22 17.5 C 8.65 g/m*3 17.5 C 0 km/h
1560 12-07-2009 00:07:22 17.2 C 8.79 g/m*3 17.2 C 0 km/h
1561 12-07-2009 00:19:22 17.2 C 8.79 g/m*3 17.2 C 0 km/h
1562 12-07-2009 00:31:22 17.2 C 8.79 g/m*3 17.2 C 0 km/h
1563 12-07-2009 00:43:22 17.1 C 8.88 g/m*3 17.1 C 0 km/h
1564 12-07-2009 00:55:22 16.8 C 9.01 g/m*3 16.8 C 0 km/h
1565 12-07-2009 01:07:22 16.4 C 8.93 g/m*3 16.4 C 0 km/h
1566 12-07-2009 01:19:22 16 C 8.99 g/m*3 16 C 0 km/h
1567 12-07-2009 01:31:22 15.8 C 9.02 g/m*3 15.8 C 0 km/h
1568 12-07-2009 01:43:22 15.9 C 9.21 g/m*3 15.9 C 0 km/h
1569 12-07-2009 01:55:22 16 C 9.26 g/m*3 16 C 0 km/h
1570 12-07-2009 02:07:22 15.8 C 9.42 g/m*3 15.8 C 0 km/h
1571 12-07-2009 02:19:22 15.6 C 9.31 g/m*3 15.6 C 0 km/h
1572 12-07-2009 02:31:22 15.2 C 9.35 g/m*3 15.2 C 0 km/h
1573 12-07-2009 02:43:23 15 C 9.36 g/m*3 15 C 0 km/h
1574 12-07-2009 02:55:23 14.7 C 9.44 g/m*3 14.7 C 0 km/h
1575 12-07-2009 03:07:23 14.5 C 9.45 g/m*3 14.5 C 0 km/h
Sensor: Nr:Datum:Temp:Abs-Feuchte:Windchill:Wind:
Aussen-T/F 1576 12-07-2009 03:19:23 14.3 C 9.34 g/m*3 14.3 C 0 km/h
1577 12-07-2009 03:31:23 14.2 C 9.28 g/m*3 14.2 C 0 km/h
1578 12-07-2009 03:43:23 14.2 C 9.4 g/m*3 14.2 C 0 km/h
1579 12-07-2009 03:55:23 14.4 C 9.52 g/m*3 14.4 C 0 km/h
1580 12-07-2009 04:07:23 14.3 C 9.46 g/m*3 14.3 C 0 km/h
1581 12-07-2009 04:19:23 14.4 C 9.52 g/m*3 14.4 C 0 km/h
1582 12-07-2009 04:31:23 14.7 C 9.69 g/m*3 14.7 C 0 km/h
1583 12-07-2009 04:43:23 14.6 C 9.64 g/m*3 14.6 C 0 km/h
1584 12-07-2009 04:55:23 14.6 C 9.51 g/m*3 14.6 C 0 km/h
1585 12-07-2009 05:07:23 14.6 C 9.51 g/m*3 14.6 C 0 km/h
1586 12-07-2009 05:19:23 14.6 C 9.64 g/m*3 14.6 C 0 km/h
1587 12-07-2009 05:31:23 14.7 C 9.69 g/m*3 14.7 C 0 km/h
1588 12-07-2009 05:43:23 14.7 C 9.57 g/m*3 14.7 C 0 km/h
1589 12-07-2009 05:55:23 14.5 C 9.45 g/m*3 14.5 C 0 km/h
1590 12-07-2009 06:07:23 14.6 C 9.64 g/m*3 14.6 C 0 km/h
1591 12-07-2009 06:19:24 14.6 C 9.64 g/m*3 14.6 C 0 km/h
1592 12-07-2009 06:31:24 14.6 C 9.64 g/m*3 14.6 C 0 km/h
1593 12-07-2009 06:43:24 14.8 C 9.63 g/m*3 14.8 C 0 km/h
1594 12-07-2009 06:55:24 14.8 C 9.63 g/m*3 14.8 C 0 km/h
1595 12-07-2009 07:07:24 14.8 C 9.5 g/m*3 14.8 C 0 km/h
1596 12-07-2009 07:19:24 15 C 9.36 g/m*3 15 C 0 km/h
1597 12-07-2009 07:31:24 15.1 C 9.42 g/m*3 15.1 C 0 km/h
1598 12-07-2009 07:43:24 15.1 C 9.42 g/m*3 15.1 C 0 km/h
1599 12-07-2009 07:55:24 15.2 C 9.61 g/m*3 15.2 C 0 km/h
1600 12-07-2009 08:07:24 15.4 C 9.72 g/m*3 15.4 C 0 km/h
Sensor: Nr:Datum:Temp:Abs-Feuchte:Windchill:Wind:
Aussen-T/F 1601 12-07-2009 08:19:24 15.5 C 9.91 g/m*3 15.5 C 0 km/h
1602 12-07-2009 08:31:24 15.6 C 10.37 g/m*3 15.6 C 0 km/h
1603 12-07-2009 08:43:24 15.9 C 10.56 g/m*3 15.9 C 0 km/h
1604 12-07-2009 08:55:24 16.3 C 10.68 g/m*3 16.3 C 0 km/h
1605 12-07-2009 09:07:24 16.4 C 10.75 g/m*3 16.4 C 0 km/h
1606 12-07-2009 09:19:24 16.4 C 10.89 g/m*3 16.4 C 0 km/h
1607 12-07-2009 09:31:03 16.6 C 11.02 g/m*3 16.6 C 0 km/h
1608 12-07-2009 09:43:03 17 C 11.29 g/m*3 17 C 0 km/h
1609 12-07-2009 09:55:06 16.8 C 11.15 g/m*3 16.8 C 0 km/h
1610 12-07-2009 10:07:03 17 C 11.43 g/m*3 17 C 0 km/h
1611 12-07-2009 10:19:02 16.9 C 11.51 g/m*3 16.9 C 0 km/h
1612 12-07-2009 10:31:03 17.4 C 11.71 g/m*3 17.4 C 0 km/h
1613 12-07-2009 10:43:03 17.5 C 11.63 g/m*3 17.5 C 0 km/h
1614 12-07-2009 10:55:02 17.8 C 11.84 g/m*3 17.8 C 0 km/h
1615 12-07-2009 11:07:02 18 C 11.67 g/m*3 18 C 0 km/h
1616 12-07-2009 11:19:02 18.3 C 11.88 g/m*3 18.3 C 0 km/h
1617 12-07-2009 11:31:02 18.7 C 11.85 g/m*3 18.7 C 0 km/h
1618 12-07-2009 11:43:02 18.7 C 11.69 g/m*3 18.7 C 0 km/h
1619 12-07-2009 11:55:01 18.9 C 11.99 g/m*3 18.9 C 0 km/h
1620 12-07-2009 12:07:01 18.7 C 11.85 g/m*3 18.7 C 0 km/h
1621 12-07-2009 12:19:02 18.9 C 12.31 g/m*3 18.9 C 0 km/h
1622 12-07-2009 12:31:01 19.3 C 12.27 g/m*3 19.3 C 0 km/h
1623 12-07-2009 12:43:01 19.5 C 11.75 g/m*3 19.5 C 0 km/h
1624 12-07-2009 12:55:01 20 C 11.58 g/m*3 20 C 0 km/h
1625 12-07-2009 13:07:01 21.2 C 11.3 g/m*3 21.2 C 0 km/h
Sensor: Nr:Datum:Temp:Abs-Feuchte:Windchill:Wind:
Aussen-T/F 1626 12-07-2009 13:19:01 22.2 C 10.99 g/m*3 22.2 C 0 km/h
1627 12-07-2009 13:31:01 24.5 C 10.07 g/m*3 24.5 C 0 km/h
1628 12-07-2009 13:43:01 23.9 C 10.38 g/m*3 23.9 C 0 km/h
1629 12-07-2009 13:55:01 22.9 C 10.01 g/m*3 22.9 C 0 km/h
1630 12-07-2009 14:07:01 23.3 C 10.25 g/m*3 23.3 C 0 km/h
1631 12-07-2009 14:19:00 24.1 C 10.28 g/m*3 24.1 C 0 km/h
1632 12-07-2009 14:31:00 25.6 C 10 g/m*3 25.6 C 0 km/h
1633 12-07-2009 14:43:00 25.9 C 9.93 g/m*3 25.9 C 0 km/h
1634 12-07-2009 14:55:00 25.7 C 9.58 g/m*3 25.7 C 0 km/h
1635 12-07-2009 15:07:00 26.1 C 9.79 g/m*3 26.1 C 0 km/h
1636 12-07-2009 15:19:59 26.1 C 9.55 g/m*3 26.1 C 0 km/h
1637 12-07-2009 15:30:59 25.7 C 9.82 g/m*3 25.7 C 0 km/h
1638 12-07-2009 15:42:59 24.9 C 9.84 g/m*3 24.9 C 0 km/h
1639 12-07-2009 15:55:59 24.7 C 9.96 g/m*3 24.7 C 0 km/h
1640 12-07-2009 16:07:59 24 C 10.01 g/m*3 24 C 0 km/h
1641 12-07-2009 16:19:59 23.4 C 10.51 g/m*3 23.4 C 0 km/h
1642 12-07-2009 16:31:59 23.1 C 10.54 g/m*3 23.1 C 0 km/h
1643 12-07-2009 16:43:59 23.2 C 10.6 g/m*3 23.2 C 0 km/h
1644 12-07-2009 16:55:59 23.4 C 10.51 g/m*3 23.4 C 0 km/h
1645 12-07-2009 17:07:58 25.2 C 10.48 g/m*3 25.2 C 0 km/h
1646 12-07-2009 17:19:59 26.4 C 10.21 g/m*3 26.4 C 0 km/h
1647 12-07-2009 17:31:58 25.9 C 10.17 g/m*3 25.9 C 0 km/h
1648 12-07-2009 17:43:58 24.9 C 10.07 g/m*3 24.9 C 0 km/h
1649 12-07-2009 17:55:58 24.4 C 10.01 g/m*3 24.4 C 0 km/h
1650 12-07-2009 18:07:58 24.2 C 10.12 g/m*3 24.2 C 0 km/h
Sensor: Nr:Datum:Temp:Abs-Feuchte:Windchill:Wind:
Aussen-T/F 1651 12-07-2009 18:19:58 24.2 C 10.34 g/m*3 24.2 C 0 km/h
1652 12-07-2009 18:31:58 25.8 C 10.35 g/m*3 25.8 C 0 km/h
1653 12-07-2009 18:43:58 24.8 C 10.02 g/m*3 24.8 C 0 km/h
1654 12-07-2009 18:55:58 25.6 C 10 g/m*3 25.6 C 0 km/h
1655 12-07-2009 19:07:58 25.5 C 9.94 g/m*3 25.5 C 0 km/h
1656 12-07-2009 19:19:57 25 C 9.9 g/m*3 25 C 0 km/h
1657 12-07-2009 19:31:57 25 C 9.67 g/m*3 25 C 0 km/h
1658 12-07-2009 19:43:57 24.9 C 10.3 g/m*3 24.9 C 0 km/h
1659 12-07-2009 19:55:57 23.8 C 10.33 g/m*3 23.8 C 0 km/h
1660 12-07-2009 20:07:57 23.3 C 10.45 g/m*3 23.3 C 0 km/h
1661 12-07-2009 20:19:57 23.5 C 10.57 g/m*3 23.5 C 0 km/h
1662 12-07-2009 20:31:57 23.3 C 10.66 g/m*3 23.3 C 0 km/h
1663 12-07-2009 20:43:57 22.9 C 10.83 g/m*3 22.9 C 0 km/h
1664 12-07-2009 20:55:57 22.6 C 10.65 g/m*3 22.6 C 0 km/h
1665 12-07-2009 21:07:56 22.1 C 10.74 g/m*3 22.1 C 0 km/h
1666 12-07-2009 21:19:56 21.6 C 11 g/m*3 21.6 C 0 km/h
1667 12-07-2009 21:31:56 21.3 C 11 g/m*3 21.3 C 0 km/h
1668 12-07-2009 21:43:56 21.1 C 11.06 g/m*3 21.1 C 0 km/h
1669 12-07-2009 21:55:56 20.9 C 11.11 g/m*3 20.9 C 0 km/h
1670 12-07-2009 22:08:57 20.6 C 11.1 g/m*3 20.6 C 0 km/h
1671 12-07-2009 22:20:57 20.3 C 11.26 g/m*3 20.3 C 0 km/h
1672 12-07-2009 22:32:57 19.9 C 11.51 g/m*3 19.9 C 0 km/h
1673 12-07-2009 22:44:57 19.7 C 11.55 g/m*3 19.7 C 0 km/h
1674 12-07-2009 22:56:57 19.7 C 11.55 g/m*3 19.7 C 0 km/h
1675 12-07-2009 23:08:57 19.3 C 11.61 g/m*3 19.3 C 0 km/h
Sensor: Nr:Datum:Temp:Abs-Feuchte:Windchill:Wind:
Aussen-T/F 1676 12-07-2009 23:20:57 19.1 C 11.64 g/m*3 19.1 C 0 km/h
1677 12-07-2009 23:32:57 18.9 C 11.66 g/m*3 18.9 C 0 km/h
1678 12-07-2009 23:44:57 18.8 C 11.76 g/m*3 18.8 C 0 km/h
1679 12-07-2009 23:56:57 18.6 C 11.78 g/m*3 18.6 C 0 km/h
1680 13-07-2009 00:08:57 18.5 C 11.71 g/m*3 18.5 C 0 km/h
1681 13-07-2009 00:20:57 18.3 C 11.73 g/m*3 18.3 C 0 km/h
1682 13-07-2009 00:32:57 18.2 C 11.81 g/m*3 18.2 C 0 km/h
1683 13-07-2009 00:44:57 18.3 C 11.73 g/m*3 18.3 C 0 km/h
1684 13-07-2009 00:56:58 18.2 C 11.66 g/m*3 18.2 C 0 km/h
1685 13-07-2009 01:08:58 18 C 11.83 g/m*3 18 C 0 km/h
1686 13-07-2009 01:20:58 17.9 C 11.91 g/m*3 17.9 C 0 km/h
1687 13-07-2009 01:32:58 17.9 C 12.06 g/m*3 17.9 C 0 km/h
1688 13-07-2009 01:44:58 17.7 C 11.92 g/m*3 17.7 C 0 km/h
1689 13-07-2009 01:56:58 17.3 C 11.93 g/m*3 17.3 C 0 km/h
1690 13-07-2009 02:08:58 17.2 C 12.01 g/m*3 17.2 C 0 km/h
1691 13-07-2009 02:20:58 17.4 C 12.15 g/m*3 17.4 C 0 km/h
1692 13-07-2009 02:32:58 17.3 C 12.08 g/m*3 17.3 C 0 km/h
1693 13-07-2009 02:44:58 17.3 C 12.08 g/m*3 17.3 C 0 km/h
1694 13-07-2009 02:56:58 17.2 C 11.86 g/m*3 17.2 C 0 km/h
1695 13-07-2009 03:08:58 17.3 C 11.93 g/m*3 17.3 C 0 km/h
1696 13-07-2009 03:20:58 17.4 C 12 g/m*3 17.4 C 0 km/h
1697 13-07-2009 03:32:58 17.3 C 11.93 g/m*3 17.3 C 0 km/h
1698 13-07-2009 03:44:58 17.4 C 12 g/m*3 17.4 C 0 km/h
1699 13-07-2009 03:56:58 17.4 C 11.86 g/m*3 17.4 C 0 km/h
1700 13-07-2009 04:08:58 17.4 C 11.86 g/m*3 17.4 C 0 km/h
Sensor: Nr:Datum:Temp:Abs-Feuchte:Windchill:Wind:
Aussen-T/F 1701 13-07-2009 04:20:58 17.4 C 11.86 g/m*3 17.4 C 0 km/h
1702 13-07-2009 04:32:58 17.3 C 11.93 g/m*3 17.3 C 0 km/h
1703 13-07-2009 04:44:58 17.4 C 12.15 g/m*3 17.4 C 0 km/h
1704 13-07-2009 04:56:59 17.4 C 12.15 g/m*3 17.4 C 0 km/h
1705 13-07-2009 05:08:59 17.2 C 12.01 g/m*3 17.2 C 0 km/h
1706 13-07-2009 05:20:59 17 C 12.15 g/m*3 17 C 0 km/h
1707 13-07-2009 05:32:59 16.7 C 12.36 g/m*3 16.7 C 0 km/h
1708 13-07-2009 05:44:59 16.6 C 12.57 g/m*3 16.6 C 0 km/h
1709 13-07-2009 05:56:59 16.6 C 12.71 g/m*3 16.6 C 0 km/h
1710 13-07-2009 06:08:59 16.5 C 12.78 g/m*3 16.5 C 0 km/h
1711 13-07-2009 06:20:59 16.3 C 12.62 g/m*3 16.3 C 0 km/h
1712 13-07-2009 06:32:59 16.4 C 12.84 g/m*3 16.4 C 0 km/h
1713 13-07-2009 06:44:59 16.4 C 12.84 g/m*3 16.4 C 0 km/h
1714 13-07-2009 06:56:59 16.5 C 12.92 g/m*3 16.5 C 0 km/h
1715 13-07-2009 07:07:59 16.8 C 13.3 g/m*3 16.8 C 0 km/h
1716 13-07-2009 07:19:59 17.2 C 13.47 g/m*3 17.2 C 0 km/h
1717 13-07-2009 07:31:59 17.6 C 13.95 g/m*3 17.6 C 0 km/h
1718 13-07-2009 07:43:59 17.6 C 13.8 g/m*3 17.6 C 0 km/h
1719 13-07-2009 07:55:59 17.3 C 13.55 g/m*3 17.3 C 0 km/h
1720 13-07-2009 08:08:57 17.4 C 13.49 g/m*3 17.4 C 0 km/h
1721 13-07-2009 08:20:56 17.7 C 13.73 g/m*3 17.7 C 0 km/h
1722 13-07-2009 08:32:56 17.7 C 13.58 g/m*3 17.7 C 0 km/h
1723 13-07-2009 08:44:56 17.9 C 13.59 g/m*3 17.9 C 0 km/h
1724 13-07-2009 08:56:56 18.4 C 13.84 g/m*3 18.4 C 0 km/h
1725 13-07-2009 09:08:56 19.1 C 14.26 g/m*3 19.1 C 0 km/h
Sensor: Nr:Datum:Temp:Abs-Feuchte:Windchill:Wind:
Aussen-T/F 1726 13-07-2009 09:20:55 19 C 13.53 g/m*3 19 C 0 km/h
1727 13-07-2009 09:32:56 19.5 C 13.59 g/m*3 19.5 C 0 km/h
1728 13-07-2009 09:44:56 19.3 C 12.61 g/m*3 19.3 C 0 km/h
1729 13-07-2009 09:56:57 20.6 C 13.6 g/m*3 20.6 C 0 km/h
1730 13-07-2009 10:08:55 20.5 C 12.63 g/m*3 20.5 C 0 km/h
1731 13-07-2009 10:20:55 20.7 C 13.14 g/m*3 20.7 C 0 km/h
1732 13-07-2009 10:32:55 21.4 C 13.5 g/m*3 21.4 C 0 km/h
1733 13-07-2009 10:44:55 21.9 C 12.93 g/m*3 21.9 C 0 km/h
1734 13-07-2009 10:56:55 21.2 C 11.68 g/m*3 21.2 C 0 km/h
1735 13-07-2009 11:08:55 21.2 C 10.93 g/m*3 21.2 C 0 km/h
1736 13-07-2009 11:20:54 21.9 C 10.23 g/m*3 21.9 C 0 km/h
1737 13-07-2009 11:32:55 22.5 C 9.39 g/m*3 22.5 C 0 km/h
1738 13-07-2009 11:44:54 23.2 C 8.73 g/m*3 23.2 C 0 km/h
1739 13-07-2009 11:56:54 24.3 C 8.19 g/m*3 24.3 C 0 km/h
1740 13-07-2009 12:08:54 24.1 C 8.31 g/m*3 24.1 C 0 km/h
1741 13-07-2009 12:20:54 24.3 C 7.97 g/m*3 24.3 C 0 km/h
1742 13-07-2009 12:32:54 24.9 C 7.55 g/m*3 24.9 C 0 km/h
1743 13-07-2009 12:44:54 26.1 C 7.59 g/m*3 26.1 C 0 km/h
1744 13-07-2009 12:56:54 26.7 C 7.34 g/m*3 26.7 C 0 km/h
1745 13-07-2009 13:08:54 27.7 C 7.22 g/m*3 27.7 C 0 km/h
1746 13-07-2009 13:20:54 27.7 C 6.69 g/m*3 27.7 C 0 km/h
1747 13-07-2009 13:32:53 29.5 C 6.79 g/m*3 29.5 C 0 km/h
1748 13-07-2009 13:44:53 28.2 C 7.15 g/m*3 28.2 C 0 km/h
1749 13-07-2009 13:56:53 26.7 C 6.58 g/m*3 26.7 C 0 km/h
1750 13-07-2009 14:08:53 27.9 C 6.76 g/m*3 27.9 C 0 km/h
Sensor: Nr:Datum:Temp:Abs-Feuchte:Windchill:Wind:
Aussen-T/F 1751 13-07-2009 14:20:53 27.8 C 6.99 g/m*3 27.8 C 0 km/h
1752 13-07-2009 14:32:53 27.8 C 6.99 g/m*3 27.8 C 0 km/h
1753 13-07-2009 14:44:53 28.4 C 7.23 g/m*3 28.4 C 0 km/h
1754 13-07-2009 14:56:53 28.1 C 6.84 g/m*3 28.1 C 0 km/h
1755 13-07-2009 15:08:53 28.3 C 6.91 g/m*3 28.3 C 0 km/h
1756 13-07-2009 15:20:52 28.4 C 7.23 g/m*3 28.4 C 0 km/h
1757 13-07-2009 15:32:52 29.2 C 7.55 g/m*3 29.2 C 0 km/h
1758 13-07-2009 15:44:52 29.3 C 7.3 g/m*3 29.3 C 0 km/h
1759 13-07-2009 15:56:52 29 C 8.62 g/m*3 29 C 0 km/h
1760 13-07-2009 16:08:52 29.6 C 7.42 g/m*3 29.6 C 0 km/h
1761 13-07-2009 16:20:51 29.5 C 9.15 g/m*3 29.5 C 0 km/h
1762 13-07-2009 16:32:02 30.1 C 9.15 g/m*3 30.1 C 0 km/h
1763 13-07-2009 16:44:02 30 C 6.67 g/m*3 30 C 0 km/h
1764 13-07-2009 16:56:01 29.8 C 9 g/m*3 29.8 C 0 km/h
1765 13-07-2009 17:08:02 29.1 C 9.24 g/m*3 29.1 C 0 km/h
1766 13-07-2009 17:20:01 28.9 C 10 g/m*3 28.9 C 0 km/h
1767 13-07-2009 17:32:01 28.2 C 9.9 g/m*3 28.2 C 0 km/h
1768 13-07-2009 17:44:01 29.3 C 9.63 g/m*3 29.3 C 0 km/h
1769 13-07-2009 17:56:01 29.3 C 9.93 g/m*3 29.3 C 0 km/h
1770 13-07-2009 18:08:01 28.3 C 10.23 g/m*3 28.3 C 0 km/h
1771 13-07-2009 18:20:00 27.3 C 10.47 g/m*3 27.3 C 0 km/h
1772 13-07-2009 18:32:01 26.4 C 10.95 g/m*3 26.4 C 0 km/h
1773 13-07-2009 18:44:01 25.6 C 11.43 g/m*3 25.6 C 0 km/h
1774 13-07-2009 18:56:01 25.2 C 11.64 g/m*3 25.2 C 0 km/h
1775 13-07-2009 19:08:00 24.7 C 11.77 g/m*3 24.7 C 0 km/h
Sensor: Nr:Datum:Temp:Abs-Feuchte:Windchill:Wind:
Aussen-T/F 1776 13-07-2009 19:20:00 24.3 C 11.06 g/m*3 24.3 C 0 km/h
1777 13-07-2009 19:32:01 23.7 C 13.05 g/m*3 23.7 C 0 km/h
1778 13-07-2009 19:44:01 21.7 C 13.73 g/m*3 21.7 C 0 km/h
1779 13-07-2009 19:56:00 21.6 C 13.85 g/m*3 21.6 C 0 km/h
1780 13-07-2009 20:08:59 21.6 C 13.66 g/m*3 21.6 C 0 km/h
1781 13-07-2009 20:20:00 21.7 C 13.73 g/m*3 21.7 C 0 km/h
1782 13-07-2009 20:32:00 21.9 C 13.7 g/m*3 21.9 C 0 km/h
1783 13-07-2009 20:44:00 21.8 C 13.62 g/m*3 21.8 C 0 km/h
1784 13-07-2009 20:56:59 21.9 C 13.31 g/m*3 21.9 C 0 km/h
1785 13-07-2009 21:08:59 22 C 13.2 g/m*3 22 C 0 km/h
1786 13-07-2009 21:20:59 22.3 C 12.83 g/m*3 22.3 C 0 km/h
1787 13-07-2009 21:32:59 22.4 C 12.91 g/m*3 22.4 C 0 km/h
1788 13-07-2009 21:44:59 22.2 C 12.76 g/m*3 22.2 C 0 km/h
1789 13-07-2009 21:56:59 22.2 C 12.96 g/m*3 22.2 C 0 km/h
1790 13-07-2009 22:09:01 21.4 C 13.5 g/m*3 21.4 C 0 km/h
1791 13-07-2009 22:21:01 20.6 C 13.78 g/m*3 20.6 C 0 km/h
1792 13-07-2009 22:33:01 20.2 C 14.16 g/m*3 20.2 C 0 km/h
1793 13-07-2009 22:45:01 20 C 14.34 g/m*3 20 C 0 km/h
1794 13-07-2009 22:57:01 19.7 C 14.26 g/m*3 19.7 C 0 km/h
1795 13-07-2009 23:09:01 19.7 C 14.26 g/m*3 19.7 C 0 km/h
1796 13-07-2009 23:21:02 20 C 14.52 g/m*3 20 C 0 km/h
1797 13-07-2009 23:33:02 20 C 14.34 g/m*3 20 C 0 km/h
1798 13-07-2009 23:45:02 19.9 C 14.43 g/m*3 19.9 C 0 km/h
1799 13-07-2009 23:57:02 19.6 C 14.18 g/m*3 19.6 C 0 km/h
1800 14-07-2009 00:09:02 19.7 C 14.09 g/m*3 19.7 C 0 km/h
Sensor: Nr:Datum:Temp:Abs-Feuchte:Windchill:Wind:
Aussen-T/F 1801 14-07-2009 00:21:02 19.7 C 13.92 g/m*3 19.7 C 0 km/h
1802 14-07-2009 00:33:02 19.4 C 13.85 g/m*3 19.4 C 0 km/h
1803 14-07-2009 00:45:02 19.2 C 13.85 g/m*3 19.2 C 0 km/h
1804 14-07-2009 00:57:02 19 C 13.85 g/m*3 19 C 0 km/h
1805 14-07-2009 01:09:02 18.9 C 14.09 g/m*3 18.9 C 0 km/h
1806 14-07-2009 01:21:02 18.9 C 14.26 g/m*3 18.9 C 0 km/h
1807 14-07-2009 01:33:02 18.8 C 14.33 g/m*3 18.8 C 0 km/h
1808 14-07-2009 01:45:02 18.7 C 14.25 g/m*3 18.7 C 0 km/h
1809 14-07-2009 01:57:02 18.7 C 14.41 g/m*3 18.7 C 0 km/h
1810 14-07-2009 02:09:02 18.7 C 14.41 g/m*3 18.7 C 0 km/h
1811 14-07-2009 02:21:02 18.6 C 14.48 g/m*3 18.6 C 0 km/h
1812 14-07-2009 02:33:02 18.9 C 14.74 g/m*3 18.9 C 0 km/h
1813 14-07-2009 02:45:02 18.8 C 14.66 g/m*3 18.8 C 0 km/h
1814 14-07-2009 02:57:02 18.7 C 14.57 g/m*3 18.7 C 0 km/h
1815 14-07-2009 03:09:02 18.7 C 14.57 g/m*3 18.7 C 0 km/h
1816 14-07-2009 03:32:03 18.7 C 14.57 g/m*3 18.7 C 0 km/h
1817 14-07-2009 03:44:03 18.9 C 14.9 g/m*3 18.9 C 0 km/h
1818 14-07-2009 03:56:03 18.9 C 14.9 g/m*3 18.9 C 0 km/h
1819 14-07-2009 04:08:03 18.8 C 14.82 g/m*3 18.8 C 0 km/h
1820 14-07-2009 04:20:03 18.6 C 14.48 g/m*3 18.6 C 0 km/h
1821 14-07-2009 04:32:03 18.7 C 14.73 g/m*3 18.7 C 0 km/h
1822 14-07-2009 04:44:03 18.8 C 14.82 g/m*3 18.8 C 0 km/h
1823 14-07-2009 04:56:03 18.7 C 14.73 g/m*3 18.7 C 0 km/h
1824 14-07-2009 05:08:03 18.7 C 14.73 g/m*3 18.7 C 0 km/h
1825 14-07-2009 05:20:03 18.8 C 14.66 g/m*3 18.8 C 0 km/h
Sensor: Nr:Datum:Temp:Abs-Feuchte:Windchill:Wind:
Aussen-T/F 1826 14-07-2009 05:32:03 18.7 C 14.57 g/m*3 18.7 C 0 km/h
1827 14-07-2009 05:44:03 18.7 C 14.57 g/m*3 18.7 C 0 km/h
1828 14-07-2009 05:56:03 18.7 C 14.57 g/m*3 18.7 C 0 km/h
1829 14-07-2009 06:08:03 18.7 C 14.73 g/m*3 18.7 C 0 km/h
1830 14-07-2009 06:20:03 18.6 C 14.48 g/m*3 18.6 C 0 km/h
1831 14-07-2009 06:32:03 18.6 C 14.64 g/m*3 18.6 C 0 km/h
1832 14-07-2009 06:44:03 18.6 C 14.64 g/m*3 18.6 C 0 km/h
1833 14-07-2009 06:56:03 18.6 C 14.64 g/m*3 18.6 C 0 km/h
1834 14-07-2009 07:08:03 18.9 C 14.9 g/m*3 18.9 C 0 km/h
1835 14-07-2009 07:20:04 19.1 C 14.92 g/m*3 19.1 C 0 km/h
1836 14-07-2009 07:32:04 19.1 C 14.92 g/m*3 19.1 C 0 km/h
1837 14-07-2009 07:44:04 19.2 C 15.01 g/m*3 19.2 C 0 km/h
1838 14-07-2009 07:45:01 19.1 C 14.75 g/m*3 19.1 C 0 km/h
1839 14-07-2009 07:57:01 19.1 C 14.75 g/m*3 19.1 C 0 km/h
1840 14-07-2009 08:09:02 19.2 C 14.84 g/m*3 19.2 C 0 km/h
1841 14-07-2009 08:21:01 19.5 C 14.94 g/m*3 19.5 C 0 km/h
1842 14-07-2009 08:33:01 19.6 C 14.86 g/m*3 19.6 C 0 km/h
1843 14-07-2009 08:45:01 20 C 15.04 g/m*3 20 C 0 km/h
1844 14-07-2009 08:57:01 20.3 C 14.95 g/m*3 20.3 C 0 km/h
1845 14-07-2009 09:09:01 20.6 C 14.86 g/m*3 20.6 C 0 km/h
1846 14-07-2009 09:21:02 21 C 14.84 g/m*3 21 C 0 km/h
1847 14-07-2009 09:33:01 21.5 C 14.71 g/m*3 21.5 C 0 km/h
1848 14-07-2009 09:45:02 21.6 C 14.03 g/m*3 21.6 C 0 km/h
1849 14-07-2009 09:57:02 21.9 C 14.28 g/m*3 21.9 C 0 km/h
1850 14-07-2009 10:09:01 22 C 13.78 g/m*3 22 C 0 km/h
Sensor: Nr:Datum:Temp:Abs-Feuchte:Windchill:Wind:
Aussen-T/F 1851 14-07-2009 10:21:01 21.3 C 13.79 g/m*3 21.3 C 0 km/h
1852 14-07-2009 10:33:01 21.1 C 14.19 g/m*3 21.1 C 0 km/h
1853 14-07-2009 10:45:01 21.6 C 14.41 g/m*3 21.6 C 0 km/h
1854 14-07-2009 10:57:01 22 C 13.39 g/m*3 22 C 0 km/h
1855 14-07-2009 11:09:01 23.1 C 13.64 g/m*3 23.1 C 0 km/h
1856 14-07-2009 11:21:01 22.9 C 13.08 g/m*3 22.9 C 0 km/h
1857 14-07-2009 11:33:02 23.4 C 13.46 g/m*3 23.4 C 0 km/h
1858 14-07-2009 11:45:01 23.4 C 12.62 g/m*3 23.4 C 0 km/h
1859 14-07-2009 11:57:01 24.3 C 12.83 g/m*3 24.3 C 0 km/h
1860 14-07-2009 12:09:02 24.3 C 11.51 g/m*3 24.3 C 0 km/h
1861 14-07-2009 12:21:01 25.2 C 11.87 g/m*3 25.2 C 0 km/h
1862 14-07-2009 12:33:01 26.3 C 11.14 g/m*3 26.3 C 0 km/h
1863 14-07-2009 12:45:01 26.7 C 11.64 g/m*3 26.7 C 0 km/h
1864 14-07-2009 12:57:01 27.9 C 10.82 g/m*3 27.9 C 0 km/h
1865 14-07-2009 13:09:01 27.4 C 10.79 g/m*3 27.4 C 0 km/h
1866 14-07-2009 13:21:02 27.4 C 10.52 g/m*3 27.4 C 0 km/h
1867 14-07-2009 13:33:01 28.7 C 10.46 g/m*3 28.7 C 0 km/h
1868 14-07-2009 13:45:02 27.3 C 9.94 g/m*3 27.3 C 0 km/h
1869 14-07-2009 13:57:02 28 C 9.79 g/m*3 28 C 0 km/h
1870 14-07-2009 14:09:01 28.1 C 9.57 g/m*3 28.1 C 0 km/h
1871 14-07-2009 14:21:02 27.9 C 10.28 g/m*3 27.9 C 0 km/h
1872 14-07-2009 14:33:01 27.6 C 10.38 g/m*3 27.6 C 0 km/h
1873 14-07-2009 14:45:01 27.2 C 10.15 g/m*3 27.2 C 0 km/h
1874 14-07-2009 14:57:02 26.9 C 10.49 g/m*3 26.9 C 0 km/h
1875 14-07-2009 15:09:01 27.4 C 10.79 g/m*3 27.4 C 0 km/h
Sensor: Nr:Datum:Temp:Abs-Feuchte:Windchill:Wind:
Aussen-T/F 1876 14-07-2009 15:21:01 28.1 C 9.84 g/m*3 28.1 C 0 km/h
1877 14-07-2009 15:33:02 28.3 C 10.23 g/m*3 28.3 C 0 km/h
1878 14-07-2009 15:45:01 28.6 C 10.12 g/m*3 28.6 C 0 km/h
1879 14-07-2009 15:57:01 29.4 C 9.98 g/m*3 29.4 C 0 km/h
1880 14-07-2009 16:09:02 29.1 C 9.82 g/m*3 29.1 C 0 km/h
1881 14-07-2009 16:21:01 28.5 C 9.78 g/m*3 28.5 C 0 km/h
1882 14-07-2009 16:33:01 29 C 9.48 g/m*3 29 C 0 km/h
1883 14-07-2009 16:45:01 29.5 C 10.03 g/m*3 29.5 C 0 km/h
1884 14-07-2009 16:57:01 29 C 9.77 g/m*3 29 C 0 km/h
1885 14-07-2009 17:09:01 28.7 C 10.17 g/m*3 28.7 C 0 km/h
1886 14-07-2009 17:21:02 28.5 C 10.06 g/m*3 28.5 C 0 km/h
1887 14-07-2009 17:33:01 29.9 C 9.65 g/m*3 29.9 C 0 km/h
1888 14-07-2009 17:45:02 28.6 C 10.12 g/m*3 28.6 C 0 km/h
1889 14-07-2009 17:57:02 27.8 C 10.22 g/m*3 27.8 C 0 km/h
1890 14-07-2009 18:09:01 27.6 C 10.11 g/m*3 27.6 C 0 km/h
1891 14-07-2009 18:21:02 28.8 C 9.94 g/m*3 28.8 C 0 km/h
1892 14-07-2009 18:33:01 30.1 C 9.76 g/m*3 30.1 C 0 km/h
1893 14-07-2009 18:45:01 30.3 C 9.86 g/m*3 30.3 C 0 km/h
1894 14-07-2009 18:57:02 29.3 C 9.34 g/m*3 29.3 C 0 km/h
1895 14-07-2009 19:09:01 28.4 C 10.01 g/m*3 28.4 C 0 km/h
1896 14-07-2009 19:21:01 28.2 C 10.45 g/m*3 28.2 C 0 km/h
1897 14-07-2009 19:33:02 30.1 C 9.76 g/m*3 30.1 C 0 km/h
1898 14-07-2009 19:45:01 30.3 C 9.86 g/m*3 30.3 C 0 km/h
1899 14-07-2009 19:57:01 30 C 9.7 g/m*3 30 C 0 km/h
1900 14-07-2009 20:09:02 28.7 C 10.17 g/m*3 28.7 C 0 km/h
Sensor: Nr:Datum:Temp:Abs-Feuchte:Windchill:Wind:
Aussen-T/F 1901 14-07-2009 20:21:01 29.4 C 10.27 g/m*3 29.4 C 0 km/h
1902 14-07-2009 20:33:01 29.2 C 10.16 g/m*3 29.2 C 0 km/h
1903 14-07-2009 20:45:01 28.2 C 10.72 g/m*3 28.2 C 0 km/h
1904 14-07-2009 20:57:01 27.7 C 11.23 g/m*3 27.7 C 0 km/h
1905 14-07-2009 21:09:01 26.7 C 11.39 g/m*3 26.7 C 0 km/h
1906 14-07-2009 21:21:01 25.8 C 11.8 g/m*3 25.8 C 0 km/h
1907 14-07-2009 21:33:02 24.8 C 11.84 g/m*3 24.8 C 0 km/h
1908 14-07-2009 21:45:01 24.1 C 11.82 g/m*3 24.1 C 0 km/h
1909 14-07-2009 21:57:01 23.4 C 11.99 g/m*3 23.4 C 0 km/h
1910 14-07-2009 22:10:53 22.9 C 12.26 g/m*3 22.9 C 0 km/h
1911 14-07-2009 22:22:53 22.7 C 12.53 g/m*3 22.7 C 0 km/h
1912 14-07-2009 22:34:53 22.7 C 12.53 g/m*3 22.7 C 0 km/h
1913 14-07-2009 22:46:53 22.6 C 12.66 g/m*3 22.6 C 0 km/h
1914 14-07-2009 22:58:53 22.5 C 12.98 g/m*3 22.5 C 0 km/h
1915 14-07-2009 23:10:53 22.4 C 12.91 g/m*3 22.4 C 0 km/h
1916 14-07-2009 23:22:53 22.2 C 12.96 g/m*3 22.2 C 0 km/h
1917 14-07-2009 23:34:53 22 C 13 g/m*3 22 C 0 km/h
1918 14-07-2009 23:46:53 22.2 C 12.96 g/m*3 22.2 C 0 km/h
1919 14-07-2009 23:58:53 22.4 C 12.91 g/m*3 22.4 C 0 km/h
1920 15-07-2009 00:10:53 22.9 C 13.08 g/m*3 22.9 C 0 km/h
1921 15-07-2009 00:22:53 22.7 C 12.73 g/m*3 22.7 C 0 km/h
1922 15-07-2009 00:34:54 22.3 C 12.44 g/m*3 22.3 C 0 km/h
1923 15-07-2009 00:46:54 22.1 C 12.3 g/m*3 22.1 C 0 km/h
1924 15-07-2009 00:58:54 22 C 12.42 g/m*3 22 C 0 km/h
1925 15-07-2009 01:10:54 21.8 C 12.66 g/m*3 21.8 C 0 km/h
Sensor: Nr:Datum:Temp:Abs-Feuchte:Windchill:Wind:
Aussen-T/F 1926 15-07-2009 01:22:54 21.7 C 12.78 g/m*3 21.7 C 0 km/h
1927 15-07-2009 01:34:54 21.5 C 12.82 g/m*3 21.5 C 0 km/h
1928 15-07-2009 01:46:54 21.4 C 12.75 g/m*3 21.4 C 0 km/h
1929 15-07-2009 01:58:54 21.2 C 12.79 g/m*3 21.2 C 0 km/h
1930 15-07-2009 02:10:54 21.2 C 12.79 g/m*3 21.2 C 0 km/h
1931 15-07-2009 02:22:54 20.9 C 12.57 g/m*3 20.9 C 0 km/h
1932 15-07-2009 02:34:54 20.9 C 12.57 g/m*3 20.9 C 0 km/h
1933 15-07-2009 02:46:54 21.1 C 11.98 g/m*3 21.1 C 0 km/h
1934 15-07-2009 02:58:54 21 C 11.91 g/m*3 21 C 0 km/h
1935 15-07-2009 03:10:54 21 C 11.72 g/m*3 21 C 0 km/h
1936 15-07-2009 03:22:54 20.9 C 12.02 g/m*3 20.9 C 0 km/h
1937 15-07-2009 03:34:54 20.6 C 11.99 g/m*3 20.6 C 0 km/h
1938 15-07-2009 03:46:54 20.5 C 12.1 g/m*3 20.5 C 0 km/h
1939 15-07-2009 03:58:54 20.5 C 11.74 g/m*3 20.5 C 0 km/h
1940 15-07-2009 04:10:54 20.5 C 11.57 g/m*3 20.5 C 0 km/h
1941 15-07-2009 04:22:55 20.4 C 11.5 g/m*3 20.4 C 0 km/h
1942 15-07-2009 04:34:55 20.1 C 11.3 g/m*3 20.1 C 0 km/h
1943 15-07-2009 04:46:55 19.7 C 11.55 g/m*3 19.7 C 0 km/h
1944 15-07-2009 04:58:55 19.5 C 11.58 g/m*3 19.5 C 0 km/h
1945 15-07-2009 05:10:55 19.7 C 11.72 g/m*3 19.7 C 0 km/h
1946 15-07-2009 05:22:55 19.8 C 11.61 g/m*3 19.8 C 0 km/h
1947 15-07-2009 05:34:55 19.9 C 11.68 g/m*3 19.9 C 0 km/h
1948 15-07-2009 05:46:55 19.9 C 11.68 g/m*3 19.9 C 0 km/h
1949 15-07-2009 05:58:55 19.9 C 11.68 g/m*3 19.9 C 0 km/h
1950 15-07-2009 06:10:55 19.9 C 11.68 g/m*3 19.9 C 0 km/h
Sensor: Nr:Datum:Temp:Abs-Feuchte:Windchill:Wind:
Aussen-T/F 1951 15-07-2009 06:22:55 19.9 C 11.68 g/m*3 19.9 C 0 km/h
1952 15-07-2009 06:34:55 19.8 C 11.79 g/m*3 19.8 C 0 km/h
1953 15-07-2009 06:46:52 19.7 C 11.72 g/m*3 19.7 C 0 km/h
1954 15-07-2009 06:58:52 19.9 C 11.85 g/m*3 19.9 C 0 km/h
1955 15-07-2009 07:10:52 20 C 11.75 g/m*3 20 C 0 km/h
1956 15-07-2009 07:22:52 20.2 C 12.06 g/m*3 20.2 C 0 km/h
1957 15-07-2009 07:34:51 20.7 C 12.06 g/m*3 20.7 C 0 km/h
1958 15-07-2009 07:46:52 21 C 11.54 g/m*3 21 C 0 km/h
1959 15-07-2009 07:58:52 20.9 C 11.66 g/m*3 20.9 C 0 km/h
1960 15-07-2009 08:10:51 20.8 C 11.59 g/m*3 20.8 C 0 km/h
1961 15-07-2009 08:22:51 20.8 C 11.59 g/m*3 20.8 C 0 km/h
1962 15-07-2009 08:34:51 20.8 C 11.23 g/m*3 20.8 C 0 km/h
1963 15-07-2009 08:46:51 21 C 11.17 g/m*3 21 C 0 km/h
1964 15-07-2009 08:58:51 21.6 C 11.19 g/m*3 21.6 C 0 km/h
1965 15-07-2009 09:10:51 21.9 C 11.19 g/m*3 21.9 C 0 km/h
1966 15-07-2009 09:22:50 22 C 11.26 g/m*3 22 C 0 km/h
1967 15-07-2009 09:34:51 21.8 C 11.13 g/m*3 21.8 C 0 km/h
1968 15-07-2009 09:46:50 22.4 C 11.32 g/m*3 22.4 C 0 km/h
1969 15-07-2009 09:58:50 22.7 C 11.31 g/m*3 22.7 C 0 km/h
1970 15-07-2009 10:10:50 23.1 C 10.96 g/m*3 23.1 C 0 km/h
1971 15-07-2009 10:22:50 23.4 C 11.14 g/m*3 23.4 C 0 km/h
1972 15-07-2009 10:34:50 23.4 C 10.93 g/m*3 23.4 C 0 km/h
1973 15-07-2009 10:46:50 23.8 C 11.19 g/m*3 23.8 C 0 km/h
1974 15-07-2009 10:58:50 24.1 C 10.72 g/m*3 24.1 C 0 km/h
1975 15-07-2009 11:10:50 24.3 C 10.62 g/m*3 24.3 C 0 km/h
Sensor: Nr:Datum:Temp:Abs-Feuchte:Windchill:Wind:
Aussen-T/F 1976 15-07-2009 11:22:50 25 C 10.59 g/m*3 25 C 0 km/h
1977 15-07-2009 11:34:49 25 C 10.36 g/m*3 25 C 0 km/h
1978 15-07-2009 11:46:50 25.1 C 9.95 g/m*3 25.1 C 0 km/h
1979 15-07-2009 11:58:50 25.4 C 9.89 g/m*3 25.4 C 0 km/h
1980 15-07-2009 12:10:49 25.6 C 9.28 g/m*3 25.6 C 0 km/h
1981 15-07-2009 12:22:49 26 C 8.76 g/m*3 26 C 0 km/h
1982 15-07-2009 12:34:49 26.9 C 8.45 g/m*3 26.9 C 0 km/h
1983 15-07-2009 12:46:49 27.7 C 8.29 g/m*3 27.7 C 0 km/h
1984 15-07-2009 12:58:49 28 C 7.89 g/m*3 28 C 0 km/h
1985 15-07-2009 13:10:49 27.6 C 7.71 g/m*3 27.6 C 0 km/h
1986 15-07-2009 13:22:48 28.1 C 7.93 g/m*3 28.1 C 0 km/h
1987 15-07-2009 13:34:49 29 C 7.76 g/m*3 29 C 0 km/h
1988 15-07-2009 13:46:48 28.7 C 7.35 g/m*3 28.7 C 0 km/h
1989 15-07-2009 13:58:48 28.4 C 6.95 g/m*3 28.4 C 0 km/h
1990 15-07-2009 14:10:48 28.2 C 6.87 g/m*3 28.2 C 0 km/h
1991 15-07-2009 14:22:47 28 C 7.07 g/m*3 28 C 0 km/h
1992 15-07-2009 14:34:48 28.3 C 7.19 g/m*3 28.3 C 0 km/h
1993 15-07-2009 14:46:47 28.2 C 6.87 g/m*3 28.2 C 0 km/h
1994 15-07-2009 14:58:47 29.1 C 7.22 g/m*3 29.1 C 0 km/h
1995 15-07-2009 15:10:47 29.4 C 6.75 g/m*3 29.4 C 0 km/h
1996 15-07-2009 15:22:48 30.1 C 6.71 g/m*3 30.1 C 0 km/h
1997 15-07-2009 15:34:47 30.3 C 6.78 g/m*3 30.3 C 0 km/h
1998 15-07-2009 15:46:47 29.7 C 6.27 g/m*3 29.7 C 0 km/h
1999 15-07-2009 15:58:47 29.4 C 6.75 g/m*3 29.4 C 0 km/h
2000 15-07-2009 16:10:47 29.8 C 6.9 g/m*3 29.8 C 0 km/h
Sensor: Nr:Datum:Temp:Abs-Feuchte:Windchill:Wind:
Aussen-T/F 2001 15-07-2009 16:22:47 29.8 C 7.2 g/m*3 29.8 C 0 km/h
2002 15-07-2009 16:34:46 29.6 C 6.53 g/m*3 29.6 C 0 km/h
2003 15-07-2009 16:46:47 29.4 C 7.05 g/m*3 29.4 C 0 km/h
2004 15-07-2009 16:58:47 28.9 C 6.86 g/m*3 28.9 C 0 km/h
2005 15-07-2009 17:10:47 29.3 C 6.72 g/m*3 29.3 C 0 km/h
2006 15-07-2009 17:22:46 28.9 C 6.57 g/m*3 28.9 C 0 km/h
2007 15-07-2009 17:34:46 29.1 C 6.64 g/m*3 29.1 C 0 km/h
2008 15-07-2009 17:46:46 28.5 C 6.71 g/m*3 28.5 C 0 km/h
2009 15-07-2009 17:58:46 28.5 C 6.99 g/m*3 28.5 C 0 km/h
2010 15-07-2009 18:10:46 28 C 6.8 g/m*3 28 C 0 km/h
2011 15-07-2009 18:22:45 27.9 C 7.3 g/m*3 27.9 C 0 km/h
2012 15-07-2009 18:34:46 27.5 C 6.88 g/m*3 27.5 C 0 km/h
2013 15-07-2009 18:46:45 28.1 C 6.56 g/m*3 28.1 C 0 km/h
2014 15-07-2009 18:58:45 28.6 C 6.74 g/m*3 28.6 C 0 km/h
2015 15-07-2009 19:10:45 27.8 C 6.99 g/m*3 27.8 C 0 km/h
2016 15-07-2009 19:22:45 27.7 C 6.95 g/m*3 27.7 C 0 km/h
2017 15-07-2009 19:34:45 28.4 C 6.95 g/m*3 28.4 C 0 km/h
2018 15-07-2009 19:46:45 28.5 C 6.99 g/m*3 28.5 C 0 km/h
2019 15-07-2009 19:58:45 28.4 C 6.95 g/m*3 28.4 C 0 km/h
2020 15-07-2009 20:10:44 28.1 C 6.84 g/m*3 28.1 C 0 km/h
2021 15-07-2009 20:22:45 27.8 C 6.72 g/m*3 27.8 C 0 km/h
2022 15-07-2009 20:34:44 26.9 C 7.42 g/m*3 26.9 C 0 km/h
2023 15-07-2009 20:46:44 26.1 C 6.85 g/m*3 26.1 C 0 km/h
2024 15-07-2009 20:58:44 25.4 C 7.53 g/m*3 25.4 C 0 km/h
2025 15-07-2009 21:10:44 24.8 C 7.74 g/m*3 24.8 C 0 km/h
Sensor: Nr:Datum:Temp:Abs-Feuchte:Windchill:Wind:
Aussen-T/F 2026 15-07-2009 21:22:44 24.1 C 7.88 g/m*3 24.1 C 0 km/h
2027 15-07-2009 21:34:44 23.4 C 7.99 g/m*3 23.4 C 0 km/h
2028 15-07-2009 21:46:43 22.7 C 8.08 g/m*3 22.7 C 0 km/h
2029 15-07-2009 21:58:43 22.3 C 8.1 g/m*3 22.3 C 0 km/h
2030 15-07-2009 22:10:44 22 C 8.35 g/m*3 22 C 0 km/h
2031 15-07-2009 22:23:44 21.8 C 8.83 g/m*3 21.8 C 0 km/h
2032 15-07-2009 22:35:44 21.4 C 9.37 g/m*3 21.4 C 0 km/h
2033 15-07-2009 22:47:44 21.1 C 9.03 g/m*3 21.1 C 0 km/h
2034 15-07-2009 22:59:44 20.7 C 9 g/m*3 20.7 C 0 km/h
2035 15-07-2009 23:11:44 20.6 C 9.13 g/m*3 20.6 C 0 km/h
2036 15-07-2009 23:23:44 20.2 C 9.09 g/m*3 20.2 C 0 km/h
2037 15-07-2009 23:35:44 20 C 9.16 g/m*3 20 C 0 km/h
2038 15-07-2009 23:47:44 19.7 C 9.17 g/m*3 19.7 C 0 km/h
2039 15-07-2009 23:59:44 19.2 C 9.4 g/m*3 19.2 C 0 km/h
2040 16-07-2009 00:11:44 19.1 C 9.51 g/m*3 19.1 C 0 km/h
2041 16-07-2009 00:23:44 18.9 C 9.56 g/m*3 18.9 C 0 km/h
2042 16-07-2009 00:35:44 18.7 C 9.61 g/m*3 18.7 C 0 km/h
2043 16-07-2009 00:47:45 18.5 C 9.65 g/m*3 18.5 C 0 km/h
2044 16-07-2009 00:59:45 18.2 C 9.79 g/m*3 18.2 C 0 km/h
2045 16-07-2009 01:11:45 18 C 9.68 g/m*3 18 C 0 km/h
2046 16-07-2009 01:23:45 17.7 C 9.96 g/m*3 17.7 C 0 km/h
2047 16-07-2009 01:35:45 17.5 C 9.99 g/m*3 17.5 C 0 km/h
2048 16-07-2009 01:47:45 17.2 C 9.96 g/m*3 17.2 C 0 km/h
2049 16-07-2009 01:59:45 17.2 C 9.96 g/m*3 17.2 C 0 km/h
2050 16-07-2009 02:11:45 16.9 C 10.07 g/m*3 16.9 C 0 km/h
Sensor: Nr:Datum:Temp:Abs-Feuchte:Windchill:Wind:
Aussen-T/F 2051 16-07-2009 02:23:45 16.8 C 10.15 g/m*3 16.8 C 0 km/h
2052 16-07-2009 02:35:45 16.8 C 10.15 g/m*3 16.8 C 0 km/h
2053 16-07-2009 02:47:45 16.8 C 10.29 g/m*3 16.8 C 0 km/h
2054 16-07-2009 02:59:45 16.7 C 10.23 g/m*3 16.7 C 0 km/h
2055 16-07-2009 03:11:45 16.6 C 10.17 g/m*3 16.6 C 0 km/h
2056 16-07-2009 03:23:45 16.5 C 9.97 g/m*3 16.5 C 0 km/h
2057 16-07-2009 03:35:45 16.4 C 10.19 g/m*3 16.4 C 0 km/h
2058 16-07-2009 03:47:45 16.2 C 10.2 g/m*3 16.2 C 0 km/h
2059 16-07-2009 03:59:45 16.1 C 10.14 g/m*3 16.1 C 0 km/h
2060 16-07-2009 04:11:45 16 C 10.22 g/m*3 16 C 0 km/h
2061 16-07-2009 04:23:46 15.9 C 10.29 g/m*3 15.9 C 0 km/h
2062 16-07-2009 04:35:46 15.9 C 10.29 g/m*3 15.9 C 0 km/h
2063 16-07-2009 04:47:46 15.8 C 10.36 g/m*3 15.8 C 0 km/h
2064 16-07-2009 04:59:46 15.9 C 10.29 g/m*3 15.9 C 0 km/h
2065 16-07-2009 05:11:46 15.8 C 10.23 g/m*3 15.8 C 0 km/h
2066 16-07-2009 05:23:46 15.6 C 10.37 g/m*3 15.6 C 0 km/h
2067 16-07-2009 05:35:46 15.5 C 10.31 g/m*3 15.5 C 0 km/h
2068 16-07-2009 05:47:46 15.4 C 10.12 g/m*3 15.4 C 0 km/h
2069 16-07-2009 05:59:46 15.4 C 10.25 g/m*3 15.4 C 0 km/h
2070 16-07-2009 06:11:46 15.5 C 10.31 g/m*3 15.5 C 0 km/h
2071 16-07-2009 06:23:46 15.6 C 10.37 g/m*3 15.6 C 0 km/h
2072 16-07-2009 06:35:44 15.7 C 10.57 g/m*3 15.7 C 0 km/h
2073 16-07-2009 06:47:44 15.9 C 10.56 g/m*3 15.9 C 0 km/h
2074 16-07-2009 06:59:44 16.2 C 10.62 g/m*3 16.2 C 0 km/h
2075 16-07-2009 07:11:44 16.4 C 10.47 g/m*3 16.4 C 0 km/h
Sensor: Nr:Datum:Temp:Abs-Feuchte:Windchill:Wind:
Aussen-T/F 2076 16-07-2009 07:23:43 16.5 C 10.39 g/m*3 16.5 C 0 km/h
2077 16-07-2009 07:35:43 16.6 C 10.45 g/m*3 16.6 C 0 km/h
2078 16-07-2009 07:47:44 16.6 C 10.45 g/m*3 16.6 C 0 km/h
2079 16-07-2009 07:59:44 16.7 C 10.23 g/m*3 16.7 C 0 km/h
2080 16-07-2009 08:11:43 16.9 C 10.36 g/m*3 16.9 C 0 km/h
2081 16-07-2009 08:23:43 17.3 C 10.46 g/m*3 17.3 C 0 km/h
2082 16-07-2009 08:35:43 17.5 C 10.44 g/m*3 17.5 C 0 km/h
2083 16-07-2009 08:47:43 17.8 C 10.47 g/m*3 17.8 C 0 km/h
2084 16-07-2009 08:59:43 18.3 C 10.63 g/m*3 18.3 C 0 km/h
2085 16-07-2009 09:11:42 18.9 C 10.85 g/m*3 18.9 C 0 km/h
2086 16-07-2009 09:23:43 19.6 C 10.8 g/m*3 19.6 C 0 km/h
2087 16-07-2009 09:35:42 20.4 C 10.79 g/m*3 20.4 C 0 km/h
2088 16-07-2009 09:47:42 20.9 C 10.75 g/m*3 20.9 C 0 km/h
2089 16-07-2009 09:59:42 21.6 C 10.62 g/m*3 21.6 C 0 km/h
2090 16-07-2009 10:11:42 22.3 C 10.47 g/m*3 22.3 C 0 km/h
2091 16-07-2009 10:23:42 22.8 C 10.57 g/m*3 22.8 C 0 km/h
2092 16-07-2009 10:35:42 23.4 C 10.51 g/m*3 23.4 C 0 km/h
2093 16-07-2009 10:47:42 23.9 C 9.74 g/m*3 23.9 C 0 km/h
2094 16-07-2009 10:59:42 24 C 8.05 g/m*3 24 C 0 km/h
2095 16-07-2009 11:11:41 24.7 C 8.37 g/m*3 24.7 C 0 km/h
2096 16-07-2009 11:23:42 25 C 7.6 g/m*3 25 C 0 km/h
2097 16-07-2009 11:35:42 25.3 C 7.96 g/m*3 25.3 C 0 km/h
2098 16-07-2009 11:47:41 25.6 C 7.86 g/m*3 25.6 C 0 km/h
2099 16-07-2009 11:59:41 26.3 C 7.92 g/m*3 26.3 C 0 km/h
2100 16-07-2009 12:11:42 27.1 C 6.73 g/m*3 27.1 C 0 km/h
Sensor: Nr:Datum:Temp:Abs-Feuchte:Windchill:Wind:
Aussen-T/F 2101 16-07-2009 12:23:41 28.1 C 6.56 g/m*3 28.1 C 0 km/h
2102 16-07-2009 12:35:41 29.3 C 6.13 g/m*3 29.3 C 0 km/h
2103 16-07-2009 12:47:40 29.3 C 6.13 g/m*3 29.3 C 0 km/h
2104 16-07-2009 12:59:40 29.3 C 5.84 g/m*3 29.3 C 0 km/h
2105 16-07-2009 13:11:41 29.7 C 5.97 g/m*3 29.7 C 0 km/h
2106 16-07-2009 13:23:40 30.4 C 6.2 g/m*3 30.4 C 0 km/h
2107 16-07-2009 13:35:40 30.9 C 6.37 g/m*3 30.9 C 0 km/h
2108 16-07-2009 13:47:40 30.4 C 6.2 g/m*3 30.4 C 0 km/h
2109 16-07-2009 13:59:40 31.3 C 6.5 g/m*3 31.3 C 0 km/h
2110 16-07-2009 14:11:40 30.8 C 6.33 g/m*3 30.8 C 0 km/h
2111 16-07-2009 14:23:40 30.1 C 6.1 g/m*3 30.1 C 0 km/h
2112 16-07-2009 14:35:39 30.1 C 6.1 g/m*3 30.1 C 0 km/h
2113 16-07-2009 14:47:40 29.9 C 6.03 g/m*3 29.9 C 0 km/h
2114 16-07-2009 14:59:40 30.5 C 6.23 g/m*3 30.5 C 0 km/h
2115 16-07-2009 15:11:39 30.4 C 6.2 g/m*3 30.4 C 0 km/h
2116 16-07-2009 15:23:39 30.8 C 6.33 g/m*3 30.8 C 0 km/h
2117 16-07-2009 15:35:39 31.2 C 6.47 g/m*3 31.2 C 0 km/h
2118 16-07-2009 15:47:39 31.5 C 6.57 g/m*3 31.5 C 0 km/h
2119 16-07-2009 15:59:39 31.3 C 6.5 g/m*3 31.3 C 0 km/h
2120 16-07-2009 16:11:38 31.2 C 6.47 g/m*3 31.2 C 0 km/h
2121 16-07-2009 16:23:39 31.4 C 6.54 g/m*3 31.4 C 0 km/h
2122 16-07-2009 16:35:39 31.4 C 6.54 g/m*3 31.4 C 0 km/h
2123 16-07-2009 16:47:38 31.5 C 6.9 g/m*3 31.5 C 0 km/h
2124 16-07-2009 16:59:38 31 C 7.36 g/m*3 31 C 0 km/h
2125 16-07-2009 17:11:39 30.6 C 8.14 g/m*3 30.6 C 0 km/h
Sensor: Nr:Datum:Temp:Abs-Feuchte:Windchill:Wind:
Aussen-T/F 2126 16-07-2009 17:23:38 29.9 C 9.05 g/m*3 29.9 C 0 km/h
2127 16-07-2009 17:35:38 29.3 C 9.05 g/m*3 29.3 C 0 km/h
2128 16-07-2009 17:47:37 29.1 C 8.95 g/m*3 29.1 C 0 km/h
2129 16-07-2009 17:59:37 29.8 C 9 g/m*3 29.8 C 0 km/h
2130 16-07-2009 18:11:38 31 C 8.64 g/m*3 31 C 0 km/h
2131 16-07-2009 18:23:38 30.5 C 9.35 g/m*3 30.5 C 0 km/h
2132 16-07-2009 18:35:37 30.6 C 9.08 g/m*3 30.6 C 0 km/h
2133 16-07-2009 18:47:38 31.7 C 7.64 g/m*3 31.7 C 0 km/h
2134 16-07-2009 18:59:38 32.3 C 6.86 g/m*3 32.3 C 0 km/h
2135 16-07-2009 19:11:37 32.5 C 7.28 g/m*3 32.5 C 0 km/h
2136 16-07-2009 19:23:37 32.4 C 7.24 g/m*3 32.4 C 0 km/h
2137 16-07-2009 19:35:36 32.2 C 7.51 g/m*3 32.2 C 0 km/h
2138 16-07-2009 19:47:37 31.9 C 7.72 g/m*3 31.9 C 0 km/h
2139 16-07-2009 19:59:38 31.3 C 8.46 g/m*3 31.3 C 0 km/h
2140 16-07-2009 20:11:36 29.9 C 9.35 g/m*3 29.9 C 0 km/h
2141 16-07-2009 20:23:36 28.7 C 9.04 g/m*3 28.7 C 0 km/h
2142 16-07-2009 20:35:37 28 C 8.97 g/m*3 28 C 0 km/h
2143 16-07-2009 20:47:36 26.9 C 8.96 g/m*3 26.9 C 0 km/h
2144 16-07-2009 20:59:36 26.3 C 8.91 g/m*3 26.3 C 0 km/h
2145 16-07-2009 21:11:36 25.3 C 8.9 g/m*3 25.3 C 0 km/h
2146 16-07-2009 21:23:36 24.6 C 8.55 g/m*3 24.6 C 0 km/h
2147 16-07-2009 21:35:36 24.2 C 8.58 g/m*3 24.2 C 0 km/h
2148 16-07-2009 21:47:35 23.7 C 8.98 g/m*3 23.7 C 0 km/h
2149 16-07-2009 21:59:35 23.3 C 8.99 g/m*3 23.3 C 0 km/h
2150 16-07-2009 22:11:36 23 C 9.04 g/m*3 23 C 0 km/h
Sensor: Nr:Datum:Temp:Abs-Feuchte:Windchill:Wind:
Aussen-T/F 2151 16-07-2009 22:23:35 22.7 C 9.5 g/m*3 22.7 C 0 km/h
2152 16-07-2009 22:36:36 22.4 C 9.33 g/m*3 22.4 C 0 km/h
2153 16-07-2009 22:48:36 22.1 C 9.56 g/m*3 22.1 C 0 km/h
2154 16-07-2009 23:00:36 22 C 9.7 g/m*3 22 C 0 km/h
2155 16-07-2009 23:12:36 21.8 C 9.78 g/m*3 21.8 C 0 km/h
2156 16-07-2009 23:24:36 21.6 C 9.67 g/m*3 21.6 C 0 km/h
2157 16-07-2009 23:36:36 21.5 C 9.62 g/m*3 21.5 C 0 km/h
2158 16-07-2009 23:48:36 21.4 C 9.75 g/m*3 21.4 C 0 km/h
2159 17-07-2009 00:00:36 21.4 C 9.56 g/m*3 21.4 C 0 km/h
2160 17-07-2009 00:12:36 21.3 C 9.69 g/m*3 21.3 C 0 km/h
2161 17-07-2009 00:24:36 21.2 C 9.64 g/m*3 21.2 C 0 km/h
2162 17-07-2009 00:36:36 21.1 C 9.58 g/m*3 21.1 C 0 km/h
2163 17-07-2009 00:48:36 21.1 C 10.13 g/m*3 21.1 C 0 km/h
2164 17-07-2009 01:00:36 20.8 C 9.96 g/m*3 20.8 C 0 km/h
2165 17-07-2009 01:12:36 20.7 C 9.9 g/m*3 20.7 C 0 km/h
2166 17-07-2009 01:24:36 20.5 C 9.79 g/m*3 20.5 C 0 km/h
2167 17-07-2009 01:36:36 20.2 C 9.62 g/m*3 20.2 C 0 km/h
2168 17-07-2009 01:48:36 20.2 C 9.97 g/m*3 20.2 C 0 km/h
2169 17-07-2009 02:00:37 20.1 C 9.73 g/m*3 20.1 C 0 km/h
2170 17-07-2009 02:12:37 20 C 9.68 g/m*3 20 C 0 km/h
2171 17-07-2009 02:24:37 20 C 10.02 g/m*3 20 C 0 km/h
2172 17-07-2009 02:36:37 20 C 10.37 g/m*3 20 C 0 km/h
2173 17-07-2009 02:48:37 19.8 C 9.91 g/m*3 19.8 C 0 km/h
2174 17-07-2009 03:00:37 19.8 C 9.91 g/m*3 19.8 C 0 km/h
2175 17-07-2009 03:12:37 19.6 C 9.96 g/m*3 19.6 C 0 km/h
Sensor: Nr:Datum:Temp:Abs-Feuchte:Windchill:Wind:
Aussen-T/F 2176 17-07-2009 03:24:37 19.6 C 9.96 g/m*3 19.6 C 0 km/h
2177 17-07-2009 03:36:37 19.7 C 10.36 g/m*3 19.7 C 0 km/h
2178 17-07-2009 03:48:37 19.7 C 10.36 g/m*3 19.7 C 0 km/h
2179 17-07-2009 04:00:37 19.5 C 10.41 g/m*3 19.5 C 0 km/h
2180 17-07-2009 04:12:37 19.5 C 10.41 g/m*3 19.5 C 0 km/h
2181 17-07-2009 04:24:37 19.5 C 10.57 g/m*3 19.5 C 0 km/h
2182 17-07-2009 04:36:37 19.4 C 10.51 g/m*3 19.4 C 0 km/h
2183 17-07-2009 04:48:37 19.3 C 10.45 g/m*3 19.3 C 0 km/h
2184 17-07-2009 05:00:37 19 C 10.27 g/m*3 19 C 0 km/h
2185 17-07-2009 05:12:37 19.1 C 10.49 g/m*3 19.1 C 0 km/h
2186 17-07-2009 05:24:37 19.1 C 10.49 g/m*3 19.1 C 0 km/h
2187 17-07-2009 05:36:37 19.1 C 10.66 g/m*3 19.1 C 0 km/h
2188 17-07-2009 05:48:37 19.1 C 10.49 g/m*3 19.1 C 0 km/h
2189 17-07-2009 06:00:37 19.1 C 10.49 g/m*3 19.1 C 0 km/h
2190 17-07-2009 06:12:38 19.1 C 10.82 g/m*3 19.1 C 0 km/h
2191 17-07-2009 06:24:38 19 C 10.92 g/m*3 19 C 0 km/h
2192 17-07-2009 06:36:38 18.9 C 10.69 g/m*3 18.9 C 0 km/h
2193 17-07-2009 06:48:38 19.2 C 10.88 g/m*3 19.2 C 0 km/h
2194 17-07-2009 07:00:36 19.3 C 10.78 g/m*3 19.3 C 0 km/h
2195 17-07-2009 07:12:37 19.4 C 10.68 g/m*3 19.4 C 0 km/h
2196 17-07-2009 07:24:35 18.7 C 12.49 g/m*3 18.7 C 0 km/h
2197 17-07-2009 07:36:35 18.5 C 12.97 g/m*3 18.5 C 0 km/h
2198 17-07-2009 07:48:35 18.3 C 13.13 g/m*3 18.3 C 0 km/h
2199 17-07-2009 08:00:35 18.1 C 13.13 g/m*3 18.1 C 0 km/h
2200 17-07-2009 08:12:35 18 C 13.36 g/m*3 18 C 0 km/h
Sensor: Nr:Datum:Temp:Abs-Feuchte:Windchill:Wind:
Aussen-T/F 2201 17-07-2009 08:24:35 18.1 C 13.6 g/m*3 18.1 C 0 km/h
2202 17-07-2009 08:36:35 18.3 C 13.92 g/m*3 18.3 C 0 km/h
2203 17-07-2009 08:48:35 18.2 C 13.68 g/m*3 18.2 C 0 km/h
2204 17-07-2009 09:00:34 18.5 C 13.92 g/m*3 18.5 C 0 km/h
2205 17-07-2009 09:12:34 18.7 C 14.09 g/m*3 18.7 C 0 km/h
2206 17-07-2009 09:24:35 18.9 C 14.26 g/m*3 18.9 C 0 km/h
2207 17-07-2009 09:36:34 19.1 C 13.93 g/m*3 19.1 C 0 km/h
2208 17-07-2009 09:48:35 19.3 C 13.77 g/m*3 19.3 C 0 km/h
2209 17-07-2009 10:00:34 20 C 13.65 g/m*3 20 C 0 km/h
2210 17-07-2009 10:12:34 20.7 C 13.68 g/m*3 20.7 C 0 km/h
2211 17-07-2009 10:24:34 20.9 C 12.38 g/m*3 20.9 C 0 km/h
2212 17-07-2009 10:36:33 21.1 C 11.98 g/m*3 21.1 C 0 km/h
2213 17-07-2009 10:48:34 21 C 11.72 g/m*3 21 C 0 km/h
2214 17-07-2009 11:00:34 21.6 C 11.57 g/m*3 21.6 C 0 km/h
2215 17-07-2009 11:12:34 22.8 C 11.58 g/m*3 22.8 C 0 km/h
2216 17-07-2009 11:24:33 23 C 10.89 g/m*3 23 C 0 km/h
2217 17-07-2009 11:36:34 22.3 C 10.47 g/m*3 22.3 C 0 km/h
2218 17-07-2009 11:48:33 21.8 C 10.36 g/m*3 21.8 C 0 km/h
2219 17-07-2009 12:00:33 21.5 C 10.18 g/m*3 21.5 C 0 km/h
2220 17-07-2009 12:12:33 21.5 C 9.62 g/m*3 21.5 C 0 km/h
2221 17-07-2009 12:24:32 22.1 C 9.56 g/m*3 22.1 C 0 km/h
2222 17-07-2009 12:36:33 22.3 C 9.08 g/m*3 22.3 C 0 km/h
2223 17-07-2009 12:48:32 23 C 8.84 g/m*3 23 C 0 km/h
2224 17-07-2009 13:00:32 24.4 C 8.68 g/m*3 24.4 C 0 km/h
2225 17-07-2009 13:12:32 23.2 C 8.11 g/m*3 23.2 C 0 km/h
Sensor: Nr:Datum:Temp:Abs-Feuchte:Windchill:Wind:
Aussen-T/F 2226 17-07-2009 13:24:33 24.9 C 8.24 g/m*3 24.9 C 0 km/h
2227 17-07-2009 13:36:32 25.4 C 7.77 g/m*3 25.4 C 0 km/h
2228 17-07-2009 13:48:32 25.8 C 7.22 g/m*3 25.8 C 0 km/h
2229 17-07-2009 14:00:32 25.6 C 7.38 g/m*3 25.6 C 0 km/h
2230 17-07-2009 14:12:32 25.1 C 7.18 g/m*3 25.1 C 0 km/h
2231 17-07-2009 14:24:32 25.3 C 7.26 g/m*3 25.3 C 0 km/h
2232 17-07-2009 14:36:31 25.8 C 6.98 g/m*3 25.8 C 0 km/h
2233 17-07-2009 14:48:31 26 C 6.82 g/m*3 26 C 0 km/h
2234 17-07-2009 15:00:32 24.9 C 6.87 g/m*3 24.9 C 0 km/h
2235 17-07-2009 15:12:32 24.4 C 7.12 g/m*3 24.4 C 0 km/h
2236 17-07-2009 15:24:02 24.2 C 7.04 g/m*3 24.2 C 0 km/h
2237 17-07-2009 15:36:02 23.9 C 7.14 g/m*3 23.9 C 0 km/h
2238 17-07-2009 15:48:01 24.8 C 7.51 g/m*3 24.8 C 0 km/h
2239 17-07-2009 16:00:01 24.6 C 7.2 g/m*3 24.6 C 0 km/h
2240 17-07-2009 16:12:02 24.5 C 6.94 g/m*3 24.5 C 0 km/h
2241 17-07-2009 16:24:01 24.5 C 7.16 g/m*3 24.5 C 0 km/h
2242 17-07-2009 16:36:01 24.4 C 6.9 g/m*3 24.4 C 0 km/h
2243 17-07-2009 16:48:01 23.5 C 6.56 g/m*3 23.5 C 0 km/h
2244 17-07-2009 17:00:01 22.9 C 7.36 g/m*3 22.9 C 0 km/h
2245 17-07-2009 17:12:01 22.7 C 7.48 g/m*3 22.7 C 0 km/h
2246 17-07-2009 17:24:01 22.7 C 7.48 g/m*3 22.7 C 0 km/h
2247 17-07-2009 17:36:00 22.7 C 7.27 g/m*3 22.7 C 0 km/h
2248 17-07-2009 17:48:01 22.5 C 7.39 g/m*3 22.5 C 0 km/h
2249 17-07-2009 18:00:01 22.3 C 6.71 g/m*3 22.3 C 0 km/h
2250 17-07-2009 18:12:00 22.1 C 6.83 g/m*3 22.1 C 0 km/h
Sensor: Nr:Datum:Temp:Abs-Feuchte:Windchill:Wind:
Aussen-T/F 2251 17-07-2009 18:24:00 22 C 6.6 g/m*3 22 C 0 km/h
2252 17-07-2009 18:35:59 21.6 C 6.83 g/m*3 21.6 C 0 km/h
2253 17-07-2009 18:48:00 21.6 C 7.02 g/m*3 21.6 C 0 km/h
2254 17-07-2009 19:00:00 21.2 C 7.41 g/m*3 21.2 C 0 km/h
2255 17-07-2009 19:12:59 21.1 C 7.55 g/m*3 21.1 C 0 km/h
2256 17-07-2009 19:24:59 21.2 C 7.6 g/m*3 21.2 C 0 km/h
2257 17-07-2009 19:36:00 21.3 C 7.83 g/m*3 21.3 C 0 km/h
2258 17-07-2009 19:48:59 21 C 7.88 g/m*3 21 C 0 km/h
2259 17-07-2009 20:00:59 20.6 C 7.7 g/m*3 20.6 C 0 km/h
2260 17-07-2009 20:12:59 20.4 C 7.78 g/m*3 20.4 C 0 km/h
2261 17-07-2009 20:24:59 20.2 C 8.04 g/m*3 20.2 C 0 km/h
2262 17-07-2009 20:36:59 20 C 7.95 g/m*3 20 C 0 km/h
2263 17-07-2009 20:48:58 19.7 C 8.32 g/m*3 19.7 C 0 km/h
2264 17-07-2009 21:00:59 19.6 C 8.44 g/m*3 19.6 C 0 km/h
2265 17-07-2009 21:12:59 19.5 C 8.39 g/m*3 19.5 C 0 km/h
2266 17-07-2009 21:24:58 19.5 C 8.39 g/m*3 19.5 C 0 km/h
2267 17-07-2009 21:36:58 19.5 C 8.22 g/m*3 19.5 C 0 km/h
2268 17-07-2009 21:48:58 19.3 C 8.13 g/m*3 19.3 C 0 km/h
2269 17-07-2009 22:00:58 19.2 C 8.24 g/m*3 19.2 C 0 km/h
2270 17-07-2009 22:12:58 19 C 8.15 g/m*3 19 C 0 km/h
2271 17-07-2009 22:24:58 18.9 C 8.42 g/m*3 18.9 C 0 km/h
2272 17-07-2009 22:36:57 18.7 C 8.49 g/m*3 18.7 C 0 km/h
2273 17-07-2009 22:49:59 18.6 C 8.75 g/m*3 18.6 C 0 km/h
2274 17-07-2009 23:01:59 18.5 C 8.86 g/m*3 18.5 C 0 km/h
2275 17-07-2009 23:13:59 18.6 C 9.23 g/m*3 18.6 C 0 km/h
Sensor: Nr:Datum:Temp:Abs-Feuchte:Windchill:Wind:
Aussen-T/F 2276 17-07-2009 23:25:59 18.5 C 9.33 g/m*3 18.5 C 0 km/h
2277 17-07-2009 23:37:59 18.6 C 9.39 g/m*3 18.6 C 0 km/h
2278 17-07-2009 23:49:59 18.4 C 9.28 g/m*3 18.4 C 0 km/h
2279 18-07-2009 00:01:59 18.3 C 9.22 g/m*3 18.3 C 0 km/h
2280 18-07-2009 00:13:59 18.2 C 9.17 g/m*3 18.2 C 0 km/h
2281 18-07-2009 00:25:59 18.3 C 9.07 g/m*3 18.3 C 0 km/h
2282 18-07-2009 00:37:59 18.1 C 9.12 g/m*3 18.1 C 0 km/h
2283 18-07-2009 00:49:59 17.7 C 9.51 g/m*3 17.7 C 0 km/h
2284 18-07-2009 01:01:59 17 C 9.69 g/m*3 17 C 0 km/h
2285 18-07-2009 01:13:59 17 C 9.26 g/m*3 17 C 0 km/h
2286 18-07-2009 01:25:59 17.1 C 9.17 g/m*3 17.1 C 0 km/h
2287 18-07-2009 01:37:59 17.1 C 9.03 g/m*3 17.1 C 0 km/h
2288 18-07-2009 01:49:59 17 C 8.83 g/m*3 17 C 0 km/h
2289 18-07-2009 02:01:59 17 C 8.68 g/m*3 17 C 0 km/h
2290 18-07-2009 02:14:00 16.9 C 8.63 g/m*3 16.9 C 0 km/h
2291 18-07-2009 02:26:00 16.8 C 8.58 g/m*3 16.8 C 0 km/h
2292 18-07-2009 02:37:00 16.7 C 8.67 g/m*3 16.7 C 0 km/h
2293 18-07-2009 02:49:00 16.7 C 8.67 g/m*3 16.7 C 0 km/h
2294 18-07-2009 03:01:00 16.6 C 8.62 g/m*3 16.6 C 0 km/h
2295 18-07-2009 03:13:00 16.5 C 8.71 g/m*3 16.5 C 0 km/h
2296 18-07-2009 03:25:00 16.4 C 8.65 g/m*3 16.4 C 0 km/h
2297 18-07-2009 03:37:00 16.1 C 8.64 g/m*3 16.1 C 0 km/h
2298 18-07-2009 03:49:00 16 C 8.72 g/m*3 16 C 0 km/h
2299 18-07-2009 04:01:00 15.9 C 8.67 g/m*3 15.9 C 0 km/h
2300 18-07-2009 04:13:00 15.7 C 8.7 g/m*3 15.7 C 0 km/h
Sensor: Nr:Datum:Temp:Abs-Feuchte:Windchill:Wind:
Aussen-T/F 2301 18-07-2009 04:25:00 15.4 C 8.54 g/m*3 15.4 C 0 km/h
2302 18-07-2009 04:37:00 15.2 C 8.44 g/m*3 15.2 C 0 km/h
2303 18-07-2009 04:49:00 15 C 8.33 g/m*3 15 C 0 km/h
2304 18-07-2009 05:01:00 15 C 8.33 g/m*3 15 C 0 km/h
2305 18-07-2009 05:13:00 15 C 8.33 g/m*3 15 C 0 km/h
2306 18-07-2009 05:25:00 15 C 8.33 g/m*3 15 C 0 km/h
2307 18-07-2009 05:37:00 14.9 C 8.54 g/m*3 14.9 C 0 km/h
2308 18-07-2009 05:49:00 14.8 C 8.49 g/m*3 14.8 C 0 km/h
2309 18-07-2009 06:01:00 15.1 C 8.51 g/m*3 15.1 C 0 km/h
2310 18-07-2009 06:13:00 15.1 C 8.39 g/m*3 15.1 C 0 km/h
2311 18-07-2009 06:25:01 15.1 C 8.39 g/m*3 15.1 C 0 km/h
2312 18-07-2009 06:37:01 15.1 C 8.39 g/m*3 15.1 C 0 km/h
2313 18-07-2009 06:49:01 15 C 8.33 g/m*3 15 C 0 km/h
2314 18-07-2009 07:01:01 14.9 C 8.54 g/m*3 14.9 C 0 km/h
2315 18-07-2009 07:13:01 14.9 C 8.67 g/m*3 14.9 C 0 km/h
2316 18-07-2009 07:25:01 14.8 C 8.61 g/m*3 14.8 C 0 km/h
2317 18-07-2009 07:37:01 15 C 8.72 g/m*3 15 C 0 km/h
2318 18-07-2009 07:49:58 15.4 C 8.67 g/m*3 15.4 C 0 km/h
2319 18-07-2009 08:01:58 15.5 C 8.86 g/m*3 15.5 C 0 km/h
2320 18-07-2009 08:13:58 15.9 C 8.94 g/m*3 15.9 C 0 km/h
2321 18-07-2009 08:25:58 16 C 8.86 g/m*3 16 C 0 km/h
2322 18-07-2009 08:37:58 16.3 C 8.88 g/m*3 16.3 C 0 km/h
2323 18-07-2009 08:49:57 16.8 C 9.15 g/m*3 16.8 C 0 km/h
2324 18-07-2009 09:01:58 16.9 C 8.77 g/m*3 16.9 C 0 km/h
2325 18-07-2009 09:13:58 16.9 C 8.77 g/m*3 16.9 C 0 km/h
Sensor: Nr:Datum:Temp:Abs-Feuchte:Windchill:Wind:
Aussen-T/F 2326 18-07-2009 09:25:57 17.1 C 8.15 g/m*3 17.1 C 0 km/h
2327 18-07-2009 09:37:57 17.1 C 7.86 g/m*3 17.1 C 0 km/h
2328 18-07-2009 09:49:57 17 C 7.67 g/m*3 17 C 0 km/h
2329 18-07-2009 10:01:57 17.1 C 7.86 g/m*3 17.1 C 0 km/h
2330 18-07-2009 10:13:57 17.4 C 8.15 g/m*3 17.4 C 0 km/h
2331 18-07-2009 10:25:56 17.3 C 8.1 g/m*3 17.3 C 0 km/h
2332 18-07-2009 10:37:57 17.5 C 8.2 g/m*3 17.5 C 0 km/h
2333 18-07-2009 10:49:56 17.6 C 7.8 g/m*3 17.6 C 0 km/h
2334 18-07-2009 11:01:56 17.8 C 7.59 g/m*3 17.8 C 0 km/h
2335 18-07-2009 11:13:56 18 C 7.53 g/m*3 18 C 0 km/h
2336 18-07-2009 11:25:56 18.7 C 7.84 g/m*3 18.7 C 0 km/h
2337 18-07-2009 11:37:56 18.9 C 7.78 g/m*3 18.9 C 0 km/h
2338 18-07-2009 11:49:56 18.8 C 7.25 g/m*3 18.8 C 0 km/h
2339 18-07-2009 12:01:55 18.4 C 7.24 g/m*3 18.4 C 0 km/h
2340 18-07-2009 12:13:55 18.7 C 7.36 g/m*3 18.7 C 0 km/h
2341 18-07-2009 12:25:56 19.4 C 7.34 g/m*3 19.4 C 0 km/h
2342 18-07-2009 12:37:55 20.2 C 7.34 g/m*3 20.2 C 0 km/h
2343 18-07-2009 12:49:55 19.5 C 7.72 g/m*3 19.5 C 0 km/h
2344 18-07-2009 13:01:54 19 C 7.82 g/m*3 19 C 0 km/h
2345 18-07-2009 13:13:54 18.1 C 7.88 g/m*3 18.1 C 0 km/h
2346 18-07-2009 13:25:55 18.8 C 7.73 g/m*3 18.8 C 0 km/h
2347 18-07-2009 13:37:55 18.1 C 7.57 g/m*3 18.1 C 0 km/h
2348 18-07-2009 13:49:54 17.7 C 8.3 g/m*3 17.7 C 0 km/h
2349 18-07-2009 14:01:55 17.9 C 7.94 g/m*3 17.9 C 0 km/h
2350 18-07-2009 14:13:55 18.1 C 7.88 g/m*3 18.1 C 0 km/h
Sensor: Nr:Datum:Temp:Abs-Feuchte:Windchill:Wind:
Aussen-T/F 2351 18-07-2009 14:25:54 18.1 C 7.73 g/m*3 18.1 C 0 km/h
2352 18-07-2009 14:37:54 18.3 C 8.13 g/m*3 18.3 C 0 km/h
2353 18-07-2009 14:49:54 18.3 C 7.82 g/m*3 18.3 C 0 km/h
2354 18-07-2009 15:01:54 18.1 C 7.11 g/m*3 18.1 C 0 km/h
2355 18-07-2009 15:13:54 18.1 C 7.42 g/m*3 18.1 C 0 km/h
2356 18-07-2009 15:25:54 17.8 C 7.89 g/m*3 17.8 C 0 km/h
2357 18-07-2009 15:37:53 17.8 C 7.59 g/m*3 17.8 C 0 km/h
2358 18-07-2009 15:49:54 17.9 C 7.94 g/m*3 17.9 C 0 km/h
2359 18-07-2009 16:01:53 17.9 C 8.4 g/m*3 17.9 C 0 km/h
2360 18-07-2009 16:13:53 17.9 C 8.4 g/m*3 17.9 C 0 km/h
2361 18-07-2009 16:25:53 17.9 C 8.55 g/m*3 17.9 C 0 km/h
2362 18-07-2009 16:37:53 18.1 C 8.5 g/m*3 18.1 C 0 km/h
2363 18-07-2009 16:49:53 18.2 C 8.7 g/m*3 18.2 C 0 km/h
2364 18-07-2009 17:01:53 18.2 C 8.86 g/m*3 18.2 C 0 km/h
2365 18-07-2009 17:13:53 17.2 C 9.67 g/m*3 17.2 C 0 km/h
2366 18-07-2009 17:25:52 16.6 C 10.31 g/m*3 16.6 C 0 km/h
2367 18-07-2009 17:37:53 17.6 C 10.95 g/m*3 17.6 C 0 km/h
2368 18-07-2009 17:49:52 18.7 C 10.73 g/m*3 18.7 C 0 km/h
2369 18-07-2009 18:01:52 19.5 C 10.57 g/m*3 19.5 C 0 km/h
2370 18-07-2009 18:13:52 19.7 C 10.53 g/m*3 19.7 C 0 km/h
2371 18-07-2009 18:25:52 19.5 C 10.41 g/m*3 19.5 C 0 km/h
2372 18-07-2009 18:37:52 19.8 C 10.25 g/m*3 19.8 C 0 km/h
2373 18-07-2009 18:49:51 20.1 C 9.91 g/m*3 20.1 C 0 km/h
2374 18-07-2009 19:01:51 21.3 C 10.07 g/m*3 21.3 C 0 km/h
2375 18-07-2009 19:13:51 21.9 C 9.26 g/m*3 21.9 C 0 km/h
Sensor: Nr:Datum:Temp:Abs-Feuchte:Windchill:Wind:
Aussen-T/F 2376 18-07-2009 19:25:52 22 C 9.12 g/m*3 22 C 0 km/h
2377 18-07-2009 19:37:51 22.4 C 8.54 g/m*3 22.4 C 0 km/h
2378 18-07-2009 19:49:51 22.1 C 7.03 g/m*3 22.1 C 0 km/h
2379 18-07-2009 20:01:51 20.8 C 6.52 g/m*3 20.8 C 0 km/h
2380 18-07-2009 20:13:51 21.4 C 6.75 g/m*3 21.4 C 0 km/h
2381 18-07-2009 20:25:51 21.3 C 7.27 g/m*3 21.3 C 0 km/h
2382 18-07-2009 20:37:50 20.9 C 7.29 g/m*3 20.9 C 0 km/h
2383 18-07-2009 20:49:51 20 C 7.43 g/m*3 20 C 0 km/h
2384 18-07-2009 21:01:50 19.3 C 7.3 g/m*3 19.3 C 0 km/h
2385 18-07-2009 21:13:50 18.9 C 7.29 g/m*3 18.9 C 0 km/h
2386 18-07-2009 21:25:50 18.5 C 7.44 g/m*3 18.5 C 0 km/h
2387 18-07-2009 21:37:50 18.4 C 7.39 g/m*3 18.4 C 0 km/h
2388 18-07-2009 21:49:50 18.2 C 7.46 g/m*3 18.2 C 0 km/h
2389 18-07-2009 22:01:50 17.9 C 7.48 g/m*3 17.9 C 0 km/h
2390 18-07-2009 22:13:50 17.5 C 7.6 g/m*3 17.5 C 0 km/h
2391 18-07-2009 22:25:49 17.4 C 7.71 g/m*3 17.4 C 0 km/h
2392 18-07-2009 22:37:50 17.2 C 8.05 g/m*3 17.2 C 0 km/h
2393 18-07-2009 22:49:49 16.7 C 8.24 g/m*3 16.7 C 0 km/h
2394 18-07-2009 23:01:49 16.4 C 8.23 g/m*3 16.4 C 0 km/h
2395 18-07-2009 23:13:49 16.2 C 8.27 g/m*3 16.2 C 0 km/h
2396 18-07-2009 23:25:49 16.2 C 8.27 g/m*3 16.2 C 0 km/h
2397 18-07-2009 23:37:49 16.3 C 8.32 g/m*3 16.3 C 0 km/h
2398 18-07-2009 23:49:49 16.2 C 8.14 g/m*3 16.2 C 0 km/h
2399 19-07-2009 00:01:48 15.8 C 8.35 g/m*3 15.8 C 0 km/h
2400 19-07-2009 00:13:48 15.5 C 8.33 g/m*3 15.5 C 0 km/h
Sensor: Nr:Datum:Temp:Abs-Feuchte:Windchill:Wind:
Aussen-T/F 2401 19-07-2009 00:25:48 15.3 C 8.36 g/m*3 15.3 C 0 km/h
2402 19-07-2009 00:37:48 15.2 C 8.31 g/m*3 15.2 C 0 km/h
2403 19-07-2009 00:49:49 15 C 8.33 g/m*3 15 C 0 km/h
2404 19-07-2009 01:01:48 14.7 C 8.44 g/m*3 14.7 C 0 km/h
2405 19-07-2009 01:13:48 14.5 C 8.58 g/m*3 14.5 C 0 km/h
2406 19-07-2009 01:25:48 14.4 C 8.53 g/m*3 14.4 C 0 km/h
2407 19-07-2009 01:38:50 14.3 C 8.6 g/m*3 14.3 C 0 km/h
2408 19-07-2009 01:50:50 14.4 C 8.65 g/m*3 14.4 C 0 km/h
2409 19-07-2009 02:02:50 14.7 C 8.56 g/m*3 14.7 C 0 km/h
2410 19-07-2009 02:14:51 14.6 C 8.51 g/m*3 14.6 C 0 km/h
2411 19-07-2009 02:26:51 14.7 C 8.44 g/m*3 14.7 C 0 km/h
2412 19-07-2009 02:38:51 14.7 C 8.31 g/m*3 14.7 C 0 km/h
2413 19-07-2009 02:50:51 15 C 8.08 g/m*3 15 C 0 km/h
2414 19-07-2009 03:02:51 15.1 C 8 g/m*3 15.1 C 0 km/h
2415 19-07-2009 03:14:51 15 C 8.08 g/m*3 15 C 0 km/h
2416 19-07-2009 03:26:51 15 C 8.21 g/m*3 15 C 0 km/h
2417 19-07-2009 03:38:51 15 C 8.21 g/m*3 15 C 0 km/h
2418 19-07-2009 03:50:51 15 C 8.21 g/m*3 15 C 0 km/h
2419 19-07-2009 04:02:51 15.1 C 8.39 g/m*3 15.1 C 0 km/h
2420 19-07-2009 04:14:51 15.4 C 8.15 g/m*3 15.4 C 0 km/h
2421 19-07-2009 04:26:51 15 C 8.46 g/m*3 15 C 0 km/h
2422 19-07-2009 04:38:51 15 C 8.59 g/m*3 15 C 0 km/h
2423 19-07-2009 04:50:51 14.2 C 9.28 g/m*3 14.2 C 0 km/h
2424 19-07-2009 05:02:51 14.1 C 9.47 g/m*3 14.1 C 0 km/h
2425 19-07-2009 05:14:51 14.1 C 9.59 g/m*3 14.1 C 0 km/h
Sensor: Nr:Datum:Temp:Abs-Feuchte:Windchill:Wind:
Aussen-T/F 2426 19-07-2009 05:26:51 14.2 C 9.77 g/m*3 14.2 C 0 km/h
2427 19-07-2009 05:38:51 14.3 C 9.83 g/m*3 14.3 C 0 km/h
2428 19-07-2009 05:50:51 14.5 C 9.95 g/m*3 14.5 C 0 km/h
2429 19-07-2009 06:02:51 14.7 C 10.07 g/m*3 14.7 C 0 km/h
2430 19-07-2009 06:14:51 14.5 C 9.95 g/m*3 14.5 C 0 km/h
2431 19-07-2009 06:26:52 14.5 C 9.95 g/m*3 14.5 C 0 km/h
2432 19-07-2009 06:38:52 14.4 C 10.01 g/m*3 14.4 C 0 km/h
2433 19-07-2009 06:50:52 14.7 C 10.07 g/m*3 14.7 C 0 km/h
2434 19-07-2009 07:02:52 14.9 C 10.07 g/m*3 14.9 C 0 km/h
2435 19-07-2009 07:14:52 14.9 C 9.94 g/m*3 14.9 C 0 km/h
2436 19-07-2009 07:26:52 14.9 C 10.07 g/m*3 14.9 C 0 km/h
2437 19-07-2009 07:38:52 15.8 C 10.1 g/m*3 15.8 C 0 km/h
2438 19-07-2009 07:50:52 16.1 C 9.73 g/m*3 16.1 C 0 km/h
2439 19-07-2009 08:02:52 15.8 C 9.96 g/m*3 15.8 C 0 km/h
2440 19-07-2009 08:14:52 15.4 C 10.25 g/m*3 15.4 C 0 km/h
2441 19-07-2009 08:26:52 15.2 C 10.25 g/m*3 15.2 C 0 km/h
2442 19-07-2009 08:38:52 15.4 C 10.51 g/m*3 15.4 C 0 km/h
2443 19-07-2009 08:50:52 15.6 C 10.51 g/m*3 15.6 C 0 km/h
2444 19-07-2009 09:02:52 15.9 C 10.43 g/m*3 15.9 C 0 km/h
2445 19-07-2009 09:14:52 16.4 C 10.33 g/m*3 16.4 C 0 km/h
2446 19-07-2009 09:26:52 17 C 10.13 g/m*3 17 C 0 km/h
2447 19-07-2009 09:38:52 17 C 9.98 g/m*3 17 C 0 km/h
2448 19-07-2009 09:50:52 17.4 C 10.23 g/m*3 17.4 C 0 km/h
2449 19-07-2009 10:02:49 17.8 C 9.87 g/m*3 17.8 C 0 km/h
2450 19-07-2009 10:14:49 18.4 C 9.75 g/m*3 18.4 C 0 km/h
Sensor: Nr:Datum:Temp:Abs-Feuchte:Windchill:Wind:
Aussen-T/F 2451 19-07-2009 10:26:49 19 C 9.29 g/m*3 19 C 0 km/h
2452 19-07-2009 10:38:50 19 C 9.13 g/m*3 19 C 0 km/h
2453 19-07-2009 10:50:49 18.5 C 9.49 g/m*3 18.5 C 0 km/h
2454 19-07-2009 11:02:49 18.2 C 9.95 g/m*3 18.2 C 0 km/h
2455 19-07-2009 11:14:48 17.6 C 10.2 g/m*3 17.6 C 0 km/h
2456 19-07-2009 11:26:48 18.5 C 9.97 g/m*3 18.5 C 0 km/h
2457 19-07-2009 11:38:49 18.1 C 10.04 g/m*3 18.1 C 0 km/h
2458 19-07-2009 11:50:48 19.4 C 10.01 g/m*3 19.4 C 0 km/h
2459 19-07-2009 12:02:48 19.5 C 9.4 g/m*3 19.5 C 0 km/h
2460 19-07-2009 12:14:49 17.8 C 10.78 g/m*3 17.8 C 0 km/h
2461 19-07-2009 12:26:49 19.7 C 10.87 g/m*3 19.7 C 0 km/h
2462 19-07-2009 12:38:48 20 C 9.51 g/m*3 20 C 0 km/h
2463 19-07-2009 12:50:48 19.5 C 8.89 g/m*3 19.5 C 0 km/h
2464 19-07-2009 13:02:48 19.1 C 8.52 g/m*3 19.1 C 0 km/h
2465 19-07-2009 13:14:48 19.6 C 7.6 g/m*3 19.6 C 0 km/h
2466 19-07-2009 13:26:49 21.4 C 7.31 g/m*3 21.4 C 0 km/h
2467 19-07-2009 13:38:47 20.4 C 7.25 g/m*3 20.4 C 0 km/h
2468 19-07-2009 13:50:48 20.6 C 7.7 g/m*3 20.6 C 0 km/h
2469 19-07-2009 14:02:47 22 C 6.99 g/m*3 22 C 0 km/h
2470 19-07-2009 14:14:47 23 C 6.78 g/m*3 23 C 0 km/h
2471 19-07-2009 14:26:47 22 C 6.79 g/m*3 22 C 0 km/h
2472 19-07-2009 14:38:47 21.3 C 6.9 g/m*3 21.3 C 0 km/h
2473 19-07-2009 14:50:47 19.2 C 7.26 g/m*3 19.2 C 0 km/h
2474 19-07-2009 15:02:47 19.9 C 8.25 g/m*3 19.9 C 0 km/h
2475 19-07-2009 15:14:46 21.2 C 7.6 g/m*3 21.2 C 0 km/h
Sensor: Nr:Datum:Temp:Abs-Feuchte:Windchill:Wind:
Aussen-T/F 2476 19-07-2009 15:26:46 21.1 C 7.92 g/m*3 21.1 C 0 km/h
2477 19-07-2009 15:38:46 22.5 C 7.79 g/m*3 22.5 C 0 km/h
2478 19-07-2009 15:50:46 22.6 C 7.43 g/m*3 22.6 C 0 km/h
2479 19-07-2009 16:02:46 21.7 C 7.44 g/m*3 21.7 C 0 km/h
2480 19-07-2009 16:14:46 20 C 6.74 g/m*3 20 C 0 km/h
2481 19-07-2009 16:26:46 17.5 C 9.84 g/m*3 17.5 C 0 km/h
2482 19-07-2009 16:38:46 17.8 C 10.32 g/m*3 17.8 C 0 km/h
2483 19-07-2009 16:50:46 19 C 8.47 g/m*3 19 C 0 km/h
2484 19-07-2009 17:02:45 21.2 C 8.9 g/m*3 21.2 C 0 km/h
2485 19-07-2009 17:14:46 21.2 C 7.6 g/m*3 21.2 C 0 km/h
2486 19-07-2009 17:26:46 20.8 C 7.42 g/m*3 20.8 C 0 km/h
2487 19-07-2009 17:38:45 20.8 C 7.79 g/m*3 20.8 C 0 km/h
2488 19-07-2009 17:50:45 21.4 C 7.87 g/m*3 21.4 C 0 km/h
2489 19-07-2009 18:02:45 22 C 7.18 g/m*3 22 C 0 km/h
2490 19-07-2009 18:14:45 21.7 C 7.44 g/m*3 21.7 C 0 km/h
2491 19-07-2009 18:26:45 23.4 C 7.36 g/m*3 23.4 C 0 km/h
2492 19-07-2009 18:38:45 22 C 6.79 g/m*3 22 C 0 km/h
2493 19-07-2009 18:50:44 23.4 C 6.73 g/m*3 23.4 C 0 km/h
2494 19-07-2009 19:02:45 23.4 C 6.52 g/m*3 23.4 C 0 km/h
2495 19-07-2009 19:14:44 21.4 C 6.75 g/m*3 21.4 C 0 km/h
2496 19-07-2009 19:26:44 21 C 6.78 g/m*3 21 C 0 km/h
2497 19-07-2009 19:38:44 20.8 C 7.06 g/m*3 20.8 C 0 km/h
2498 19-07-2009 19:50:44 21.9 C 7.14 g/m*3 21.9 C 0 km/h
2499 19-07-2009 20:02:44 21.9 C 6.75 g/m*3 21.9 C 0 km/h
2500 19-07-2009 20:14:43 21.2 C 6.86 g/m*3 21.2 C 0 km/h
Sensor: Nr:Datum:Temp:Abs-Feuchte:Windchill:Wind:
Aussen-T/F 2501 19-07-2009 20:26:43 21 C 7.14 g/m*3 21 C 0 km/h
2502 19-07-2009 20:38:43 20.5 C 7.12 g/m*3 20.5 C 0 km/h
2503 19-07-2009 20:50:43 20.3 C 7.21 g/m*3 20.3 C 0 km/h
2504 19-07-2009 21:02:43 19.8 C 7 g/m*3 19.8 C 0 km/h
2505 19-07-2009 21:14:43 19.4 C 6.84 g/m*3 19.4 C 0 km/h
2506 19-07-2009 21:26:44 18.9 C 6.97 g/m*3 18.9 C 0 km/h
2507 19-07-2009 21:38:42 18.7 C 7.04 g/m*3 18.7 C 0 km/h
2508 19-07-2009 21:50:43 18.4 C 6.92 g/m*3 18.4 C 0 km/h
2509 19-07-2009 22:02:42 18.2 C 6.99 g/m*3 18.2 C 0 km/h
2510 19-07-2009 22:14:42 17.9 C 7.18 g/m*3 17.9 C 0 km/h
2511 19-07-2009 22:26:42 17.8 C 7.29 g/m*3 17.8 C 0 km/h
2512 19-07-2009 22:39:43 17.7 C 7.24 g/m*3 17.7 C 0 km/h
2513 19-07-2009 22:51:43 17.9 C 7.18 g/m*3 17.9 C 0 km/h
2514 19-07-2009 23:03:43 18 C 7.22 g/m*3 18 C 0 km/h
2515 19-07-2009 23:15:43 17.7 C 7.54 g/m*3 17.7 C 0 km/h
2516 19-07-2009 23:27:43 17.2 C 7.61 g/m*3 17.2 C 0 km/h
2517 19-07-2009 23:39:43 17.1 C 7.71 g/m*3 17.1 C 0 km/h
2518 19-07-2009 23:51:44 17.4 C 7.41 g/m*3 17.4 C 0 km/h
2519 20-07-2009 00:03:44 18 C 7.07 g/m*3 18 C 0 km/h
2520 20-07-2009 00:15:44 18.1 C 7.11 g/m*3 18.1 C 0 km/h
2521 20-07-2009 00:27:44 17.9 C 7.18 g/m*3 17.9 C 0 km/h
2522 20-07-2009 00:39:44 17.5 C 7.16 g/m*3 17.5 C 0 km/h
2523 20-07-2009 00:51:44 17.4 C 7.26 g/m*3 17.4 C 0 km/h
2524 20-07-2009 01:03:44 17.3 C 7.22 g/m*3 17.3 C 0 km/h
2525 20-07-2009 01:15:44 17.2 C 7.32 g/m*3 17.2 C 0 km/h
Sensor: Nr:Datum:Temp:Abs-Feuchte:Windchill:Wind:
Aussen-T/F 2526 20-07-2009 01:27:44 17 C 7.38 g/m*3 17 C 0 km/h
2527 20-07-2009 01:39:44 17 C 7.38 g/m*3 17 C 0 km/h
2528 20-07-2009 01:51:44 17 C 7.38 g/m*3 17 C 0 km/h
2529 20-07-2009 02:03:44 16.9 C 7.62 g/m*3 16.9 C 0 km/h
2530 20-07-2009 02:15:44 16.7 C 7.67 g/m*3 16.7 C 0 km/h
2531 20-07-2009 02:27:44 16.5 C 7.86 g/m*3 16.5 C 0 km/h
2532 20-07-2009 02:39:44 16.3 C 7.91 g/m*3 16.3 C 0 km/h
2533 20-07-2009 02:51:44 16.2 C 8 g/m*3 16.2 C 0 km/h
2534 20-07-2009 03:03:44 16.1 C 7.81 g/m*3 16.1 C 0 km/h
2535 20-07-2009 03:15:44 16 C 8.04 g/m*3 16 C 0 km/h
2536 20-07-2009 03:27:44 15.9 C 8.13 g/m*3 15.9 C 0 km/h
2537 20-07-2009 03:39:44 15.9 C 8.26 g/m*3 15.9 C 0 km/h
2538 20-07-2009 03:51:44 15.9 C 8.26 g/m*3 15.9 C 0 km/h
2539 20-07-2009 04:03:45 15.8 C 8.35 g/m*3 15.8 C 0 km/h
2540 20-07-2009 04:15:45 15.7 C 8.43 g/m*3 15.7 C 0 km/h
2541 20-07-2009 04:27:45 15.7 C 8.56 g/m*3 15.7 C 0 km/h
2542 20-07-2009 04:39:45 15.6 C 8.51 g/m*3 15.6 C 0 km/h
2543 20-07-2009 04:51:45 15.6 C 8.51 g/m*3 15.6 C 0 km/h
2544 20-07-2009 05:03:45 15.6 C 8.64 g/m*3 15.6 C 0 km/h
2545 20-07-2009 05:15:45 15.6 C 8.64 g/m*3 15.6 C 0 km/h
2546 20-07-2009 05:27:45 15.5 C 8.72 g/m*3 15.5 C 0 km/h
2547 20-07-2009 05:39:45 15.4 C 8.8 g/m*3 15.4 C 0 km/h
2548 20-07-2009 05:51:45 15.5 C 8.99 g/m*3 15.5 C 0 km/h
2549 20-07-2009 06:03:45 15.6 C 8.91 g/m*3 15.6 C 0 km/h
2550 20-07-2009 06:15:45 15.5 C 8.86 g/m*3 15.5 C 0 km/h
Sensor: Nr:Datum:Temp:Abs-Feuchte:Windchill:Wind:
Aussen-T/F 2551 20-07-2009 06:27:45 15.5 C 8.99 g/m*3 15.5 C 0 km/h
2552 20-07-2009 06:39:45 15.5 C 9.12 g/m*3 15.5 C 0 km/h
2553 20-07-2009 06:51:45 15.6 C 9.18 g/m*3 15.6 C 0 km/h
2554 20-07-2009 07:03:43 15.7 C 9.23 g/m*3 15.7 C 0 km/h
2555 20-07-2009 07:15:43 15.9 C 9.34 g/m*3 15.9 C 0 km/h
2556 20-07-2009 07:27:43 16.2 C 9.38 g/m*3 16.2 C 0 km/h
2557 20-07-2009 07:39:43 16.4 C 9.35 g/m*3 16.4 C 0 km/h
2558 20-07-2009 07:51:43 16.7 C 9.38 g/m*3 16.7 C 0 km/h
2559 20-07-2009 08:03:43 17 C 9.26 g/m*3 17 C 0 km/h
2560 20-07-2009 08:15:42 17.3 C 9.13 g/m*3 17.3 C 0 km/h
2561 20-07-2009 08:27:42 17.6 C 9.15 g/m*3 17.6 C 0 km/h
2562 20-07-2009 08:39:42 17.6 C 9.15 g/m*3 17.6 C 0 km/h
2563 20-07-2009 08:51:42 17.6 C 9 g/m*3 17.6 C 0 km/h
2564 20-07-2009 09:03:42 18 C 8.91 g/m*3 18 C 0 km/h
2565 20-07-2009 09:15:41 18.5 C 9.02 g/m*3 18.5 C 0 km/h
2566 20-07-2009 09:27:41 18.8 C 8.86 g/m*3 18.8 C 0 km/h
2567 20-07-2009 09:39:42 19.5 C 8.73 g/m*3 19.5 C 0 km/h
2568 20-07-2009 09:51:41 19.5 C 8.22 g/m*3 19.5 C 0 km/h
2569 20-07-2009 10:03:41 19.3 C 8.13 g/m*3 19.3 C 0 km/h
2570 20-07-2009 10:15:42 20.1 C 8 g/m*3 20.1 C 0 km/h
2571 20-07-2009 10:27:42 20.1 C 8 g/m*3 20.1 C 0 km/h
2572 20-07-2009 10:39:41 19.8 C 7.69 g/m*3 19.8 C 0 km/h
2573 20-07-2009 10:51:41 19.7 C 7.98 g/m*3 19.7 C 0 km/h
2574 20-07-2009 11:03:41 19.3 C 7.63 g/m*3 19.3 C 0 km/h
2575 20-07-2009 11:15:41 20.2 C 7.87 g/m*3 20.2 C 0 km/h
Sensor: Nr:Datum:Temp:Abs-Feuchte:Windchill:Wind:
Aussen-T/F 2576 20-07-2009 11:27:41 20.9 C 7.83 g/m*3 20.9 C 0 km/h
2577 20-07-2009 11:39:40 20.9 C 7.65 g/m*3 20.9 C 0 km/h
2578 20-07-2009 11:51:40 21.2 C 7.41 g/m*3 21.2 C 0 km/h
2579 20-07-2009 12:03:41 20.8 C 7.6 g/m*3 20.8 C 0 km/h
2580 20-07-2009 12:15:40 20.6 C 7.34 g/m*3 20.6 C 0 km/h
2581 20-07-2009 12:27:40 21.2 C 7.23 g/m*3 21.2 C 0 km/h
2582 20-07-2009 12:39:40 21.9 C 7.33 g/m*3 21.9 C 0 km/h
2583 20-07-2009 12:51:40 21.5 C 7.17 g/m*3 21.5 C 0 km/h
2584 20-07-2009 13:03:40 21.4 C 7.12 g/m*3 21.4 C 0 km/h
2585 20-07-2009 13:15:39 21.3 C 7.27 g/m*3 21.3 C 0 km/h
2586 20-07-2009 13:27:39 21.9 C 6.75 g/m*3 21.9 C 0 km/h
2587 20-07-2009 13:39:40 23.5 C 6.98 g/m*3 23.5 C 0 km/h
2588 20-07-2009 13:51:39 23.8 C 6.45 g/m*3 23.8 C 0 km/h
2589 20-07-2009 14:03:39 23.7 C 6.42 g/m*3 23.7 C 0 km/h
2590 20-07-2009 14:15:39 23.7 C 6.42 g/m*3 23.7 C 0 km/h
2591 20-07-2009 14:27:39 23.9 C 6.49 g/m*3 23.9 C 0 km/h
2592 20-07-2009 14:39:39 24.5 C 6.27 g/m*3 24.5 C 0 km/h
2593 20-07-2009 14:51:39 24.2 C 5.94 g/m*3 24.2 C 0 km/h
2594 20-07-2009 15:03:38 25.2 C 6.05 g/m*3 25.2 C 0 km/h
2595 20-07-2009 15:15:39 25.7 C 5.75 g/m*3 25.7 C 0 km/h
2596 20-07-2009 15:27:39 24.4 C 5.79 g/m*3 24.4 C 0 km/h
2597 20-07-2009 15:39:38 24.1 C 6.13 g/m*3 24.1 C 0 km/h
2598 20-07-2009 15:51:38 24.7 C 6.11 g/m*3 24.7 C 0 km/h
2599 20-07-2009 16:03:38 24.4 C 6.01 g/m*3 24.4 C 0 km/h
2600 20-07-2009 16:15:38 24.1 C 6.35 g/m*3 24.1 C 0 km/h
Sensor: Nr:Datum:Temp:Abs-Feuchte:Windchill:Wind:
Aussen-T/F 2601 20-07-2009 16:27:38 24.1 C 6.35 g/m*3 24.1 C 0 km/h
2602 20-07-2009 16:39:37 24.9 C 5.95 g/m*3 24.9 C 0 km/h
2603 20-07-2009 16:51:38 25.5 C 5.68 g/m*3 25.5 C 0 km/h
2604 20-07-2009 17:03:38 25 C 6.22 g/m*3 25 C 0 km/h
2605 20-07-2009 17:15:37 25.5 C 5.68 g/m*3 25.5 C 0 km/h
2606 20-07-2009 17:27:37 24.7 C 5.66 g/m*3 24.7 C 0 km/h
2607 20-07-2009 17:39:37 24.4 C 6.01 g/m*3 24.4 C 0 km/h
2608 20-07-2009 17:51:37 24 C 5.87 g/m*3 24 C 0 km/h
2609 20-07-2009 18:03:37 23.8 C 6.24 g/m*3 23.8 C 0 km/h
2610 20-07-2009 18:15:36 23.3 C 6.27 g/m*3 23.3 C 0 km/h
2611 20-07-2009 18:27:36 24.4 C 6.01 g/m*3 24.4 C 0 km/h
2612 20-07-2009 18:39:37 24.6 C 6.53 g/m*3 24.6 C 0 km/h
2613 20-07-2009 18:51:36 24.2 C 6.38 g/m*3 24.2 C 0 km/h
2614 20-07-2009 19:03:36 24.2 C 6.6 g/m*3 24.2 C 0 km/h
2615 20-07-2009 19:15:36 23.8 C 6.67 g/m*3 23.8 C 0 km/h
2616 20-07-2009 19:27:36 23.7 C 6.42 g/m*3 23.7 C 0 km/h
2617 20-07-2009 19:39:36 23.8 C 6.24 g/m*3 23.8 C 0 km/h
2618 20-07-2009 19:51:35 23 C 6.37 g/m*3 23 C 0 km/h
2619 20-07-2009 20:03:36 23 C 6.58 g/m*3 23 C 0 km/h
2620 20-07-2009 20:15:36 22.8 C 6.5 g/m*3 22.8 C 0 km/h
2621 20-07-2009 20:27:36 22.6 C 6.83 g/m*3 22.6 C 0 km/h
2622 20-07-2009 20:39:35 22.1 C 6.83 g/m*3 22.1 C 0 km/h
2623 20-07-2009 20:51:36 21.7 C 7.25 g/m*3 21.7 C 0 km/h
2624 20-07-2009 21:03:35 21.2 C 7.41 g/m*3 21.2 C 0 km/h
2625 20-07-2009 21:15:35 20.5 C 7.47 g/m*3 20.5 C 0 km/h
Sensor: Nr:Datum:Temp:Abs-Feuchte:Windchill:Wind:
Aussen-T/F 2626 20-07-2009 21:27:35 20 C 7.43 g/m*3 20 C 0 km/h
2627 20-07-2009 21:39:35 19.6 C 7.6 g/m*3 19.6 C 0 km/h
2628 20-07-2009 21:51:34 19.2 C 7.42 g/m*3 19.2 C 0 km/h
2629 20-07-2009 22:03:35 19 C 7.82 g/m*3 19 C 0 km/h
2630 20-07-2009 22:15:34 18.8 C 7.89 g/m*3 18.8 C 0 km/h
2631 20-07-2009 22:27:34 18.7 C 7.84 g/m*3 18.7 C 0 km/h
2632 20-07-2009 22:39:34 18.5 C 7.91 g/m*3 18.5 C 0 km/h
2633 20-07-2009 22:51:34 18.5 C 8.07 g/m*3 18.5 C 0 km/h
2634 20-07-2009 23:03:34 18.5 C 8.07 g/m*3 18.5 C 0 km/h
2635 20-07-2009 23:15:33 18.4 C 8.02 g/m*3 18.4 C 0 km/h
2636 20-07-2009 23:27:33 18.2 C 8.08 g/m*3 18.2 C 0 km/h
2637 20-07-2009 23:39:34 18.1 C 8.03 g/m*3 18.1 C 0 km/h
2638 20-07-2009 23:51:33 18 C 8.14 g/m*3 18 C 0 km/h
2639 21-07-2009 00:03:33 17.9 C 8.24 g/m*3 17.9 C 0 km/h
2640 21-07-2009 00:15:33 17.8 C 8.35 g/m*3 17.8 C 0 km/h
2641 21-07-2009 00:27:33 17.7 C 8.3 g/m*3 17.7 C 0 km/h
2642 21-07-2009 00:39:32 17.6 C 8.25 g/m*3 17.6 C 0 km/h
2643 21-07-2009 00:51:33 17.6 C 8.4 g/m*3 17.6 C 0 km/h
2644 21-07-2009 01:03:32 17.6 C 8.55 g/m*3 17.6 C 0 km/h
2645 21-07-2009 01:15:32 17.7 C 8.75 g/m*3 17.7 C 0 km/h
2646 21-07-2009 01:27:32 17.7 C 8.75 g/m*3 17.7 C 0 km/h
2647 21-07-2009 01:39:33 17.5 C 8.65 g/m*3 17.5 C 0 km/h
2648 21-07-2009 01:51:32 17.5 C 8.8 g/m*3 17.5 C 0 km/h
2649 21-07-2009 02:03:32 17.5 C 8.8 g/m*3 17.5 C 0 km/h
2650 21-07-2009 02:15:32 17.5 C 8.8 g/m*3 17.5 C 0 km/h
Sensor: Nr:Datum:Temp:Abs-Feuchte:Windchill:Wind:
Aussen-T/F 2651 21-07-2009 02:27:32 17.3 C 8.84 g/m*3 17.3 C 0 km/h
2652 21-07-2009 02:39:32 16.7 C 9.81 g/m*3 16.7 C 0 km/h
2653 21-07-2009 02:52:01 16 C 9.95 g/m*3 16 C 0 km/h
2654 21-07-2009 03:04:01 15.7 C 10.3 g/m*3 15.7 C 0 km/h
2655 21-07-2009 03:16:02 15.3 C 10.58 g/m*3 15.3 C 0 km/h
2656 21-07-2009 03:28:02 15 C 10.51 g/m*3 15 C 0 km/h
2657 21-07-2009 03:40:01 15 C 10.64 g/m*3 15 C 0 km/h
2658 21-07-2009 03:52:01 15.2 C 10.77 g/m*3 15.2 C 0 km/h
2659 21-07-2009 04:04:02 15.3 C 10.97 g/m*3 15.3 C 0 km/h
2660 21-07-2009 04:16:01 15.2 C 10.9 g/m*3 15.2 C 0 km/h
2661 21-07-2009 04:28:01 15.2 C 10.9 g/m*3 15.2 C 0 km/h
2662 21-07-2009 04:40:02 15.5 C 11.24 g/m*3 15.5 C 0 km/h
2663 21-07-2009 04:52:01 15.5 C 11.1 g/m*3 15.5 C 0 km/h
2664 21-07-2009 05:04:01 15.5 C 10.97 g/m*3 15.5 C 0 km/h
2665 21-07-2009 05:16:02 15.5 C 10.84 g/m*3 15.5 C 0 km/h
2666 21-07-2009 05:28:02 15.5 C 10.84 g/m*3 15.5 C 0 km/h
2667 21-07-2009 05:40:01 15.5 C 10.84 g/m*3 15.5 C 0 km/h
2668 21-07-2009 05:52:01 15.5 C 10.84 g/m*3 15.5 C 0 km/h
2669 21-07-2009 06:04:02 15.4 C 10.77 g/m*3 15.4 C 0 km/h
2670 21-07-2009 06:16:01 15.3 C 10.58 g/m*3 15.3 C 0 km/h
2671 21-07-2009 06:28:01 15.2 C 10.51 g/m*3 15.2 C 0 km/h
2672 21-07-2009 06:40:02 15.4 C 10.64 g/m*3 15.4 C 0 km/h
2673 21-07-2009 06:52:01 15.6 C 10.77 g/m*3 15.6 C 0 km/h
2674 21-07-2009 07:04:02 15.9 C 10.83 g/m*3 15.9 C 0 km/h
2675 21-07-2009 07:16:01 16.1 C 10.97 g/m*3 16.1 C 0 km/h
Sensor: Nr:Datum:Temp:Abs-Feuchte:Windchill:Wind:
Aussen-T/F 2676 21-07-2009 07:28:01 16.2 C 10.89 g/m*3 16.2 C 0 km/h
2677 21-07-2009 07:40:01 16.1 C 11.1 g/m*3 16.1 C 0 km/h
2678 21-07-2009 07:52:01 16.3 C 11.24 g/m*3 16.3 C 0 km/h
2679 21-07-2009 08:04:01 16.4 C 11.31 g/m*3 16.4 C 0 km/h
2680 21-07-2009 08:16:02 16.8 C 11.44 g/m*3 16.8 C 0 km/h
2681 21-07-2009 08:28:02 17.3 C 11.64 g/m*3 17.3 C 0 km/h
2682 21-07-2009 08:40:01 17.7 C 11.62 g/m*3 17.7 C 0 km/h
2683 21-07-2009 08:52:01 18.4 C 11.48 g/m*3 18.4 C 0 km/h
2684 21-07-2009 09:04:01 19 C 10.92 g/m*3 19 C 0 km/h
2685 21-07-2009 09:16:02 19.5 C 10.91 g/m*3 19.5 C 0 km/h
2686 21-07-2009 09:28:02 20 C 10.54 g/m*3 20 C 0 km/h
2687 21-07-2009 09:40:01 20.4 C 10.44 g/m*3 20.4 C 0 km/h
2688 21-07-2009 09:52:02 21.2 C 10.38 g/m*3 21.2 C 0 km/h
2689 21-07-2009 10:04:01 22 C 10.29 g/m*3 22 C 0 km/h
2690 21-07-2009 10:16:02 22.4 C 10.33 g/m*3 22.4 C 0 km/h
2691 21-07-2009 10:28:02 22.4 C 10.13 g/m*3 22.4 C 0 km/h
2692 21-07-2009 10:40:01 22.6 C 10.25 g/m*3 22.6 C 0 km/h
2693 21-07-2009 10:52:02 22.8 C 10.36 g/m*3 22.8 C 0 km/h
2694 21-07-2009 11:04:01 23.4 C 9.67 g/m*3 23.4 C 0 km/h
2695 21-07-2009 11:16:01 24.1 C 9.63 g/m*3 24.1 C 0 km/h
2696 21-07-2009 11:28:01 24.2 C 9.68 g/m*3 24.2 C 0 km/h
2697 21-07-2009 11:40:02 24.4 C 9.35 g/m*3 24.4 C 0 km/h
2698 21-07-2009 11:52:01 25.6 C 9.76 g/m*3 25.6 C 0 km/h
2699 21-07-2009 12:04:02 27.1 C 9.83 g/m*3 27.1 C 0 km/h
2700 21-07-2009 12:16:01 27.7 C 9.63 g/m*3 27.7 C 0 km/h
Sensor: Nr:Datum:Temp:Abs-Feuchte:Windchill:Wind:
Aussen-T/F 2701 21-07-2009 12:28:01 28.5 C 9.78 g/m*3 28.5 C 0 km/h
2702 21-07-2009 12:40:02 29 C 8.62 g/m*3 29 C 0 km/h
2703 21-07-2009 12:52:01 28.5 C 8.38 g/m*3 28.5 C 0 km/h
2704 21-07-2009 13:04:01 29.3 C 9.05 g/m*3 29.3 C 0 km/h
2705 21-07-2009 13:16:01 30.4 C 8.99 g/m*3 30.4 C 0 km/h
2706 21-07-2009 13:28:01 31.1 C 8.37 g/m*3 31.1 C 0 km/h
2707 21-07-2009 13:40:01 31.1 C 7.72 g/m*3 31.1 C 0 km/h
2708 21-07-2009 13:52:01 31 C 8 g/m*3 31 C 0 km/h
2709 21-07-2009 14:04:01 31 C 7.68 g/m*3 31 C 0 km/h
2710 21-07-2009 14:16:02 30.5 C 8.1 g/m*3 30.5 C 0 km/h
2711 21-07-2009 14:28:02 30.1 C 8.23 g/m*3 30.1 C 0 km/h
2712 21-07-2009 14:40:01 30.7 C 8.82 g/m*3 30.7 C 0 km/h
2713 21-07-2009 14:52:02 31.3 C 8.46 g/m*3 31.3 C 0 km/h
2714 21-07-2009 15:04:01 31.6 C 7.93 g/m*3 31.6 C 0 km/h
2715 21-07-2009 15:16:01 32.2 C 7.17 g/m*3 32.2 C 0 km/h
2716 21-07-2009 15:28:02 31.5 C 7.89 g/m*3 31.5 C 0 km/h
2717 21-07-2009 15:40:01 31.2 C 8.09 g/m*3 31.2 C 0 km/h
2718 21-07-2009 15:52:01 31.1 C 8.04 g/m*3 31.1 C 0 km/h
2719 21-07-2009 16:04:02 30.9 C 7.96 g/m*3 30.9 C 0 km/h
2720 21-07-2009 16:16:01 30.6 C 8.46 g/m*3 30.6 C 0 km/h
2721 21-07-2009 16:28:01 31.1 C 8.04 g/m*3 31.1 C 0 km/h
2722 21-07-2009 16:40:02 31.7 C 8.31 g/m*3 31.7 C 0 km/h
2723 21-07-2009 16:52:01 31.5 C 7.89 g/m*3 31.5 C 0 km/h
2724 21-07-2009 17:04:02 31.2 C 9.38 g/m*3 31.2 C 0 km/h
2725 21-07-2009 17:16:02 30.8 C 10.45 g/m*3 30.8 C 0 km/h
Sensor: Nr:Datum:Temp:Abs-Feuchte:Windchill:Wind:
Aussen-T/F 2726 21-07-2009 17:28:02 30.6 C 10.34 g/m*3 30.6 C 0 km/h
2727 21-07-2009 17:40:01 30.6 C 10.65 g/m*3 30.6 C 0 km/h
2728 21-07-2009 17:52:02 30.6 C 10.65 g/m*3 30.6 C 0 km/h
2729 21-07-2009 18:04:04 30.8 C 11.08 g/m*3 30.8 C 0 km/h
2730 21-07-2009 18:16:01 31.4 C 9.81 g/m*3 31.4 C 0 km/h
2731 21-07-2009 18:28:01 31.6 C 10.57 g/m*3 31.6 C 0 km/h
2732 21-07-2009 18:40:01 30.9 C 10.5 g/m*3 30.9 C 0 km/h
2733 21-07-2009 18:52:01 30.3 C 11.1 g/m*3 30.3 C 0 km/h
2734 21-07-2009 19:04:01 30 C 11.52 g/m*3 30 C 0 km/h
2735 21-07-2009 19:16:01 29.6 C 11.57 g/m*3 29.6 C 0 km/h
2736 21-07-2009 19:28:01 29.3 C 11.39 g/m*3 29.3 C 0 km/h
2737 21-07-2009 19:40:01 28.4 C 11.4 g/m*3 28.4 C 0 km/h
2738 21-07-2009 19:52:02 27.7 C 11.77 g/m*3 27.7 C 0 km/h
2739 21-07-2009 20:04:01 27.3 C 12.04 g/m*3 27.3 C 0 km/h
2740 21-07-2009 20:16:02 27 C 11.84 g/m*3 27 C 0 km/h
2741 21-07-2009 20:28:02 26.5 C 12.02 g/m*3 26.5 C 0 km/h
2742 21-07-2009 20:40:02 26.3 C 11.88 g/m*3 26.3 C 0 km/h
2743 21-07-2009 20:52:02 26.2 C 11.82 g/m*3 26.2 C 0 km/h
2744 21-07-2009 21:04:02 25.9 C 11.86 g/m*3 25.9 C 0 km/h
2745 21-07-2009 21:16:01 25.7 C 11.97 g/m*3 25.7 C 0 km/h
2746 21-07-2009 21:28:01 25.4 C 12.01 g/m*3 25.4 C 0 km/h
2747 21-07-2009 21:40:02 25.1 C 11.81 g/m*3 25.1 C 0 km/h
2748 21-07-2009 21:51:01 24.5 C 11.86 g/m*3 24.5 C 0 km/h
2749 21-07-2009 22:05:05 24.8 C 12.29 g/m*3 24.8 C 0 km/h
2750 21-07-2009 22:17:05 24.8 C 12.29 g/m*3 24.8 C 0 km/h
Sensor: Nr:Datum:Temp:Abs-Feuchte:Windchill:Wind:
Aussen-T/F 2751 21-07-2009 22:29:05 24.6 C 12.15 g/m*3 24.6 C 0 km/h
2752 21-07-2009 22:41:05 24.5 C 12.09 g/m*3 24.5 C 0 km/h
2753 21-07-2009 22:53:05 24.5 C 12.31 g/m*3 24.5 C 0 km/h
2754 21-07-2009 23:05:05 24.4 C 12.24 g/m*3 24.4 C 0 km/h
2755 21-07-2009 23:17:05 24.2 C 12.32 g/m*3 24.2 C 0 km/h
2756 21-07-2009 23:29:05 23.9 C 12.33 g/m*3 23.9 C 0 km/h
2757 21-07-2009 23:41:05 23.6 C 12.34 g/m*3 23.6 C 0 km/h
2758 21-07-2009 23:53:05 23.6 C 12.34 g/m*3 23.6 C 0 km/h
2759 22-07-2009 00:05:05 23.7 C 12.19 g/m*3 23.7 C 0 km/h
2760 22-07-2009 00:17:05 23.7 C 12.19 g/m*3 23.7 C 0 km/h
2761 22-07-2009 00:29:05 23.7 C 11.98 g/m*3 23.7 C 0 km/h
2762 22-07-2009 00:41:06 23.8 C 11.83 g/m*3 23.8 C 0 km/h
2763 22-07-2009 00:53:06 23.9 C 11.68 g/m*3 23.9 C 0 km/h
2764 22-07-2009 01:05:06 24.1 C 11.38 g/m*3 24.1 C 0 km/h
2765 22-07-2009 01:17:06 23.9 C 12.11 g/m*3 23.9 C 0 km/h
2766 22-07-2009 01:29:06 22.6 C 13.46 g/m*3 22.6 C 0 km/h
2767 22-07-2009 01:41:06 21.2 C 14.46 g/m*3 21.2 C 0 km/h
2768 22-07-2009 01:53:06 21.1 C 14.92 g/m*3 21.1 C 0 km/h
2769 22-07-2009 02:05:06 20.8 C 15.03 g/m*3 20.8 C 0 km/h
2770 22-07-2009 02:17:06 21.1 C 15.29 g/m*3 21.1 C 0 km/h
2771 22-07-2009 02:29:06 20.9 C 14.93 g/m*3 20.9 C 0 km/h
2772 22-07-2009 02:41:06 20.7 C 14.76 g/m*3 20.7 C 0 km/h
2773 22-07-2009 02:53:06 20.6 C 14.68 g/m*3 20.6 C 0 km/h
2774 22-07-2009 03:05:06 20.6 C 14.5 g/m*3 20.6 C 0 km/h
2775 22-07-2009 03:17:06 20.8 C 14.67 g/m*3 20.8 C 0 km/h
Sensor: Nr:Datum:Temp:Abs-Feuchte:Windchill:Wind:
Aussen-T/F 2776 22-07-2009 03:29:06 20.7 C 14.4 g/m*3 20.7 C 0 km/h
2777 22-07-2009 03:41:06 20.7 C 14.4 g/m*3 20.7 C 0 km/h
2778 22-07-2009 03:53:06 20.6 C 14.5 g/m*3 20.6 C 0 km/h
2779 22-07-2009 04:05:06 20.6 C 14.5 g/m*3 20.6 C 0 km/h
2780 22-07-2009 04:17:06 20.5 C 14.41 g/m*3 20.5 C 0 km/h
2781 22-07-2009 04:29:07 20.4 C 14.15 g/m*3 20.4 C 0 km/h
2782 22-07-2009 04:41:07 20 C 13.65 g/m*3 20 C 0 km/h
2783 22-07-2009 04:53:07 19.9 C 13.57 g/m*3 19.9 C 0 km/h
2784 22-07-2009 05:05:07 20 C 13.31 g/m*3 20 C 0 km/h
2785 22-07-2009 05:17:07 19.7 C 13.08 g/m*3 19.7 C 0 km/h
2786 22-07-2009 05:29:07 19.4 C 13.01 g/m*3 19.4 C 0 km/h
2787 22-07-2009 05:41:07 19.7 C 13.25 g/m*3 19.7 C 0 km/h
2788 22-07-2009 05:53:07 19.2 C 13.03 g/m*3 19.2 C 0 km/h
2789 22-07-2009 06:05:07 19.1 C 12.95 g/m*3 19.1 C 0 km/h
2790 22-07-2009 06:17:07 19.6 C 12.83 g/m*3 19.6 C 0 km/h
2791 22-07-2009 06:29:07 19.8 C 12.64 g/m*3 19.8 C 0 km/h
2792 22-07-2009 06:41:07 20.3 C 12.49 g/m*3 20.3 C 0 km/h
2793 22-07-2009 06:53:07 20.6 C 12.17 g/m*3 20.6 C 0 km/h
2794 22-07-2009 07:05:05 20.8 C 12.13 g/m*3 20.8 C 0 km/h
2795 22-07-2009 07:17:05 20.8 C 12.13 g/m*3 20.8 C 0 km/h
2796 22-07-2009 07:29:05 20.9 C 12.2 g/m*3 20.9 C 0 km/h
2797 22-07-2009 07:41:05 21.1 C 11.98 g/m*3 21.1 C 0 km/h
2798 22-07-2009 07:53:04 21.2 C 12.05 g/m*3 21.2 C 0 km/h
2799 22-07-2009 08:05:05 21.3 C 12.12 g/m*3 21.3 C 0 km/h
2800 22-07-2009 08:17:05 21.6 C 12.14 g/m*3 21.6 C 0 km/h
Sensor: Nr:Datum:Temp:Abs-Feuchte:Windchill:Wind:
Aussen-T/F 2801 22-07-2009 08:29:05 21.4 C 12.37 g/m*3 21.4 C 0 km/h
2802 22-07-2009 08:41:04 21.6 C 12.14 g/m*3 21.6 C 0 km/h
2803 22-07-2009 08:53:05 21.6 C 12.14 g/m*3 21.6 C 0 km/h
2804 22-07-2009 09:05:04 21.6 C 12.33 g/m*3 21.6 C 0 km/h
2805 22-07-2009 09:17:04 21.8 C 12.47 g/m*3 21.8 C 0 km/h
2806 22-07-2009 09:29:04 22.3 C 12.44 g/m*3 22.3 C 0 km/h
2807 22-07-2009 09:41:03 22.7 C 12.53 g/m*3 22.7 C 0 km/h
2808 22-07-2009 09:53:04 23.2 C 12.27 g/m*3 23.2 C 0 km/h
2809 22-07-2009 10:05:03 23.5 C 13.11 g/m*3 23.5 C 0 km/h
2810 22-07-2009 10:17:03 23.7 C 13.26 g/m*3 23.7 C 0 km/h
2811 22-07-2009 10:29:03 23.8 C 12.69 g/m*3 23.8 C 0 km/h
2812 22-07-2009 10:41:04 23.8 C 13.12 g/m*3 23.8 C 0 km/h
2813 22-07-2009 10:53:03 24.3 C 13.06 g/m*3 24.3 C 0 km/h
2814 22-07-2009 11:05:03 24.5 C 12.98 g/m*3 24.5 C 0 km/h
2815 22-07-2009 11:17:02 24.5 C 12.31 g/m*3 24.5 C 0 km/h
2816 22-07-2009 11:29:02 24.9 C 11.45 g/m*3 24.9 C 0 km/h
2817 22-07-2009 11:41:03 25 C 10.82 g/m*3 25 C 0 km/h
2818 22-07-2009 11:53:02 25.1 C 10.65 g/m*3 25.1 C 0 km/h
2819 22-07-2009 12:05:02 26.4 C 10.95 g/m*3 26.4 C 0 km/h
2820 22-07-2009 12:17:03 26.4 C 10.46 g/m*3 26.4 C 0 km/h
2821 22-07-2009 12:29:03 26.8 C 10.44 g/m*3 26.8 C 0 km/h
2822 22-07-2009 12:41:02 26.7 C 10.12 g/m*3 26.7 C 0 km/h
2823 22-07-2009 12:53:02 27.4 C 9.74 g/m*3 27.4 C 0 km/h
2824 22-07-2009 13:05:02 27.5 C 9.52 g/m*3 27.5 C 0 km/h
2825 22-07-2009 13:17:02 27.8 C 9.68 g/m*3 27.8 C 0 km/h
Sensor: Nr:Datum:Temp:Abs-Feuchte:Windchill:Wind:
Aussen-T/F 2826 22-07-2009 13:29:02 28.3 C 9.68 g/m*3 28.3 C 0 km/h
2827 22-07-2009 13:41:01 28.8 C 9.09 g/m*3 28.8 C 0 km/h
2828 22-07-2009 13:53:01 28.9 C 9.71 g/m*3 28.9 C 0 km/h
2829 22-07-2009 14:05:01 28.7 C 9.32 g/m*3 28.7 C 0 km/h
2830 22-07-2009 14:17:01 29.4 C 9.39 g/m*3 29.4 C 0 km/h
2831 22-07-2009 14:29:01 29.2 C 9.87 g/m*3 29.2 C 0 km/h
2832 22-07-2009 14:41:01 30 C 9.4 g/m*3 30 C 0 km/h
2833 22-07-2009 14:53:01 29.9 C 9.65 g/m*3 29.9 C 0 km/h
2834 22-07-2009 15:05:01 29.1 C 9.24 g/m*3 29.1 C 0 km/h
2835 22-07-2009 15:17:00 29.4 C 9.39 g/m*3 29.4 C 0 km/h
2836 22-07-2009 15:29:00 30 C 10.01 g/m*3 30 C 0 km/h
2837 22-07-2009 15:41:01 30.3 C 9.55 g/m*3 30.3 C 0 km/h
2838 22-07-2009 15:53:00 30.3 C 9.55 g/m*3 30.3 C 0 km/h
2839 22-07-2009 16:05:00 29.5 C 9.15 g/m*3 29.5 C 0 km/h
2840 22-07-2009 16:16:59 30 C 9.4 g/m*3 30 C 0 km/h
2841 22-07-2009 16:28:59 30.4 C 9.3 g/m*3 30.4 C 0 km/h
2842 22-07-2009 16:41:00 30.6 C 8.77 g/m*3 30.6 C 0 km/h
2843 22-07-2009 16:53:59 31 C 8.96 g/m*3 31 C 0 km/h
2844 22-07-2009 17:05:59 31.2 C 8.41 g/m*3 31.2 C 0 km/h
2845 22-07-2009 17:17:00 31.1 C 8.37 g/m*3 31.1 C 0 km/h
2846 22-07-2009 17:29:00 31.1 C 8.37 g/m*3 31.1 C 0 km/h
2847 22-07-2009 17:41:59 31 C 8.64 g/m*3 31 C 0 km/h
2848 22-07-2009 17:53:59 31.5 C 8.55 g/m*3 31.5 C 0 km/h
2849 22-07-2009 18:05:59 31.4 C 8.17 g/m*3 31.4 C 0 km/h
2850 22-07-2009 18:17:59 31.8 C 8.35 g/m*3 31.8 C 0 km/h
Sensor: Nr:Datum:Temp:Abs-Feuchte:Windchill:Wind:
Aussen-T/F 2851 22-07-2009 18:29:59 32.1 C 7.47 g/m*3 32.1 C 0 km/h
2852 22-07-2009 18:41:59 31.8 C 7.35 g/m*3 31.8 C 0 km/h
2853 22-07-2009 18:53:59 31.6 C 8.26 g/m*3 31.6 C 0 km/h
2854 22-07-2009 19:05:59 30.8 C 8.23 g/m*3 30.8 C 0 km/h
2855 22-07-2009 19:17:59 30.6 C 9.71 g/m*3 30.6 C 0 km/h
2856 22-07-2009 19:29:59 30.6 C 10.02 g/m*3 30.6 C 0 km/h
2857 22-07-2009 19:41:59 30.3 C 10.48 g/m*3 30.3 C 0 km/h
2858 22-07-2009 19:53:58 29.9 C 10.86 g/m*3 29.9 C 0 km/h
2859 22-07-2009 20:05:59 30.6 C 10.65 g/m*3 30.6 C 0 km/h
2860 22-07-2009 20:17:58 31.1 C 9.97 g/m*3 31.1 C 0 km/h
2861 22-07-2009 20:29:58 30.6 C 9.71 g/m*3 30.6 C 0 km/h
2862 22-07-2009 20:41:58 29.4 C 10.27 g/m*3 29.4 C 0 km/h
2863 22-07-2009 20:53:57 28 C 10.33 g/m*3 28 C 0 km/h
2864 22-07-2009 21:05:58 26.8 C 10.18 g/m*3 26.8 C 0 km/h
2865 22-07-2009 21:17:58 26 C 9.98 g/m*3 26 C 0 km/h
2866 22-07-2009 21:29:58 25.4 C 10.12 g/m*3 25.4 C 0 km/h
2867 22-07-2009 21:41:57 24.7 C 10.19 g/m*3 24.7 C 0 km/h
2868 22-07-2009 21:53:57 24 C 9.79 g/m*3 24 C 0 km/h
2869 22-07-2009 22:05:57 24.3 C 10.4 g/m*3 24.3 C 0 km/h
2870 22-07-2009 22:18:57 24.3 C 10.18 g/m*3 24.3 C 0 km/h
2871 22-07-2009 22:30:57 24.3 C 10.18 g/m*3 24.3 C 0 km/h
2872 22-07-2009 22:42:57 24.3 C 9.96 g/m*3 24.3 C 0 km/h
2873 22-07-2009 22:54:57 24.1 C 10.28 g/m*3 24.1 C 0 km/h
2874 22-07-2009 23:06:57 24.1 C 10.28 g/m*3 24.1 C 0 km/h
2875 22-07-2009 23:18:57 24.1 C 10.28 g/m*3 24.1 C 0 km/h
Sensor: Nr:Datum:Temp:Abs-Feuchte:Windchill:Wind:
Aussen-T/F 2876 22-07-2009 23:30:57 24.1 C 10.28 g/m*3 24.1 C 0 km/h
2877 22-07-2009 23:42:57 24 C 10.44 g/m*3 24 C 0 km/h
2878 22-07-2009 23:54:57 23.9 C 10.82 g/m*3 23.9 C 0 km/h
2879 23-07-2009 00:06:57 23.3 C 11.29 g/m*3 23.3 C 0 km/h
2880 23-07-2009 00:18:58 23.4 C 11.57 g/m*3 23.4 C 0 km/h
2881 23-07-2009 00:30:58 21.7 C 13.16 g/m*3 21.7 C 0 km/h
2882 23-07-2009 00:42:58 21.9 C 13.31 g/m*3 21.9 C 0 km/h
2883 23-07-2009 00:54:58 22.3 C 12.64 g/m*3 22.3 C 0 km/h
2884 23-07-2009 01:06:58 22.8 C 12.19 g/m*3 22.8 C 0 km/h
2885 23-07-2009 01:18:58 23.1 C 11.78 g/m*3 23.1 C 0 km/h
2886 23-07-2009 01:30:58 23.3 C 11.5 g/m*3 23.3 C 0 km/h
2887 23-07-2009 01:42:58 23.1 C 11.37 g/m*3 23.1 C 0 km/h
2888 23-07-2009 01:54:58 22.9 C 11.44 g/m*3 22.9 C 0 km/h
2889 23-07-2009 02:06:58 22.9 C 11.44 g/m*3 22.9 C 0 km/h
2890 23-07-2009 02:18:58 22.8 C 11.58 g/m*3 22.8 C 0 km/h
2891 23-07-2009 02:30:58 22.8 C 11.58 g/m*3 22.8 C 0 km/h
2892 23-07-2009 02:42:58 22.8 C 11.58 g/m*3 22.8 C 0 km/h
2893 23-07-2009 02:54:58 22.7 C 11.72 g/m*3 22.7 C 0 km/h
2894 23-07-2009 03:06:58 22.5 C 11.78 g/m*3 22.5 C 0 km/h
2895 23-07-2009 03:18:58 21.9 C 11.77 g/m*3 21.9 C 0 km/h
2896 23-07-2009 03:30:58 21.9 C 11.77 g/m*3 21.9 C 0 km/h
2897 23-07-2009 03:42:58 21.6 C 11.76 g/m*3 21.6 C 0 km/h
2898 23-07-2009 03:54:58 21.4 C 11.62 g/m*3 21.4 C 0 km/h
2899 23-07-2009 04:06:58 21.4 C 11.81 g/m*3 21.4 C 0 km/h
2900 23-07-2009 04:18:59 21.3 C 11.74 g/m*3 21.3 C 0 km/h
Sensor: Nr:Datum:Temp:Abs-Feuchte:Windchill:Wind:
Aussen-T/F 2901 23-07-2009 04:30:59 21.4 C 11.81 g/m*3 21.4 C 0 km/h
2902 23-07-2009 04:42:59 21.2 C 11.68 g/m*3 21.2 C 0 km/h
2903 23-07-2009 04:54:59 21 C 11.72 g/m*3 21 C 0 km/h
2904 23-07-2009 05:06:59 21 C 11.91 g/m*3 21 C 0 km/h
2905 23-07-2009 05:18:59 21 C 12.09 g/m*3 21 C 0 km/h
2906 23-07-2009 05:30:59 21 C 12.09 g/m*3 21 C 0 km/h
2907 23-07-2009 05:42:59 20.8 C 12.31 g/m*3 20.8 C 0 km/h
2908 23-07-2009 05:54:59 20.8 C 12.49 g/m*3 20.8 C 0 km/h
2909 23-07-2009 06:06:59 20.6 C 12.53 g/m*3 20.6 C 0 km/h
2910 23-07-2009 06:18:59 20.1 C 12.69 g/m*3 20.1 C 0 km/h
2911 23-07-2009 06:30:59 19.8 C 13.15 g/m*3 19.8 C 0 km/h
2912 23-07-2009 06:42:59 19.7 C 13.41 g/m*3 19.7 C 0 km/h
2913 23-07-2009 06:54:59 20 C 13.65 g/m*3 20 C 0 km/h
2914 23-07-2009 07:06:58 20.2 C 13.64 g/m*3 20.2 C 0 km/h
2915 23-07-2009 07:18:57 20.4 C 13.44 g/m*3 20.4 C 0 km/h
2916 23-07-2009 07:30:57 20.7 C 13.5 g/m*3 20.7 C 0 km/h
2917 23-07-2009 07:42:57 21 C 13.19 g/m*3 21 C 0 km/h
2918 23-07-2009 07:54:57 21.3 C 13.42 g/m*3 21.3 C 0 km/h
2919 23-07-2009 08:06:57 21.2 C 13.34 g/m*3 21.2 C 0 km/h
2920 23-07-2009 08:18:57 21 C 13.19 g/m*3 21 C 0 km/h
2921 23-07-2009 08:30:56 19.8 C 13.66 g/m*3 19.8 C 0 km/h
2922 23-07-2009 08:42:56 19.5 C 14.1 g/m*3 19.5 C 0 km/h
2923 23-07-2009 08:54:57 19 C 14.01 g/m*3 19 C 0 km/h
2924 23-07-2009 09:06:56 18.7 C 13.77 g/m*3 18.7 C 0 km/h
2925 23-07-2009 09:18:56 18.5 C 13.77 g/m*3 18.5 C 0 km/h
Sensor: Nr:Datum:Temp:Abs-Feuchte:Windchill:Wind:
Aussen-T/F 2926 23-07-2009 09:30:56 18.4 C 13.68 g/m*3 18.4 C 0 km/h
2927 23-07-2009 09:42:56 18.8 C 14.17 g/m*3 18.8 C 0 km/h
2928 23-07-2009 09:54:56 19.3 C 14.43 g/m*3 19.3 C 0 km/h
2929 23-07-2009 10:06:55 20 C 14.69 g/m*3 20 C 0 km/h
2930 23-07-2009 10:18:56 20.7 C 14.76 g/m*3 20.7 C 0 km/h
2931 23-07-2009 10:30:56 20.9 C 14.39 g/m*3 20.9 C 0 km/h
2932 23-07-2009 10:42:56 21.8 C 14.97 g/m*3 21.8 C 0 km/h
2933 23-07-2009 10:54:55 21.8 C 14.39 g/m*3 21.8 C 0 km/h
2934 23-07-2009 11:06:56 22.5 C 14.38 g/m*3 22.5 C 0 km/h
2935 23-07-2009 11:18:55 23.4 C 14.3 g/m*3 23.4 C 0 km/h
2936 23-07-2009 11:30:55 24 C 14.36 g/m*3 24 C 0 km/h
2937 23-07-2009 11:42:55 24 C 13.71 g/m*3 24 C 0 km/h
2938 23-07-2009 11:54:55 23.1 C 12.4 g/m*3 23.1 C 0 km/h
2939 23-07-2009 12:06:55 24 C 12.84 g/m*3 24 C 0 km/h
2940 23-07-2009 12:18:54 24.6 C 12.38 g/m*3 24.6 C 0 km/h
2941 23-07-2009 12:30:54 25.5 C 11.6 g/m*3 25.5 C 0 km/h
2942 23-07-2009 12:42:54 25.8 C 11.07 g/m*3 25.8 C 0 km/h
2943 23-07-2009 12:54:54 25.8 C 10.59 g/m*3 25.8 C 0 km/h
2944 23-07-2009 13:06:54 25.3 C 10.53 g/m*3 25.3 C 0 km/h
2945 23-07-2009 13:18:54 24.7 C 10.86 g/m*3 24.7 C 0 km/h
2946 23-07-2009 13:30:54 24.5 C 10.74 g/m*3 24.5 C 0 km/h
2947 23-07-2009 13:42:54 24.2 C 10.56 g/m*3 24.2 C 0 km/h
2948 23-07-2009 13:54:54 24 C 10.44 g/m*3 24 C 0 km/h
2949 23-07-2009 14:06:53 24.5 C 10.74 g/m*3 24.5 C 0 km/h
2950 23-07-2009 14:18:53 24.7 C 10.41 g/m*3 24.7 C 0 km/h
Sensor: Nr:Datum:Temp:Abs-Feuchte:Windchill:Wind:
Aussen-T/F 2951 23-07-2009 14:30:53 24.1 C 10.28 g/m*3 24.1 C 0 km/h
2952 23-07-2009 14:42:53 24.5 C 10.3 g/m*3 24.5 C 0 km/h
2953 23-07-2009 14:54:53 24.9 C 10.53 g/m*3 24.9 C 0 km/h
2954 23-07-2009 15:06:52 25.5 C 9.94 g/m*3 25.5 C 0 km/h
2955 23-07-2009 15:18:53 26.5 C 10.26 g/m*3 26.5 C 0 km/h
2956 23-07-2009 15:30:53 25.9 C 9.93 g/m*3 25.9 C 0 km/h
2957 23-07-2009 15:42:53 26.2 C 10.09 g/m*3 26.2 C 0 km/h
2958 23-07-2009 15:54:52 26.1 C 10.04 g/m*3 26.1 C 0 km/h
2959 23-07-2009 16:06:53 25.9 C 10.17 g/m*3 25.9 C 0 km/h
2960 23-07-2009 16:18:52 26.5 C 10.01 g/m*3 26.5 C 0 km/h
2961 23-07-2009 16:30:52 26.9 C 10.24 g/m*3 26.9 C 0 km/h
2962 23-07-2009 16:42:52 26.1 C 9.79 g/m*3 26.1 C 0 km/h
2963 23-07-2009 16:54:52 26.6 C 9.82 g/m*3 26.6 C 0 km/h
2964 23-07-2009 17:06:52 27.5 C 9.52 g/m*3 27.5 C 0 km/h
2965 23-07-2009 17:18:52 27.3 C 9.16 g/m*3 27.3 C 0 km/h
2966 23-07-2009 17:30:51 27.3 C 8.9 g/m*3 27.3 C 0 km/h
2967 23-07-2009 17:42:51 28.3 C 8.85 g/m*3 28.3 C 0 km/h
2968 23-07-2009 17:54:52 28.4 C 8.62 g/m*3 28.4 C 0 km/h
2969 23-07-2009 18:06:51 27.7 C 8.56 g/m*3 27.7 C 0 km/h
2970 23-07-2009 18:18:51 26.9 C 8.96 g/m*3 26.9 C 0 km/h
2971 23-07-2009 18:30:51 27.7 C 8.83 g/m*3 27.7 C 0 km/h
2972 23-07-2009 18:42:51 25.9 C 10.65 g/m*3 25.9 C 0 km/h
2973 23-07-2009 18:54:51 24.9 C 10.53 g/m*3 24.9 C 0 km/h
2974 23-07-2009 19:06:50 24.6 C 10.8 g/m*3 24.6 C 0 km/h
2975 23-07-2009 19:18:51 24.6 C 10.58 g/m*3 24.6 C 0 km/h
Sensor: Nr:Datum:Temp:Abs-Feuchte:Windchill:Wind:
Aussen-T/F 2976 23-07-2009 19:30:51 25.1 C 10.42 g/m*3 25.1 C 0 km/h
2977 23-07-2009 19:42:51 24.1 C 10.5 g/m*3 24.1 C 0 km/h
2978 23-07-2009 19:54:50 24.1 C 10.5 g/m*3 24.1 C 0 km/h
2979 23-07-2009 20:06:50 24.1 C 10.5 g/m*3 24.1 C 0 km/h
2980 23-07-2009 20:18:02 23.7 C 11.55 g/m*3 23.7 C 0 km/h
2981 23-07-2009 20:30:02 23.4 C 11.14 g/m*3 23.4 C 0 km/h
2982 23-07-2009 20:42:01 23 C 11.1 g/m*3 23 C 0 km/h
2983 23-07-2009 20:54:02 22.7 C 11.31 g/m*3 22.7 C 0 km/h
2984 23-07-2009 21:06:01 22.1 C 12.1 g/m*3 22.1 C 0 km/h
2985 23-07-2009 21:18:01 21.1 C 12.71 g/m*3 21.1 C 0 km/h
2986 23-07-2009 21:30:02 20.1 C 13.21 g/m*3 20.1 C 0 km/h
2987 23-07-2009 21:42:01 19.6 C 13.67 g/m*3 19.6 C 0 km/h
2988 23-07-2009 21:54:01 19.1 C 13.61 g/m*3 19.1 C 0 km/h
2989 23-07-2009 22:06:01 19.2 C 13.85 g/m*3 19.2 C 0 km/h
2990 23-07-2009 22:18:01 19.3 C 13.93 g/m*3 19.3 C 0 km/h
2991 23-07-2009 22:30:01 19.3 C 13.77 g/m*3 19.3 C 0 km/h
2992 23-07-2009 22:42:01 19.1 C 13.44 g/m*3 19.1 C 0 km/h
2993 23-07-2009 22:54:00 19 C 13.53 g/m*3 19 C 0 km/h
2994 23-07-2009 23:07:02 18.8 C 13.53 g/m*3 18.8 C 0 km/h
2995 23-07-2009 23:19:02 18.7 C 13.45 g/m*3 18.7 C 0 km/h
2996 23-07-2009 23:31:02 18.7 C 13.13 g/m*3 18.7 C 0 km/h
2997 23-07-2009 23:43:02 18.8 C 13.21 g/m*3 18.8 C 0 km/h
2998 23-07-2009 23:55:02 18.8 C 13.21 g/m*3 18.8 C 0 km/h
2999 24-07-2009 00:07:02 18.9 C 13.12 g/m*3 18.9 C 0 km/h
3000 24-07-2009 00:19:02 19 C 13.04 g/m*3 19 C 0 km/h
Sensor: Nr:Datum:Temp:Abs-Feuchte:Windchill:Wind:
Aussen-T/F 3001 24-07-2009 00:31:02 19 C 13.04 g/m*3 19 C 0 km/h
3002 24-07-2009 00:43:02 19 C 12.87 g/m*3 19 C 0 km/h
3003 24-07-2009 00:55:02 18.8 C 12.72 g/m*3 18.8 C 0 km/h
3004 24-07-2009 01:07:02 18.8 C 12.4 g/m*3 18.8 C 0 km/h
3005 24-07-2009 01:19:02 18.7 C 12.17 g/m*3 18.7 C 0 km/h
3006 24-07-2009 01:31:02 18.8 C 12.08 g/m*3 18.8 C 0 km/h
3007 24-07-2009 01:43:02 18.7 C 11.85 g/m*3 18.7 C 0 km/h
3008 24-07-2009 01:55:02 18.5 C 11.87 g/m*3 18.5 C 0 km/h
3009 24-07-2009 02:07:03 18.3 C 12.04 g/m*3 18.3 C 0 km/h
3010 24-07-2009 02:19:03 18.3 C 11.88 g/m*3 18.3 C 0 km/h
3011 24-07-2009 02:31:03 18.1 C 11.9 g/m*3 18.1 C 0 km/h
3012 24-07-2009 02:43:03 18.1 C 11.9 g/m*3 18.1 C 0 km/h
3013 24-07-2009 02:55:03 17.9 C 11.91 g/m*3 17.9 C 0 km/h
3014 24-07-2009 03:07:03 17.8 C 11.99 g/m*3 17.8 C 0 km/h
3015 24-07-2009 03:19:03 17.9 C 12.06 g/m*3 17.9 C 0 km/h
3016 24-07-2009 03:31:03 18.1 C 11.9 g/m*3 18.1 C 0 km/h
3017 24-07-2009 03:43:03 17.9 C 11.91 g/m*3 17.9 C 0 km/h
3018 24-07-2009 03:55:03 17.7 C 11.92 g/m*3 17.7 C 0 km/h
3019 24-07-2009 04:07:03 17.6 C 11.85 g/m*3 17.6 C 0 km/h
3020 24-07-2009 04:19:03 17.5 C 11.93 g/m*3 17.5 C 0 km/h
3021 24-07-2009 04:31:03 17.4 C 11.71 g/m*3 17.4 C 0 km/h
3022 24-07-2009 04:43:03 17.5 C 11.78 g/m*3 17.5 C 0 km/h
3023 24-07-2009 04:55:03 17.5 C 11.63 g/m*3 17.5 C 0 km/h
3024 24-07-2009 05:07:03 17.5 C 11.48 g/m*3 17.5 C 0 km/h
3025 24-07-2009 05:19:03 17.4 C 11.41 g/m*3 17.4 C 0 km/h
Sensor: Nr:Datum:Temp:Abs-Feuchte:Windchill:Wind:
Aussen-T/F 3026 24-07-2009 05:31:03 17.3 C 11.34 g/m*3 17.3 C 0 km/h
3027 24-07-2009 05:43:03 17.4 C 11.26 g/m*3 17.4 C 0 km/h
3028 24-07-2009 05:55:04 17.3 C 11.05 g/m*3 17.3 C 0 km/h
3029 24-07-2009 06:07:04 17.3 C 10.9 g/m*3 17.3 C 0 km/h
3030 24-07-2009 06:19:04 17.5 C 10.73 g/m*3 17.5 C 0 km/h
3031 24-07-2009 06:31:04 17.4 C 10.67 g/m*3 17.4 C 0 km/h
3032 24-07-2009 06:43:04 17.4 C 10.67 g/m*3 17.4 C 0 km/h
3033 24-07-2009 06:55:04 17.5 C 10.73 g/m*3 17.5 C 0 km/h
3034 24-07-2009 07:07:02 17.7 C 10.71 g/m*3 17.7 C 0 km/h
3035 24-07-2009 07:19:01 17.9 C 10.84 g/m*3 17.9 C 0 km/h
3036 24-07-2009 07:31:01 18.1 C 10.82 g/m*3 18.1 C 0 km/h
3037 24-07-2009 07:43:01 18.2 C 10.72 g/m*3 18.2 C 0 km/h
3038 24-07-2009 07:55:01 18.2 C 10.72 g/m*3 18.2 C 0 km/h
3039 24-07-2009 08:07:01 18.4 C 10.7 g/m*3 18.4 C 0 km/h
3040 24-07-2009 08:19:01 18.3 C 10.63 g/m*3 18.3 C 0 km/h
3041 24-07-2009 08:31:00 18.3 C 10.63 g/m*3 18.3 C 0 km/h
3042 24-07-2009 08:43:00 18.4 C 10.38 g/m*3 18.4 C 0 km/h
3043 24-07-2009 08:55:01 18.5 C 10.28 g/m*3 18.5 C 0 km/h
3044 24-07-2009 09:07:00 18.4 C 10.22 g/m*3 18.4 C 0 km/h
3045 24-07-2009 09:19:00 18.6 C 10.35 g/m*3 18.6 C 0 km/h
3046 24-07-2009 09:31:00 18.9 C 10.53 g/m*3 18.9 C 0 km/h
3047 24-07-2009 09:43:00 19.5 C 10.24 g/m*3 19.5 C 0 km/h
3048 24-07-2009 09:55:00 20.4 C 9.91 g/m*3 20.4 C 0 km/h
3049 24-07-2009 10:07:59 20.5 C 10.14 g/m*3 20.5 C 0 km/h
3050 24-07-2009 10:19:00 18.4 C 11.17 g/m*3 18.4 C 0 km/h
Sensor: Nr:Datum:Temp:Abs-Feuchte:Windchill:Wind:
Aussen-T/F 3051 24-07-2009 10:31:00 18.4 C 11.95 g/m*3 18.4 C 0 km/h
3052 24-07-2009 10:43:00 18.9 C 11.99 g/m*3 18.9 C 0 km/h
3053 24-07-2009 10:55:59 18.6 C 11.78 g/m*3 18.6 C 0 km/h
3054 24-07-2009 11:07:00 19.7 C 11.89 g/m*3 19.7 C 0 km/h
3055 24-07-2009 11:19:59 20.8 C 11.59 g/m*3 20.8 C 0 km/h
3056 24-07-2009 11:31:59 21.4 C 10.69 g/m*3 21.4 C 0 km/h
3057 24-07-2009 11:43:59 21 C 9.89 g/m*3 21 C 0 km/h
3058 24-07-2009 11:55:59 21.5 C 9.81 g/m*3 21.5 C 0 km/h
3059 24-07-2009 12:07:59 21.9 C 9.46 g/m*3 21.9 C 0 km/h
3060 24-07-2009 12:19:59 20 C 10.54 g/m*3 20 C 0 km/h
3061 24-07-2009 12:31:58 18.6 C 11.3 g/m*3 18.6 C 0 km/h
3062 24-07-2009 12:43:58 19.8 C 11.79 g/m*3 19.8 C 0 km/h
3063 24-07-2009 12:55:59 20.4 C 9.91 g/m*3 20.4 C 0 km/h
3064 24-07-2009 13:07:58 21.5 C 10.37 g/m*3 21.5 C 0 km/h
3065 24-07-2009 13:19:58 22.6 C 8.44 g/m*3 22.6 C 0 km/h
3066 24-07-2009 13:31:57 22.4 C 9.14 g/m*3 22.4 C 0 km/h
3067 24-07-2009 13:43:57 23.9 C 7.79 g/m*3 23.9 C 0 km/h
3068 24-07-2009 13:55:58 23.9 C 7.36 g/m*3 23.9 C 0 km/h
3069 24-07-2009 14:07:57 24.2 C 6.82 g/m*3 24.2 C 0 km/h
3070 24-07-2009 14:19:57 22.3 C 8.29 g/m*3 22.3 C 0 km/h
3071 24-07-2009 14:31:58 22 C 7.96 g/m*3 22 C 0 km/h
3072 24-07-2009 14:43:58 23.5 C 6.98 g/m*3 23.5 C 0 km/h
3073 24-07-2009 14:55:57 24.5 C 6.71 g/m*3 24.5 C 0 km/h
3074 24-07-2009 15:07:57 24.8 C 7.06 g/m*3 24.8 C 0 km/h
3075 24-07-2009 15:19:57 24.9 C 6.41 g/m*3 24.9 C 0 km/h
Sensor: Nr:Datum:Temp:Abs-Feuchte:Windchill:Wind:
Aussen-T/F 3076 24-07-2009 15:31:56 25.5 C 6.63 g/m*3 25.5 C 0 km/h
3077 24-07-2009 15:43:56 24.8 C 6.37 g/m*3 24.8 C 0 km/h
3078 24-07-2009 15:55:57 24.8 C 6.83 g/m*3 24.8 C 0 km/h
3079 24-07-2009 16:07:56 25.5 C 5.92 g/m*3 25.5 C 0 km/h
3080 24-07-2009 16:19:56 26 C 5.6 g/m*3 26 C 0 km/h
3081 24-07-2009 16:31:56 26.3 C 5.94 g/m*3 26.3 C 0 km/h
3082 24-07-2009 16:43:56 24.8 C 5.92 g/m*3 24.8 C 0 km/h
3083 24-07-2009 16:55:56 24.8 C 5.69 g/m*3 24.8 C 0 km/h
3084 24-07-2009 17:07:56 25.3 C 5.85 g/m*3 25.3 C 0 km/h
3085 24-07-2009 17:19:56 24.6 C 5.63 g/m*3 24.6 C 0 km/h
3086 24-07-2009 17:31:56 26.4 C 5.73 g/m*3 26.4 C 0 km/h
3087 24-07-2009 17:43:56 25.6 C 6.19 g/m*3 25.6 C 0 km/h
3088 24-07-2009 17:55:55 25.5 C 6.63 g/m*3 25.5 C 0 km/h
3089 24-07-2009 18:07:56 25.9 C 6.78 g/m*3 25.9 C 0 km/h
3090 24-07-2009 18:19:55 26.8 C 6.62 g/m*3 26.8 C 0 km/h
3091 24-07-2009 18:31:55 26.1 C 6.37 g/m*3 26.1 C 0 km/h
3092 24-07-2009 18:43:55 26.5 C 6.26 g/m*3 26.5 C 0 km/h
3093 24-07-2009 18:55:54 26.6 C 6.54 g/m*3 26.6 C 0 km/h
3094 24-07-2009 19:07:55 25.9 C 6.29 g/m*3 25.9 C 0 km/h
3095 24-07-2009 19:19:55 24.7 C 6.11 g/m*3 24.7 C 0 km/h
3096 24-07-2009 19:31:54 23.5 C 6.13 g/m*3 23.5 C 0 km/h
3097 24-07-2009 19:43:54 23.2 C 6.24 g/m*3 23.2 C 0 km/h
3098 24-07-2009 19:55:55 22.2 C 6.68 g/m*3 22.2 C 0 km/h
3099 24-07-2009 20:07:54 20.7 C 7.02 g/m*3 20.7 C 0 km/h
3100 24-07-2009 20:19:54 20.3 C 7.21 g/m*3 20.3 C 0 km/h
Sensor: Nr:Datum:Temp:Abs-Feuchte:Windchill:Wind:
Aussen-T/F 3101 24-07-2009 20:31:53 20.1 C 7.3 g/m*3 20.1 C 0 km/h
3102 24-07-2009 20:43:53 19.7 C 8.15 g/m*3 19.7 C 0 km/h
3103 24-07-2009 20:55:54 19.3 C 8.13 g/m*3 19.3 C 0 km/h
3104 24-07-2009 21:07:53 19.1 C 8.2 g/m*3 19.1 C 0 km/h
3105 24-07-2009 21:19:54 18.9 C 8.26 g/m*3 18.9 C 0 km/h
3106 24-07-2009 21:31:53 18.7 C 8.33 g/m*3 18.7 C 0 km/h
3107 24-07-2009 21:43:53 18.2 C 8.86 g/m*3 18.2 C 0 km/h
3108 24-07-2009 21:55:53 18.1 C 8.5 g/m*3 18.1 C 0 km/h
3109 24-07-2009 22:07:53 18.4 C 8.18 g/m*3 18.4 C 0 km/h
3110 24-07-2009 22:19:53 18.5 C 8.07 g/m*3 18.5 C 0 km/h
3111 24-07-2009 22:31:53 17.7 C 8.45 g/m*3 17.7 C 0 km/h
3112 24-07-2009 22:43:53 17.8 C 7.89 g/m*3 17.8 C 0 km/h
3113 24-07-2009 22:55:52 18 C 7.99 g/m*3 18 C 0 km/h
3114 24-07-2009 23:07:53 17.8 C 8.04 g/m*3 17.8 C 0 km/h
3115 24-07-2009 23:19:52 17.6 C 8.4 g/m*3 17.6 C 0 km/h
3116 24-07-2009 23:31:52 17.3 C 8.4 g/m*3 17.3 C 0 km/h
3117 24-07-2009 23:43:52 17.1 C 8.73 g/m*3 17.1 C 0 km/h
3118 24-07-2009 23:55:52 17.2 C 8.35 g/m*3 17.2 C 0 km/h
3119 25-07-2009 00:07:52 17.2 C 8.35 g/m*3 17.2 C 0 km/h
3120 25-07-2009 00:20:52 16.9 C 8.77 g/m*3 16.9 C 0 km/h
3121 25-07-2009 00:32:52 16.1 C 9.18 g/m*3 16.1 C 0 km/h
3122 25-07-2009 00:44:52 16.2 C 9.1 g/m*3 16.2 C 0 km/h
3123 25-07-2009 00:56:52 16.3 C 8.88 g/m*3 16.3 C 0 km/h
3124 25-07-2009 01:08:52 16.4 C 8.79 g/m*3 16.4 C 0 km/h
3125 25-07-2009 01:20:52 16.3 C 8.88 g/m*3 16.3 C 0 km/h
Sensor: Nr:Datum:Temp:Abs-Feuchte:Windchill:Wind:
Aussen-T/F 3126 25-07-2009 01:32:52 16.2 C 8.96 g/m*3 16.2 C 0 km/h
3127 25-07-2009 01:44:52 16.2 C 9.1 g/m*3 16.2 C 0 km/h
3128 25-07-2009 01:56:52 16.3 C 9.16 g/m*3 16.3 C 0 km/h
3129 25-07-2009 02:08:52 16.3 C 9.16 g/m*3 16.3 C 0 km/h
3130 25-07-2009 02:20:52 16.3 C 9.16 g/m*3 16.3 C 0 km/h
3131 25-07-2009 02:32:53 16.2 C 9.24 g/m*3 16.2 C 0 km/h
3132 25-07-2009 02:44:53 15.9 C 9.21 g/m*3 15.9 C 0 km/h
3133 25-07-2009 02:56:53 15.7 C 9.1 g/m*3 15.7 C 0 km/h
3134 25-07-2009 03:08:53 15.7 C 9.37 g/m*3 15.7 C 0 km/h
3135 25-07-2009 03:20:53 15.6 C 9.44 g/m*3 15.6 C 0 km/h
3136 25-07-2009 03:32:53 15.5 C 9.39 g/m*3 15.5 C 0 km/h
3137 25-07-2009 03:44:53 15.5 C 9.39 g/m*3 15.5 C 0 km/h
3138 25-07-2009 03:56:53 15.2 C 9.35 g/m*3 15.2 C 0 km/h
3139 25-07-2009 04:08:53 15 C 9.36 g/m*3 15 C 0 km/h
3140 25-07-2009 04:20:53 14.8 C 9.37 g/m*3 14.8 C 0 km/h
3141 25-07-2009 04:32:53 14.7 C 9.32 g/m*3 14.7 C 0 km/h
3142 25-07-2009 04:44:53 14.7 C 9.07 g/m*3 14.7 C 0 km/h
3143 25-07-2009 04:56:53 14.8 C 8.87 g/m*3 14.8 C 0 km/h
3144 25-07-2009 05:08:53 14.8 C 8.61 g/m*3 14.8 C 0 km/h
3145 25-07-2009 05:20:53 14.7 C 8.69 g/m*3 14.7 C 0 km/h
3146 25-07-2009 05:32:53 14.6 C 8.76 g/m*3 14.6 C 0 km/h
3147 25-07-2009 05:44:53 14.5 C 8.71 g/m*3 14.5 C 0 km/h
3148 25-07-2009 05:56:53 14.7 C 8.69 g/m*3 14.7 C 0 km/h
3149 25-07-2009 06:08:53 14.7 C 8.69 g/m*3 14.7 C 0 km/h
3150 25-07-2009 06:20:54 14.7 C 8.81 g/m*3 14.7 C 0 km/h
Sensor: Nr:Datum:Temp:Abs-Feuchte:Windchill:Wind:
Aussen-T/F 3151 25-07-2009 06:32:54 14.3 C 8.85 g/m*3 14.3 C 0 km/h
3152 25-07-2009 06:44:54 14.1 C 8.98 g/m*3 14.1 C 0 km/h
3153 25-07-2009 06:56:54 14.2 C 9.16 g/m*3 14.2 C 0 km/h
3154 25-07-2009 07:08:54 14.5 C 9.2 g/m*3 14.5 C 0 km/h
3155 25-07-2009 07:20:54 14.4 C 9.02 g/m*3 14.4 C 0 km/h
3156 25-07-2009 07:32:54 14.4 C 9.02 g/m*3 14.4 C 0 km/h
3157 25-07-2009 07:44:54 14.4 C 9.15 g/m*3 14.4 C 0 km/h
3158 25-07-2009 07:56:54 14.8 C 9.12 g/m*3 14.8 C 0 km/h
3159 25-07-2009 08:08:54 15.3 C 8.88 g/m*3 15.3 C 0 km/h
3160 25-07-2009 08:20:54 15.4 C 8.67 g/m*3 15.4 C 0 km/h
3161 25-07-2009 08:32:52 16.1 C 8.91 g/m*3 16.1 C 0 km/h
3162 25-07-2009 08:44:52 16.3 C 8.6 g/m*3 16.3 C 0 km/h
3163 25-07-2009 08:56:52 16.7 C 8.95 g/m*3 16.7 C 0 km/h
3164 25-07-2009 09:08:52 16.9 C 8.77 g/m*3 16.9 C 0 km/h
3165 25-07-2009 09:20:51 17.1 C 8.59 g/m*3 17.1 C 0 km/h
3166 25-07-2009 09:32:51 17.5 C 8.65 g/m*3 17.5 C 0 km/h
3167 25-07-2009 09:44:52 17.7 C 8.45 g/m*3 17.7 C 0 km/h
3168 25-07-2009 09:56:52 17.9 C 8.4 g/m*3 17.9 C 0 km/h
3169 25-07-2009 10:08:51 18 C 8.14 g/m*3 18 C 0 km/h
3170 25-07-2009 10:20:51 18.4 C 8.18 g/m*3 18.4 C 0 km/h
3171 25-07-2009 10:32:51 19 C 7.99 g/m*3 19 C 0 km/h
3172 25-07-2009 10:44:51 19.1 C 7.7 g/m*3 19.1 C 0 km/h
3173 25-07-2009 10:56:51 19.2 C 7.59 g/m*3 19.2 C 0 km/h
3174 25-07-2009 11:08:50 19.6 C 7.43 g/m*3 19.6 C 0 km/h
3175 25-07-2009 11:20:51 20 C 7.09 g/m*3 20 C 0 km/h
Sensor: Nr:Datum:Temp:Abs-Feuchte:Windchill:Wind:
Aussen-T/F 3176 25-07-2009 11:32:50 20 C 7.26 g/m*3 20 C 0 km/h
3177 25-07-2009 11:44:50 20.4 C 7.08 g/m*3 20.4 C 0 km/h
3178 25-07-2009 11:56:51 19.5 C 7.72 g/m*3 19.5 C 0 km/h
3179 25-07-2009 12:08:50 18.9 C 8.26 g/m*3 18.9 C 0 km/h
3180 25-07-2009 12:20:50 18.9 C 8.59 g/m*3 18.9 C 0 km/h
3181 25-07-2009 12:32:50 19.9 C 8.59 g/m*3 19.9 C 0 km/h
3182 25-07-2009 12:44:50 21 C 8.61 g/m*3 21 C 0 km/h
3183 25-07-2009 12:56:50 22 C 8.15 g/m*3 22 C 0 km/h
3184 25-07-2009 13:08:50 21 C 8.24 g/m*3 21 C 0 km/h
3185 25-07-2009 13:20:49 20.7 C 7.56 g/m*3 20.7 C 0 km/h
3186 25-07-2009 13:32:49 21.8 C 7.48 g/m*3 21.8 C 0 km/h
3187 25-07-2009 13:44:49 23 C 7.19 g/m*3 23 C 0 km/h
3188 25-07-2009 13:56:49 22.2 C 7.46 g/m*3 22.2 C 0 km/h
3189 25-07-2009 14:08:49 22.6 C 7.23 g/m*3 22.6 C 0 km/h
3190 25-07-2009 14:20:48 21.7 C 7.25 g/m*3 21.7 C 0 km/h
3191 25-07-2009 14:32:49 21.8 C 8.06 g/m*3 21.8 C 0 km/h
3192 25-07-2009 14:44:49 22.2 C 7.66 g/m*3 22.2 C 0 km/h
3193 25-07-2009 14:56:49 22.4 C 7.35 g/m*3 22.4 C 0 km/h
3194 25-07-2009 15:08:48 21.6 C 7.78 g/m*3 21.6 C 0 km/h
3195 25-07-2009 15:20:49 23.1 C 7.65 g/m*3 23.1 C 0 km/h
3196 25-07-2009 15:32:48 22.3 C 6.71 g/m*3 22.3 C 0 km/h
3197 25-07-2009 15:44:48 21.8 C 7.48 g/m*3 21.8 C 0 km/h
3198 25-07-2009 15:56:48 22.8 C 7.32 g/m*3 22.8 C 0 km/h
3199 25-07-2009 16:08:48 23.7 C 6.84 g/m*3 23.7 C 0 km/h
3200 25-07-2009 16:20:48 22.8 C 7.32 g/m*3 22.8 C 0 km/h
Sensor: Nr:Datum:Temp:Abs-Feuchte:Windchill:Wind:
Aussen-T/F 3201 25-07-2009 16:32:48 23.2 C 7.69 g/m*3 23.2 C 0 km/h
3202 25-07-2009 16:44:47 22.9 C 7.36 g/m*3 22.9 C 0 km/h
3203 25-07-2009 16:56:47 24 C 7.61 g/m*3 24 C 0 km/h
3204 25-07-2009 17:08:48 24.3 C 6.42 g/m*3 24.3 C 0 km/h
3205 25-07-2009 17:20:47 23.9 C 6.92 g/m*3 23.9 C 0 km/h
3206 25-07-2009 17:32:47 24.2 C 6.6 g/m*3 24.2 C 0 km/h
3207 25-07-2009 17:44:47 23 C 6.58 g/m*3 23 C 0 km/h
3208 25-07-2009 17:56:47 22.2 C 7.46 g/m*3 22.2 C 0 km/h
3209 25-07-2009 18:08:47 21.1 C 7.74 g/m*3 21.1 C 0 km/h
3210 25-07-2009 18:20:46 21.8 C 7.67 g/m*3 21.8 C 0 km/h
3211 25-07-2009 18:32:46 21.1 C 7.55 g/m*3 21.1 C 0 km/h
3212 25-07-2009 18:44:46 19.3 C 8.79 g/m*3 19.3 C 0 km/h
3213 25-07-2009 18:56:46 17.1 C 10.19 g/m*3 17.1 C 0 km/h
3214 25-07-2009 19:08:46 16.6 C 11.16 g/m*3 16.6 C 0 km/h
3215 25-07-2009 19:20:46 17.7 C 12.07 g/m*3 17.7 C 0 km/h
3216 25-07-2009 19:32:46 18.7 C 12.49 g/m*3 18.7 C 0 km/h
3217 25-07-2009 19:44:46 19.8 C 12.47 g/m*3 19.8 C 0 km/h
3218 25-07-2009 19:56:46 19.1 C 11.8 g/m*3 19.1 C 0 km/h
3219 25-07-2009 20:08:46 18.2 C 11.5 g/m*3 18.2 C 0 km/h
3220 25-07-2009 20:20:45 17.7 C 11.47 g/m*3 17.7 C 0 km/h
3221 25-07-2009 20:32:45 17 C 10.85 g/m*3 17 C 0 km/h
3222 25-07-2009 20:44:45 16.8 C 11.01 g/m*3 16.8 C 0 km/h
3223 25-07-2009 20:56:45 16.4 C 11.03 g/m*3 16.4 C 0 km/h
3224 25-07-2009 21:08:45 16.3 C 10.96 g/m*3 16.3 C 0 km/h
3225 25-07-2009 21:20:45 16.3 C 10.96 g/m*3 16.3 C 0 km/h
Sensor: Nr:Datum:Temp:Abs-Feuchte:Windchill:Wind:
Aussen-T/F 3226 25-07-2009 21:32:45 16.4 C 11.17 g/m*3 16